Provisional Data: Trout Run near Shawville, PA


Please select a monitoring station.
Please select start date.
Please select start date.

Toggle Unit: C/F Toggle Unit: C/F
Sample Time Temperature (C) Temperature (F) Specific Conductivity (mS/cm) pH   Turbidity (NTU+) DO (mg/L)
5/17/2022 12:00:00 AM 12.34 54.212 0.04 6.1 2.67 10.35
5/17/2022 12:15:00 AM 12.3 54.14 0.04 6.1 2.73 10.36
5/17/2022 12:30:00 AM 12.25 54.05 0.04 6.1 2.54 10.37
5/17/2022 12:45:00 AM 12.2 53.96 0.04 6.1 2.54 10.38
5/17/2022 1:00:00 AM 12.15 53.87 0.04 6.1 2.74 10.39
5/17/2022 1:15:00 AM 12.1 53.78 0.04 6.09 2.65 10.4
5/17/2022 1:30:00 AM 12.04 53.672 0.04 6.1 2.66 10.41
5/17/2022 1:45:00 AM 11.98 53.564 0.04 6.09 2.63 10.42
5/17/2022 2:00:00 AM 11.93 53.474 0.04 6.09 2.7 10.44
5/17/2022 2:15:00 AM 11.86 53.348 0.04 6.09 2.6 10.46
5/17/2022 2:30:00 AM 11.8 53.24 0.04 6.09 2.72 10.47
5/17/2022 2:45:00 AM 11.73 53.114 0.04 6.09 2.64 10.48
5/17/2022 3:00:00 AM 11.66 52.988 0.04 6.09 2.61 10.51
5/17/2022 3:15:00 AM 11.6 52.88 0.04 6.09 2.89 10.52
5/17/2022 3:30:00 AM 11.54 52.772 0.04 6.09 2.58 10.52
5/17/2022 3:45:00 AM 11.48 52.664 0.04 6.09 2.68 10.54
5/17/2022 4:00:00 AM 11.42 52.556 0.04 6.08 2.54 10.56
5/17/2022 4:15:00 AM 11.35 52.43 0.04 6.08 2.6 10.58
5/17/2022 4:30:00 AM -100000 -179968 -100000 -100000 -100000 -100000
5/17/2022 4:45:00 AM 11.22 52.196 0.04 6.08 2.64 10.61
5/17/2022 5:00:00 AM 11.16 52.088 0.04 6.08 2.56 10.62
5/17/2022 5:15:00 AM 11.1 51.98 0.04 6.08 2.63 10.64
5/17/2022 5:30:00 AM 11.04 51.872 0.04 6.06 2.78 10.66
5/17/2022 5:45:00 AM 10.97 51.746 0.04 6.08 2.67 10.68
5/17/2022 6:00:00 AM 10.91 51.638 0.04 6.08 2.61 10.69
5/17/2022 6:15:00 AM 10.86 51.548 0.04 6.05 2.57 10.71
5/17/2022 6:30:00 AM 10.79 51.422 0.04 6.08 2.72 10.74
5/17/2022 6:45:00 AM -100000 -179968 -100000 -100000 -100000 -100000
5/17/2022 7:00:00 AM 10.69 51.242 0.04 6.06 2.61 10.78
5/17/2022 7:15:00 AM 10.65 51.17 0.04 6.09 2.69 10.81
5/17/2022 7:30:00 AM 10.61 51.098 0.04 6.08 2.62 10.82
5/17/2022 7:45:00 AM 10.6 51.08 0.04 6.1 2.68 10.85
5/17/2022 8:00:00 AM -100000 -179968 -100000 -100000 -100000 -100000
5/17/2022 8:15:00 AM 10.6 51.08 0.041 6.11 2.67 10.9
5/17/2022 8:30:00 AM 10.61 51.098 0.041 6.11 2.63 10.91
5/17/2022 8:45:00 AM 10.64 51.152 0.041 6.11 2.68 10.93
5/17/2022 9:00:00 AM 10.69 51.242 0.041 6.11 2.71 10.94
5/17/2022 9:15:00 AM 10.75 51.35 0.041 6.12 2.66 10.93
5/17/2022 9:30:00 AM 10.81 51.458 0.041 6.12 2.62 10.92
5/17/2022 9:45:00 AM 10.89 51.602 0.041 6.12 2.61 10.92
5/17/2022 10:00:00 AM 11.02 51.836 0.041 6.14 2.68 10.9
5/17/2022 10:15:00 AM 11.15 52.07 0.041 6.14 2.53 10.88
5/17/2022 10:30:00 AM 11.29 52.322 0.041 6.15 2.63 10.86
5/17/2022 10:45:00 AM 11.39 52.502 0.041 6.14 2.63 10.84
5/17/2022 11:00:00 AM 11.45 52.61 0.041 6.15 2.61 10.82
5/17/2022 11:15:00 AM 11.51 52.718 0.041 6.15 2.61 10.79
5/17/2022 11:30:00 AM 11.63 52.934 0.041 6.15 2.62 10.78
5/17/2022 11:45:00 AM 11.83 53.294 0.041 6.14 2.61 10.74
5/17/2022 12:00:00 PM 12 53.6 0.041 6.15 2.55 10.7
5/17/2022 12:15:00 PM 12.23 54.014 0.041 6.16 2.79 10.65
5/17/2022 12:30:00 PM 12.46 54.428 0.041 6.16 2.64 10.59
5/17/2022 12:45:00 PM 12.73 54.914 0.041 6.16 2.74 10.53
5/17/2022 1:00:00 PM 12.95 55.31 0.041 6.16 2.55 10.48
5/17/2022 1:15:00 PM 13.2 55.76 0.041 6.15 2.6 10.41
5/17/2022 1:30:00 PM 13.49 56.282 0.041 6.16 2.64 10.35
5/17/2022 1:45:00 PM 13.73 56.714 0.041 6.16 2.52 10.29
5/17/2022 2:00:00 PM 13.95 57.11 0.041 6.16 2.5 10.22
5/17/2022 2:15:00 PM 14.17 57.506 0.041 6.16 2.51 10.16
5/17/2022 2:30:00 PM 14.33 57.794 0.041 6.16 2.71 10.11
5/17/2022 2:45:00 PM 14.53 58.154 0.041 6.15 2.62 10.06
5/17/2022 3:00:00 PM 14.65 58.37 0.041 6.15 2.6 10.02
5/17/2022 3:15:00 PM 14.78 58.604 0.041 6.16 2.59 9.98
5/17/2022 3:30:00 PM 14.87 58.766 0.041 6.16 2.52 9.95
5/17/2022 3:45:00 PM 14.92 58.856 0.041 6.15 2.53 9.93
5/17/2022 4:00:00 PM 14.93 58.874 0.041 6.16 2.54 9.91
5/17/2022 4:15:00 PM 14.91 58.838 0.041 6.16 2.61 9.89
5/17/2022 4:30:00 PM 14.89 58.802 0.041 6.15 2.38 9.88
5/17/2022 4:45:00 PM 14.86 58.748 0.041 6.06 2.55 9.88
5/17/2022 5:00:00 PM 14.82 58.676 0.041 6.15 2.64 9.88
5/17/2022 5:15:00 PM 14.79 58.622 0.041 6.16 2.47 9.88
5/17/2022 5:30:00 PM 14.74 58.532 0.041 6.15 2.38 9.87
5/17/2022 5:45:00 PM 14.68 58.424 0.041 6.15 2.44 9.9
5/17/2022 6:00:00 PM 14.61 58.298 0.041 6.15 2.54 9.9
5/17/2022 6:15:00 PM 14.52 58.136 0.041 6.14 2.51 9.92
5/17/2022 6:30:00 PM 14.41 57.938 0.041 6.14 2.49 9.94
5/17/2022 6:45:00 PM 14.29 57.722 0.041 6.14 2.5 9.95
5/17/2022 7:00:00 PM 14.18 57.524 0.041 6.14 2.63 9.97
5/17/2022 7:15:00 PM 14.05 57.29 0.041 6.14 2.42 10
5/17/2022 7:30:00 PM 13.91 57.038 0.041 6.08 2.47 10.03
5/17/2022 7:45:00 PM 13.75 56.75 0.041 6.14 2.53 10.06
5/17/2022 8:00:00 PM 13.6 56.48 0.041 6.14 2.58 10.09
5/17/2022 8:15:00 PM 13.46 56.228 0.041 6.12 2.57 10.13
5/17/2022 8:30:00 PM 13.31 55.958 0.041 6.12 2.54 10.16
5/17/2022 8:45:00 PM 13.15 55.67 0.041 6.13 2.44 10.19
5/17/2022 9:00:00 PM 13.01 55.418 0.041 6.13 2.5 10.23
5/17/2022 9:15:00 PM 12.86 55.148 0.041 6.13 2.51 10.26
5/17/2022 9:30:00 PM 12.74 54.932 0.041 6.13 2.57 10.29
5/17/2022 9:45:00 PM 12.61 54.698 0.041 6.13 2.57 10.32
5/17/2022 10:00:00 PM 12.51 54.518 0.041 6.13 2.45 10.35
5/17/2022 10:15:00 PM 12.41 54.338 0.041 6.14 2.51 10.36
5/17/2022 10:30:00 PM 12.32 54.176 0.041 6.14 2.41 10.39
5/17/2022 10:45:00 PM 12.22 53.996 0.041 6.14 2.4 10.41
5/17/2022 11:00:00 PM 12.13 53.834 0.042 6.14 2.51 10.43
5/17/2022 11:15:00 PM 12.04 53.672 0.042 6.13 2.51 10.46
5/17/2022 11:30:00 PM 11.95 53.51 0.042 6.15 2.43 10.48
5/17/2022 11:45:00 PM 11.87 53.366 0.042 6.14 2.58 10.5
5/18/2022 12:00:00 AM 11.78 53.204 0.042 6.14 2.48 10.51
5/18/2022 12:15:00 AM 11.7 53.06 0.042 6.14 2.4 10.54
5/18/2022 12:30:00 AM 11.62 52.916 0.042 6.14 2.36 10.55
5/18/2022 12:45:00 AM 11.54 52.772 0.042 6.12 2.38 10.59
5/18/2022 1:00:00 AM 11.46 52.628 0.042 6.13 2.39 10.59
5/18/2022 1:15:00 AM 11.37 52.466 0.042 6.13 2.42 10.61
5/18/2022 1:30:00 AM 11.3 52.34 0.042 6.13 2.46 10.63
5/18/2022 1:45:00 AM 11.21 52.178 0.042 6.13 2.49 10.66
5/18/2022 2:00:00 AM 11.13 52.034 0.042 6.13 2.45 10.68
5/18/2022 2:15:00 AM 11.05 51.89 0.042 6.13 2.39 10.69
5/18/2022 2:30:00 AM 10.96 51.728 0.042 6.13 2.57 10.72
5/18/2022 2:45:00 AM 10.88 51.584 0.042 6.13 2.41 10.74
5/18/2022 3:00:00 AM 10.79 51.422 0.042 6.13 2.46 10.78
5/18/2022 3:15:00 AM 10.71 51.278 0.042 6.13 2.36 10.8
5/18/2022 3:30:00 AM 10.63 51.134 0.042 6.13 2.51 10.83
5/18/2022 3:45:00 AM 10.55 50.99 0.042 6.12 2.56 10.84
5/18/2022 4:00:00 AM 10.47 50.846 0.042 6.13 2.4 10.85
5/18/2022 4:15:00 AM 10.38 50.684 0.042 6.07 2.46 10.88
5/18/2022 4:30:00 AM 10.3 50.54 0.042 6.13 2.49 10.91
5/18/2022 4:45:00 AM 10.22 50.396 0.042 6.13 2.37 10.92
5/18/2022 5:00:00 AM 10.14 50.252 0.042 6.12 2.44 10.94
5/18/2022 5:15:00 AM 10.06 50.108 0.042 6.11 2.53 10.97
5/18/2022 5:30:00 AM 9.98 49.964 0.042 6.12 2.58 10.99
5/18/2022 5:45:00 AM -100000 -179968 -100000 -100000 -100000 -100000
5/18/2022 6:00:00 AM 9.82 49.676 0.042 6.07 2.67 11.05
5/18/2022 6:15:00 AM 9.75 49.55 0.043 6.13 2.4 11.07
5/18/2022 6:30:00 AM 9.69 49.442 0.043 6.13 2.4 11.09
5/18/2022 6:45:00 AM 9.62 49.316 0.043 6.12 2.39 11.12
5/18/2022 7:00:00 AM 9.56 49.208 0.043 6.13 2.56 11.15
5/18/2022 7:15:00 AM 9.51 49.118 0.043 6.13 2.44 11.18
5/18/2022 7:30:00 AM 9.47 49.046 0.043 6.13 2.5 11.19
5/18/2022 7:45:00 AM 9.43 48.974 0.043 6.14 2.44 11.22
5/18/2022 8:00:00 AM 9.41 48.938 0.043 6.14 2.49 11.25
5/18/2022 8:15:00 AM 9.4 48.92 0.043 6.15 2.57 11.26
5/18/2022 8:30:00 AM 9.4 48.92 0.043 6.15 2.38 11.29
5/18/2022 8:45:00 AM 9.44 48.992 0.043 6.15 2.4 11.3
5/18/2022 9:00:00 AM 9.49 49.082 0.043 6.15 2.54 11.32
5/18/2022 9:15:00 AM 9.58 49.244 0.043 6.16 2.43 11.32
5/18/2022 9:30:00 AM 9.67 49.406 0.043 6.17 2.43 11.31
5/18/2022 9:45:00 AM 9.78 49.604 0.043 6.17 2.39 11.3
5/18/2022 10:00:00 AM 9.9 49.82 0.043 6.18 2.53 11.29
5/18/2022 10:15:00 AM 10.02 50.036 0.043 6.18 2.37 11.27
5/18/2022 10:30:00 AM 10.15 50.27 0.043 6.19 2.4 11.24
5/18/2022 10:45:00 AM 10.31 50.558 0.043 6.19 2.42 11.21
5/18/2022 11:00:00 AM 10.48 50.864 0.043 6.19 2.52 11.18
5/18/2022 11:15:00 AM 10.66 51.188 0.043 6.2 2.34 11.12
5/18/2022 11:30:00 AM 10.85 51.53 0.043 6.2 2.43 11.08
5/18/2022 11:45:00 AM 11.03 51.854 0.043 6.2 2.38 11.02
5/18/2022 12:00:00 PM 11.26 52.268 0.043 6.21 2.4 10.97
5/18/2022 12:15:00 PM 11.38 52.484 0.043 6.21 2.36 10.92
5/18/2022 12:30:00 PM 11.5 52.7 0.043 6.2 2.5 10.87
5/18/2022 12:45:00 PM 11.62 52.916 0.043 6.2 2.41 10.82
5/18/2022 1:00:00 PM 11.75 53.15 0.043 6.2 2.4 10.79
5/18/2022 1:15:00 PM 11.87 53.366 0.043 6.22 2.51 10.77
5/18/2022 1:30:00 PM 12.01 53.618 0.043 6.22 2.37 10.74
5/18/2022 1:45:00 PM 12.15 53.87 0.043 6.22 2.4 10.71
5/18/2022 2:00:00 PM 12.23 54.014 0.043 6.21 2.46 10.67
5/18/2022 2:15:00 PM 12.28 54.104 0.043 6.22 2.5 10.62
5/18/2022 2:30:00 PM 12.33 54.194 0.043 6.22 2.55 10.58
5/18/2022 2:45:00 PM 12.38 54.284 0.043 6.2 2.5 10.56
5/18/2022 3:00:00 PM 12.46 54.428 0.043 6.21 2.5 10.55
5/18/2022 3:15:00 PM 12.51 54.518 0.043 6.21 2.35 10.55
5/18/2022 3:30:00 PM 12.53 54.554 0.043 5.94 2.54 10.53
5/18/2022 3:45:00 PM 12.5 54.5 0.043 6.21 2.45 10.5
5/18/2022 4:00:00 PM 12.46 54.428 0.043 6.19 2.36 10.48
5/18/2022 4:15:00 PM 12.42 54.356 0.043 6.19 2.3 10.46
5/18/2022 4:30:00 PM 12.37 54.266 0.043 6.19 2.37 10.47
5/18/2022 4:45:00 PM 12.33 54.194 0.043 6.18 2.39 10.46
5/18/2022 5:00:00 PM 12.29 54.122 0.043 6.18 2.36 10.49
5/18/2022 5:15:00 PM 12.23 54.014 0.043 6.19 2.89 10.5
5/18/2022 5:30:00 PM 12.17 53.906 0.043 6.19 2.38 10.5
5/18/2022 5:45:00 PM 12.11 53.798 0.043 6.18 2.51 10.5
5/18/2022 6:00:00 PM 12.05 53.69 0.043 6.18 2.46 10.5
5/18/2022 6:15:00 PM 11.99 53.582 0.043 6.17 2.41 10.52
5/18/2022 6:30:00 PM 11.93 53.474 0.043 6.17 2.48 10.53
5/18/2022 6:45:00 PM 11.88 53.384 0.043 6.17 2.36 10.54
5/18/2022 7:00:00 PM 11.84 53.312 0.043 6.16 2.47 10.53
5/18/2022 7:15:00 PM 11.79 53.222 0.043 6.17 2.4 10.54
5/18/2022 7:30:00 PM 11.75 53.15 0.044 6.17 2.34 10.55
5/18/2022 7:45:00 PM 11.7 53.06 0.044 6.15 2.52 10.55
5/18/2022 8:00:00 PM 11.66 52.988 0.044 6.17 2.48 10.54
5/18/2022 8:15:00 PM 11.62 52.916 0.044 6.16 2.46 10.56
5/18/2022 8:30:00 PM 11.58 52.844 0.044 6.17 2.57 10.55
5/18/2022 8:45:00 PM 11.54 52.772 0.044 6.17 2.46 10.56
5/18/2022 9:00:00 PM 11.51 52.718 0.044 6.17 2.41 10.57
5/18/2022 9:15:00 PM 11.48 52.664 0.044 6.17 2.46 10.57
5/18/2022 9:30:00 PM 11.45 52.61 0.044 6.17 2.5 10.57
5/18/2022 9:45:00 PM 11.43 52.574 0.044 6.17 2.61 10.57
5/18/2022 10:00:00 PM 11.41 52.538 0.044 6.17 2.51 10.57
5/18/2022 10:15:00 PM 11.39 52.502 0.044 6.18 2.51 10.58
5/18/2022 10:30:00 PM -100000 -179968 -100000 -100000 -100000 -100000
5/18/2022 10:45:00 PM 11.35 52.43 0.044 6.19 2.41 10.59
5/18/2022 11:00:00 PM 11.34 52.412 0.045 6.19 2.51 10.59
5/18/2022 11:15:00 PM 11.32 52.376 0.045 6.19 2.58 10.58
5/18/2022 11:30:00 PM 11.3 52.34 0.045 6.2 2.58 10.59
5/18/2022 11:45:00 PM 11.28 52.304 0.045 6.19 2.46 10.59
5/19/2022 12:00:00 AM 11.26 52.268 0.046 6.18 2.58 10.6
5/19/2022 12:15:00 AM 11.24 52.232 0.046 6.18 2.53 10.59
5/19/2022 12:30:00 AM 11.23 52.214 0.046 6.18 2.4 10.6
5/19/2022 12:45:00 AM -100000 -179968 -100000 -100000 -100000 -100000
5/19/2022 1:00:00 AM 11.19 52.142 0.046 6.17 2.46 10.6
5/19/2022 1:15:00 AM 11.17 52.106 0.046 6.17 2.42 10.62
5/19/2022 1:30:00 AM 11.15 52.07 0.046 6.17 2.54 10.62
5/19/2022 1:45:00 AM 11.13 52.034 0.046 6.17 3.18 10.6
5/19/2022 2:00:00 AM 11.11 51.998 0.046 6.17 2.57 10.62
5/19/2022 2:15:00 AM 11.1 51.98 0.046 6.16 2.4 10.62
5/19/2022 2:30:00 AM 11.08 51.944 0.046 6.17 2.47 10.63
5/19/2022 2:45:00 AM 11.07 51.926 0.046 6.16 2.63 10.63
5/19/2022 3:00:00 AM 11.06 51.908 0.046 6.16 2.42 10.63
5/19/2022 3:15:00 AM 11.04 51.872 0.046 6.16 2.45 10.64
5/19/2022 3:30:00 AM 11.03 51.854 0.046 6.16 2.45 10.63
5/19/2022 3:45:00 AM 11.02 51.836 0.046 6.15 2.46 10.64
5/19/2022 4:00:00 AM 11 51.8 0.045 6.15 2.41 10.64
5/19/2022 4:15:00 AM 10.99 51.782 0.045 6.15 2.5 10.64
5/19/2022 4:30:00 AM 10.98 51.764 0.045 6.16 2.42 10.65
5/19/2022 4:45:00 AM 10.97 51.746 0.045 6.15 2.54 10.64
5/19/2022 5:00:00 AM 10.96 51.728 0.045 6.15 2.3 10.65
5/19/2022 5:15:00 AM 10.95 51.71 0.045 6.15 2.4 10.64
5/19/2022 5:30:00 AM 10.94 51.692 0.045 6.14 2.44 10.65
5/19/2022 5:45:00 AM 10.94 51.692 0.045 6.15 2.55 10.66
5/19/2022 6:00:00 AM 10.93 51.674 0.045 6.14 2.4 10.66
5/19/2022 6:15:00 AM -100000 -179968 -100000 -100000 -100000 -100000
5/19/2022 6:30:00 AM 10.91 51.638 0.044 6.14 2.52 10.66
5/19/2022 6:45:00 AM 10.91 51.638 0.044 6.14 2.46 10.67
5/19/2022 7:00:00 AM 10.9 51.62 0.044 6.13 2.47 10.68
5/19/2022 7:15:00 AM 10.9 51.62 0.045 6.14 2.53 10.68
5/19/2022 7:30:00 AM 10.9 51.62 0.045 6.14 2.52 10.7
5/19/2022 7:45:00 AM 10.91 51.638 0.045 6.13 2.54 10.71
5/19/2022 8:00:00 AM 10.92 51.656 0.045 6.14 2.55 10.72
5/19/2022 8:15:00 AM 10.93 51.674 0.044 6.14 2.58 10.73
5/19/2022 8:30:00 AM 10.95 51.71 0.044 6.14 2.57 10.74
5/19/2022 8:45:00 AM 10.97 51.746 0.044 6.15 2.4 10.76
5/19/2022 9:00:00 AM 10.99 51.782 0.044 6.16 2.44 10.76
5/19/2022 9:15:00 AM -100000 -179968 -100000 -100000 -100000 -100000
5/19/2022 9:30:00 AM 11.01 51.818 0.044 6.14 2.5 10.73
5/19/2022 9:45:00 AM 11.03 51.854 0.044 6.15 2.4 10.74
5/19/2022 10:00:00 AM 11.05 51.89 0.044 6.04 2.44 10.73
5/19/2022 10:15:00 AM 11.07 51.926 0.044 6.14 2.5 10.72
5/19/2022 10:30:00 AM 11.1 51.98 0.044 6.14 2.45 10.72
5/19/2022 10:45:00 AM 11.13 52.034 0.044 6.14 2.47 10.71
5/19/2022 11:00:00 AM 11.16 52.088 0.044 6.14 2.47 10.72
5/19/2022 11:15:00 AM 11.19 52.142 0.044 6.14 2.51 10.71
5/19/2022 11:30:00 AM 11.22 52.196 0.044 6.15 2.38 10.71
5/19/2022 11:45:00 AM 11.26 52.268 0.044 6.15 2.55 10.71
5/19/2022 12:00:00 PM 11.3 52.34 0.044 6.15 2.52 10.71
5/19/2022 12:15:00 PM 11.37 52.466 0.044 6.16 2.53 10.72
5/19/2022 12:30:00 PM 11.47 52.646 0.044 6.17 2.54 10.72
5/19/2022 12:45:00 PM 11.63 52.934 0.044 6.18 2.42 10.73
5/19/2022 1:00:00 PM 11.81 53.258 0.044 6.2 2.33 10.71
5/19/2022 1:15:00 PM 11.92 53.456 0.044 6.21 2.54 10.68
5/19/2022 1:30:00 PM 12.05 53.69 0.044 6.21 2.44 10.63
5/19/2022 1:45:00 PM 12.17 53.906 0.044 6.21 2.41 10.59
5/19/2022 2:00:00 PM 12.36 54.248 0.044 6.21 2.45 10.55
5/19/2022 2:15:00 PM 12.54 54.572 0.044 6.22 2.45 10.51
5/19/2022 2:30:00 PM 12.74 54.932 0.044 6.22 2.54 10.47
5/19/2022 2:45:00 PM 12.97 55.346 0.044 6.22 2.43 10.4
5/19/2022 3:00:00 PM 13.22 55.796 0.044 6.22 2.43 10.34
5/19/2022 3:15:00 PM 13.47 56.246 0.044 6.21 2.46 10.26
5/19/2022 3:30:00 PM 13.73 56.714 0.044 6.23 2.46 10.22
5/19/2022 3:45:00 PM 13.96 57.128 0.044 6.22 2.48 10.15
5/19/2022 4:00:00 PM 14.1 57.38 0.044 6.22 2.37 10.11
5/19/2022 4:15:00 PM 14.23 57.614 0.044 6.22 2.47 10.06
5/19/2022 4:30:00 PM 14.34 57.812 0.044 6.22 2.84 10
5/19/2022 4:45:00 PM 14.42 57.956 0.044 6.22 2.46 9.97
5/19/2022 5:00:00 PM 14.48 58.064 0.044 6.21 2.4 9.95
5/19/2022 5:15:00 PM 14.55 58.19 0.044 6.2 2.51 9.91
5/19/2022 5:30:00 PM 14.62 58.316 0.044 6.21 2.33 9.89
5/19/2022 5:45:00 PM 14.68 58.424 0.044 6.19 2.36 9.87
5/19/2022 6:00:00 PM 14.72 58.496 0.044 6.21 2.49 9.85
5/19/2022 6:15:00 PM 14.73 58.514 0.044 6.2 2.42 9.85
5/19/2022 6:30:00 PM 14.73 58.514 0.044 6.2 2.37 9.86
5/19/2022 6:45:00 PM 14.7 58.46 0.044 6.2 2.31 9.85
5/19/2022 7:00:00 PM 14.64 58.352 0.044 6.19 2.36 9.85
5/19/2022 7:15:00 PM 14.56 58.208 0.044 6.19 2.41 9.87
5/19/2022 7:30:00 PM 14.46 58.028 0.044 6.18 2.36 9.88
5/19/2022 7:45:00 PM 14.33 57.794 0.044 6.17 2.3 9.91
5/19/2022 8:00:00 PM 14.21 57.578 0.044 6.17 2.43 9.9
5/19/2022 8:15:00 PM 14.08 57.344 0.044 6.15 2.44 9.94
5/19/2022 8:30:00 PM 13.95 57.11 0.044 6.16 2.4 9.95
5/19/2022 8:45:00 PM 13.84 56.912 0.044 6.16 2.44 9.97
5/19/2022 9:00:00 PM 13.73 56.714 0.044 6.15 2.38 9.99
5/19/2022 9:15:00 PM 13.62 56.516 0.044 6.15 2.52 10
5/19/2022 9:30:00 PM 13.53 56.354 0.044 6.15 2.58 10.02
5/19/2022 9:45:00 PM 13.44 56.192 0.044 6.13 2.47 10.06
5/19/2022 10:00:00 PM 13.34 56.012 0.044 6.14 2.34 10.08
5/19/2022 10:15:00 PM 13.26 55.868 0.044 6.13 2.43 10.1
5/19/2022 10:30:00 PM 13.18 55.724 0.044 6.14 2.42 10.11
5/19/2022 10:45:00 PM 13.11 55.598 0.044 6.15 2.41 10.12
5/19/2022 11:00:00 PM 13.04 55.472 0.044 6.15 2.36 10.14
5/19/2022 11:15:00 PM 12.98 55.364 0.044 6.15 2.36 10.15
5/19/2022 11:30:00 PM 12.91 55.238 0.044 6.15 2.81 10.16
5/19/2022 11:45:00 PM 12.86 55.148 0.044 6.16 2.36 10.18
5/20/2022 12:00:00 AM 12.8 55.04 0.044 6.15 2.43 10.14
5/20/2022 12:15:00 AM 12.75 54.95 0.044 6.15 2.36 10.21
5/20/2022 12:30:00 AM 12.7 54.86 0.044 6.15 2.4 10.22
5/20/2022 12:45:00 AM 12.65 54.77 0.044 6.15 2.42 10.24
5/20/2022 1:00:00 AM 12.6 54.68 0.044 6.15 2.39 10.25
5/20/2022 1:15:00 AM 12.55 54.59 0.044 6.15 2.36 10.25
5/20/2022 1:30:00 AM 12.51 54.518 0.044 6.15 2.45 10.27
5/20/2022 1:45:00 AM 12.46 54.428 0.044 6.15 2.42 10.28
5/20/2022 2:00:00 AM 12.42 54.356 0.044 6.15 2.35 10.29
5/20/2022 2:15:00 AM 12.38 54.284 0.044 6.15 2.52 10.3
5/20/2022 2:30:00 AM 12.33 54.194 0.044 6.14 2.5 10.31
5/20/2022 2:45:00 AM 12.29 54.122 0.044 6.15 2.45 10.31
5/20/2022 3:00:00 AM 12.24 54.032 0.044 6.15 2.54 10.33
5/20/2022 3:15:00 AM 12.2 53.96 0.044 6.14 2.28 10.33
5/20/2022 3:30:00 AM 12.15 53.87 0.044 6.15 2.3 10.35
5/20/2022 3:45:00 AM 12.11 53.798 0.044 6.14 2.43 10.35
5/20/2022 4:00:00 AM 12.07 53.726 0.044 6.14 2.4 10.37
5/20/2022 4:15:00 AM 12.02 53.636 0.044 6.14 2.33 10.37
5/20/2022 4:30:00 AM 11.98 53.564 0.044 6.14 2.36 10.37
5/20/2022 4:45:00 AM 11.93 53.474 0.045 6.14 2.42 10.4
5/20/2022 5:00:00 AM 11.89 53.402 0.045 6.14 2.28 10.41
5/20/2022 5:15:00 AM 11.85 53.33 0.045 6.14 2.72 10.43
5/20/2022 5:30:00 AM 11.81 53.258 0.045 6.14 2.49 10.44
5/20/2022 5:45:00 AM 11.78 53.204 0.045 6.13 2.33 10.45
5/20/2022 6:00:00 AM 11.75 53.15 0.045 6.14 2.57 10.44
5/20/2022 6:15:00 AM 11.72 53.096 0.045 6.13 2.39 10.42
5/20/2022 6:30:00 AM 11.7 53.06 0.045 6.13 2.58 10.48
5/20/2022 6:45:00 AM 11.69 53.042 0.045 6.14 2.43 10.48
5/20/2022 7:00:00 AM 11.67 53.006 0.045 6.14 2.44 10.5
5/20/2022 7:15:00 AM 11.66 52.988 0.045 6.14 2.49 10.53
5/20/2022 7:30:00 AM 11.67 53.006 0.045 6.15 2.4 10.56
5/20/2022 7:45:00 AM 11.68 53.024 0.045 6.15 2.42 10.57
5/20/2022 8:00:00 AM 11.69 53.042 0.045 6.15 2.39 10.57
5/20/2022 8:15:00 AM 11.72 53.096 0.045 6.16 2.4 10.56
5/20/2022 8:30:00 AM 11.73 53.114 0.045 6.16 2.44 10.6
5/20/2022 8:45:00 AM 11.76 53.168 0.045 6.16 2.56 10.6
5/20/2022 9:00:00 AM 11.8 53.24 0.045 6.16 2.36 10.6
5/20/2022 9:15:00 AM 11.82 53.276 0.045 6.16 2.49 10.59
5/20/2022 9:30:00 AM 11.84 53.312 0.045 6.15 2.46 10.58
5/20/2022 9:45:00 AM 11.89 53.402 0.045 6.15 2.42 10.57
5/20/2022 10:00:00 AM 11.98 53.564 0.045 6.16 2.44 10.59
5/20/2022 10:15:00 AM 12.1 53.78 0.045 6.16 2.42 10.6
5/20/2022 10:30:00 AM 12.24 54.032 0.045 6.18 2.43 10.59
5/20/2022 10:45:00 AM 12.35 54.23 0.045 6.19 2.35 10.59
5/20/2022 11:00:00 AM 12.43 54.374 0.045 6.2 2.83 10.56
5/20/2022 11:15:00 AM 12.55 54.59 0.045 6.21 2.35 10.54
5/20/2022 11:30:00 AM 12.67 54.806 0.045 6.21 2.37 10.51
5/20/2022 11:45:00 AM 12.76 54.968 0.045 6.22 2.35 10.49
5/20/2022 12:00:00 PM 12.84 55.112 0.045 6.22 2.37 10.44
5/20/2022 12:15:00 PM 13.01 55.418 0.045 6.22 2.4 10.41
5/20/2022 12:30:00 PM 13.12 55.616 0.045 6.22 2.3 10.36
5/20/2022 12:45:00 PM 13.26 55.868 0.045 6.21 2.6 10.32
5/20/2022 1:00:00 PM 13.38 56.084 0.045 6.23 2.34 10.29
5/20/2022 1:15:00 PM -100000 -179968 -100000 -100000 -100000 -100000
5/20/2022 1:30:00 PM 13.55 56.39 0.045 6.22 2.42 10.21
5/20/2022 1:45:00 PM 13.61 56.498 0.045 6.22 2.38 10.2
5/20/2022 2:00:00 PM 13.67 56.606 0.045 6.22 2.46 10.18
5/20/2022 2:15:00 PM 13.7 56.66 0.045 6.21 2.42 10.15
5/20/2022 2:30:00 PM 13.72 56.696 0.045 6.2 2.54 10.11
5/20/2022 2:45:00 PM 13.72 56.696 0.045 6.18 2.41 10.08
5/20/2022 3:00:00 PM 13.71 56.678 0.045 6.2 2.36 10.09
5/20/2022 3:15:00 PM 13.72 56.696 0.045 6.21 2.53 10.1
5/20/2022 3:30:00 PM 13.73 56.714 0.045 6.2 2.44 10.13
5/20/2022 3:45:00 PM 13.71 56.678 0.045 6.2 2.42 10.13
5/20/2022 4:00:00 PM 13.68 56.624 0.046 6.19 2.56 10.12
5/20/2022 4:15:00 PM 13.67 56.606 0.046 6.19 2.37 10.11
5/20/2022 4:30:00 PM 13.66 56.588 0.046 6.19 2.45 10.13
5/20/2022 4:45:00 PM 13.63 56.534 0.046 6.18 2.45 10.12
5/20/2022 5:00:00 PM 13.63 56.534 0.047 6.19 2.52 10.13
5/20/2022 5:15:00 PM 13.65 56.57 0.047 6.19 2.41 10.15
5/20/2022 5:30:00 PM 13.69 56.642 0.047 6.21 2.43 10.17
5/20/2022 5:45:00 PM -100000 -179968 -100000 -100000 -100000 -100000
5/20/2022 6:00:00 PM 13.73 56.714 0.046 6.22 2.43 10.17
5/20/2022 6:15:00 PM 13.74 56.732 0.046 6.22 2.36 10.15
5/20/2022 6:30:00 PM 13.72 56.696 0.046 6.21 2.44 10.14
5/20/2022 6:45:00 PM 13.7 56.66 0.046 6.19 2.43 10.12
5/20/2022 7:00:00 PM 13.7 56.66 0.046 6.18 2.31 10.1
5/20/2022 7:15:00 PM 13.7 56.66 0.046 6.18 2.37 10.09
5/20/2022 7:30:00 PM 13.72 56.696 0.046 6.17 2.47 10.08
5/20/2022 7:45:00 PM 13.73 56.714 0.046 6.17 2.4 10.05
5/20/2022 8:00:00 PM 13.73 56.714 0.046 6.17 2.36 10.04
5/20/2022 8:15:00 PM 13.71 56.678 0.046 6.12 2.41 10.03
5/20/2022 8:30:00 PM 13.69 56.642 0.046 6.15 2.47 10.02
5/20/2022 8:45:00 PM 13.65 56.57 0.046 6.14 2.53 10.01
5/20/2022 9:00:00 PM 13.61 56.498 0.046 6.14 2.47 10.03
5/20/2022 9:15:00 PM 13.57 56.426 0.046 6.13 2.5 10.02
5/20/2022 9:30:00 PM 13.51 56.318 0.046 6.13 2.46 10.04
5/20/2022 9:45:00 PM 13.47 56.246 0.046 6.12 2.43 10.05
5/20/2022 10:00:00 PM 13.42 56.156 0.046 6.12 2.43 10.05
5/20/2022 10:15:00 PM 13.38 56.084 0.046 6.11 2.47 10.07
5/20/2022 10:30:00 PM 13.34 56.012 0.046 6.1 2.42 10.07
5/20/2022 10:45:00 PM 13.31 55.958 0.046 6.11 2.35 10.08
5/20/2022 11:00:00 PM 13.28 55.904 0.046 6.11 2.4 10.1
5/20/2022 11:15:00 PM 13.25 55.85 0.046 6.11 2.37 10.1
5/20/2022 11:30:00 PM 13.22 55.796 0.046 6.1 2.46 10.11
5/20/2022 11:45:00 PM 13.2 55.76 0.046 6.11 2.58 10.11
5/21/2022 12:00:00 AM 13.18 55.724 0.046 6.11 2.47 10.1
5/21/2022 12:15:00 AM 13.16 55.688 0.046 5.95 2.63 10.09
5/21/2022 12:30:00 AM 13.14 55.652 0.046 6.11 2.4 10.12
5/21/2022 12:45:00 AM 13.11 55.598 0.046 6.1 2.39 10.13
5/21/2022 1:00:00 AM 13.09 55.562 0.046 6.1 2.36 10.15
5/21/2022 1:15:00 AM 13.06 55.508 0.046 6.1 2.42 10.15
5/21/2022 1:30:00 AM 13.04 55.472 0.046 6.09 2.36 10.16
5/21/2022 1:45:00 AM 13.01 55.418 0.046 6.08 2.44 10.16
5/21/2022 2:00:00 AM 12.99 55.382 0.046 6.08 2.38 10.17
5/21/2022 2:15:00 AM 12.97 55.346 0.046 6.07 2.43 10.18
5/21/2022 2:30:00 AM 12.95 55.31 0.046 6.08 2.41 10.19
5/21/2022 2:45:00 AM 12.93 55.274 0.045 6.08 2.42 10.19
5/21/2022 3:00:00 AM 12.91 55.238 0.045 6.08 2.37 10.21
5/21/2022 3:15:00 AM 12.89 55.202 0.045 6.09 2.88 10.19
5/21/2022 3:30:00 AM 12.87 55.166 0.045 6.01 2.39 10.21
5/21/2022 3:45:00 AM 12.84 55.112 0.045 6.09 2.43 10.17
5/21/2022 4:00:00 AM 12.82 55.076 0.045 6.08 2.42 10.22
5/21/2022 4:15:00 AM -100000 -179968 -100000 -100000 -100000 -100000
5/21/2022 4:30:00 AM 12.78 55.004 0.045 6.09 2.37 10.23
5/21/2022 4:45:00 AM 12.76 54.968 0.045 6.1 2.31 10.23
5/21/2022 5:00:00 AM 12.74 54.932 0.045 6.08 2.4 10.24
5/21/2022 5:15:00 AM 12.72 54.896 0.045 6.09 2.4 10.25
5/21/2022 5:30:00 AM 12.69 54.842 0.045 6.09 2.46 10.26
5/21/2022 5:45:00 AM 12.66 54.788 0.045 6.09 2.5 10.27
5/21/2022 6:00:00 AM 12.64 54.752 0.045 6.1 2.39 10.28
5/21/2022 6:15:00 AM 12.61 54.698 0.045 6.1 2.39 10.28
5/21/2022 6:30:00 AM 12.59 54.662 0.046 6.1 2.45 10.31
5/21/2022 6:45:00 AM 12.56 54.608 0.046 6.12 2.35 10.31
5/21/2022 7:00:00 AM 12.54 54.572 0.046 6.1 2.43 10.27
5/21/2022 7:15:00 AM 12.52 54.536 0.046 6.11 2.61 10.36
5/21/2022 7:30:00 AM 12.51 54.518 0.046 6.11 2.4 10.37
5/21/2022 7:45:00 AM 12.5 54.5 0.046 6.12 2.57 10.4
5/21/2022 8:00:00 AM 12.49 54.482 0.046 6.12 2.44 10.41
5/21/2022 8:15:00 AM 12.49 54.482 0.046 6.12 2.32 10.42
5/21/2022 8:30:00 AM 12.51 54.518 0.046 6.13 2.41 10.41
5/21/2022 8:45:00 AM 12.54 54.572 0.046 6.12 2.39 10.45
5/21/2022 9:00:00 AM 12.59 54.662 0.046 6.13 2.46 10.45
5/21/2022 9:15:00 AM 12.66 54.788 0.046 6.12 2.4 10.46
5/21/2022 9:30:00 AM 12.74 54.932 0.046 6.13 2.45 10.46
5/21/2022 9:45:00 AM 12.87 55.166 0.046 6.15 2.39 10.46
5/21/2022 10:00:00 AM 12.98 55.364 0.046 6.16 2.48 10.47
5/21/2022 10:15:00 AM 13.11 55.598 0.046 6.16 2.61 10.43
5/21/2022 10:30:00 AM 13.27 55.886 0.046 6.19 2.33 10.42
5/21/2022 10:45:00 AM 13.46 56.228 0.046 6.21 2.44 10.38
5/21/2022 11:00:00 AM 13.57 56.426 0.046 6.21 2.35 10.36
5/21/2022 11:15:00 AM 13.69 56.642 0.046 6.22 2.49 10.31
5/21/2022 11:30:00 AM 13.95 57.11 0.046 6.22 2.32 10.25
5/21/2022 11:45:00 AM 14.26 57.668 0.046 6.23 2.44 10.22
5/21/2022 12:00:00 PM 14.56 58.208 0.046 6.23 2.37 10.18
5/21/2022 12:15:00 PM 14.88 58.784 0.046 6.23 2.48 10.1
5/21/2022 12:30:00 PM 15.17 59.306 0.046 6.23 2.47 10.03
5/21/2022 12:45:00 PM 15.47 59.846 0.046 6.23 2.31 9.98
5/21/2022 1:00:00 PM 15.77 60.386 0.046 6.23 2.37 9.9
5/21/2022 1:15:00 PM 16.05 60.89 0.046 6.24 2.42 9.85
5/21/2022 1:30:00 PM 16.3 61.34 0.046 6.24 2.36 9.8
5/21/2022 1:45:00 PM 16.48 61.664 0.046 6.24 2.3 9.72
5/21/2022 2:00:00 PM -100000 -179968 -100000 -100000 -100000 -100000
5/21/2022 2:15:00 PM -100000 -179968 -100000 -100000 -100000 -100000
5/21/2022 2:30:00 PM 17.11 62.798 0.046 6.07 2.47 9.59
5/21/2022 2:45:00 PM -100000 -179968 -100000 -100000 -100000 -100000
5/21/2022 3:00:00 PM -100000 -179968 -100000 -100000 -100000 -100000
5/21/2022 3:15:00 PM 17.49 63.482 0.046 6.23 2.33 9.46
5/21/2022 3:30:00 PM 17.62 63.716 0.046 6.23 2.31 9.44
5/21/2022 3:45:00 PM -100000 -179968 -100000 -100000 -100000 -100000
5/21/2022 4:00:00 PM 17.83 64.094 0.046 6.22 2.45 9.38
5/21/2022 4:15:00 PM 17.88 64.184 0.046 6.22 2.38 9.35
5/21/2022 4:30:00 PM -100000 -179968 -100000 -100000 -100000 -100000
5/21/2022 4:45:00 PM 17.91 64.238 0.046 6.21 2.32 9.3
5/21/2022 5:00:00 PM -100000 -179968 -100000 -100000 -100000 -100000
5/21/2022 5:15:00 PM 17.9 64.22 0.046 6.21 2.28 9.27
5/21/2022 5:30:00 PM -100000 -179968 -100000 -100000 -100000 -100000
5/21/2022 5:45:00 PM -100000 -179968 -100000 -100000 -100000 -100000
5/21/2022 6:00:00 PM -100000 -179968 -100000 -100000 -100000 -100000
5/21/2022 6:15:00 PM 17.79 64.022 0.046 6.19 2.37 9.23
5/21/2022 6:30:00 PM -100000 -179968 -100000 -100000 -100000 -100000
5/21/2022 6:45:00 PM 17.73 63.914 0.046 6.2 2.3 9.22
5/21/2022 7:00:00 PM -100000 -179968 -100000 -100000 -100000 -100000
5/21/2022 7:15:00 PM -100000 -179968 -100000 -100000 -100000 -100000
5/21/2022 7:30:00 PM 17.55 63.59 0.046 6.18 2.39 9.22
5/21/2022 7:45:00 PM 17.46 63.428 0.046 6.17 2.31 9.24
5/21/2022 8:00:00 PM 17.38 63.284 0.046 6.17 2.31 9.26
5/21/2022 8:15:00 PM 17.27 63.086 0.046 6.16 2.44 9.28
5/21/2022 8:30:00 PM 17.15 62.87 0.046 6.15 2.34 9.29
5/21/2022 8:45:00 PM 17.01 62.618 0.046 6.15 2.35 9.32
5/21/2022 9:00:00 PM 16.88 62.384 0.046 6.14 2.41 9.32
5/21/2022 9:15:00 PM 16.72 62.096 0.046 6.14 2.29 9.36
5/21/2022 9:30:00 PM 16.58 61.844 0.046 6.14 2.37 9.39
5/21/2022 9:45:00 PM 16.43 61.574 0.046 6.14 2.47 9.42
5/21/2022 10:00:00 PM 16.31 61.358 0.046 6.14 2.44 9.45
5/21/2022 10:15:00 PM 16.2 61.16 0.046 6.13 2.44 9.48
5/21/2022 10:30:00 PM 16.11 60.998 0.046 6.15 2.29 9.51
5/21/2022 10:45:00 PM 16.03 60.854 0.046 6.16 2.31 9.53
5/21/2022 11:00:00 PM 15.95 60.71 0.046 6.17 2.34 9.54
5/21/2022 11:15:00 PM 15.88 60.584 0.046 6.13 2.42 9.57
5/21/2022 11:30:00 PM 15.8 60.44 0.046 6.17 2.43 9.58
5/21/2022 11:45:00 PM 15.73 60.314 0.046 6.18 2.58 9.6
5/22/2022 12:00:00 AM 15.67 60.206 0.046 6.17 2.43 9.6
5/22/2022 12:15:00 AM 15.61 60.098 0.046 6.16 2.41 9.6
5/22/2022 12:30:00 AM -100000 -179968 -100000 -100000 -100000 -100000
5/22/2022 12:45:00 AM 15.49 59.882 0.046 6.16 2.29 9.64
5/22/2022 1:00:00 AM 15.44 59.792 0.046 6.17 2.41 9.64
5/22/2022 1:15:00 AM 15.38 59.684 0.046 6.17 2.35 9.67
5/22/2022 1:30:00 AM 15.33 59.594 0.047 6.13 2.33 9.67
5/22/2022 1:45:00 AM -100000 -179968 -100000 -100000 -100000 -100000
5/22/2022 2:00:00 AM 15.21 59.378 0.046 6.18 2.46 9.7
5/22/2022 2:15:00 AM 15.16 59.288 0.047 6.17 2.48 9.72
5/22/2022 2:30:00 AM 15.1 59.18 0.047 6.16 2.52 9.72
5/22/2022 2:45:00 AM 15.05 59.09 0.047 6.17 2.29 9.73
5/22/2022 3:00:00 AM 15 59 0.047 6.17 2.37 9.72
5/22/2022 3:15:00 AM 14.95 58.91 0.047 6.17 2.5 9.75
5/22/2022 3:30:00 AM 14.9 58.82 0.047 6.16 2.52 9.74
5/22/2022 3:45:00 AM 14.85 58.73 0.047 6.17 2.56 9.76
5/22/2022 4:00:00 AM 14.8 58.64 0.047 6.17 2.64 9.78
5/22/2022 4:15:00 AM 14.75 58.55 0.047 6.16 2.4 9.77
5/22/2022 4:30:00 AM 14.69 58.442 0.047 6.16 2.4 9.8
5/22/2022 4:45:00 AM 14.65 58.37 0.047 6.16 2.48 9.81
5/22/2022 5:00:00 AM 14.59 58.262 0.047 6.16 2.4 9.82
5/22/2022 5:15:00 AM 14.54 58.172 0.047 6.16 2.49 9.83
5/22/2022 5:30:00 AM 14.49 58.082 0.047 6.16 2.48 9.84
5/22/2022 5:45:00 AM 14.44 57.992 0.047 6.16 2.41 9.87
5/22/2022 6:00:00 AM 14.39 57.902 0.047 6.15 2.41 9.86
5/22/2022 6:15:00 AM 14.34 57.812 0.047 6.15 2.51 9.89
5/22/2022 6:30:00 AM 14.3 57.74 0.047 6.16 2.45 9.91
5/22/2022 6:45:00 AM 14.26 57.668 0.047 6.16 2.55 9.92
5/22/2022 7:00:00 AM 14.22 57.596 0.047 6.16 2.5 9.95
5/22/2022 7:15:00 AM 14.19 57.542 0.047 6.16 2.52 9.97
5/22/2022 7:30:00 AM 14.17 57.506 0.047 6.17 2.34 10
5/22/2022 7:45:00 AM 14.14 57.452 0.047 6.17 2.33 10.01
5/22/2022 8:00:00 AM 14.13 57.434 0.047 6.17 2.67 10.02
5/22/2022 8:15:00 AM 14.13 57.434 0.047 6.18 2.47 10.04
5/22/2022 8:30:00 AM 14.15 57.47 0.047 6.18 2.38 10.07
5/22/2022 8:45:00 AM 14.13 57.434 0.047 6.19 2.31 10.08
5/22/2022 9:00:00 AM 14.19 57.542 0.047 6.19 2.34 10.11
5/22/2022 9:15:00 AM 14.25 57.65 0.047 6.19 2.56 10.11
5/22/2022 9:30:00 AM 14.28 57.704 0.047 6.21 2.33 10.13
5/22/2022 9:45:00 AM 14.35 57.83 0.047 6.21 2.42 10.12
5/22/2022 10:00:00 AM 14.38 57.884 0.047 6.21 2.48 10.12
5/22/2022 10:15:00 AM 14.41 57.938 0.047 6.2 2.48 10.11
5/22/2022 10:30:00 AM 14.53 58.154 0.047 6.22 2.67 10.1
5/22/2022 10:45:00 AM 14.72 58.496 0.047 6.22 2.41 10.08
5/22/2022 11:00:00 AM 14.88 58.784 0.047 6.23 2.49 10.08
5/22/2022 11:15:00 AM 15.09 59.162 0.047 6.24 2.33 10.04
5/22/2022 11:30:00 AM 15.32 59.576 0.047 6.24 2.4 10
5/22/2022 11:45:00 AM 15.48 59.864 0.047 6.25 2.35 9.98
5/22/2022 12:00:00 PM 15.63 60.134 0.047 6.25 2.31 9.94
5/22/2022 12:15:00 PM 15.72 60.296 0.047 6.25 2.27 9.89
5/22/2022 12:30:00 PM 15.84 60.512 0.047 6.26 2.36 9.86
5/22/2022 12:45:00 PM 15.97 60.746 0.047 6.25 2.37 9.82
5/22/2022 1:00:00 PM 16.13 61.034 0.047 6.25 2.39 9.79
5/22/2022 1:15:00 PM 16.33 61.394 0.047 6.25 2.35 9.74
5/22/2022 1:30:00 PM 16.49 61.682 0.047 6.26 2.31 9.7
5/22/2022 1:45:00 PM 16.73 62.114 0.047 6.26 2.33 9.67
5/22/2022 2:00:00 PM 16.91 62.438 0.047 6.26 2.45 9.64
5/22/2022 2:15:00 PM 17.09 62.762 0.047 6.26 2.49 9.59
5/22/2022 2:30:00 PM 17.26 63.068 0.047 6.25 2.34 9.54
5/22/2022 2:45:00 PM 17.4 63.32 0.047 6.25 2.3 9.49
5/22/2022 3:00:00 PM 17.48 63.464 0.047 6.25 2.33 9.46
5/22/2022 3:15:00 PM 17.57 63.626 0.047 6.25 2.31 9.44
5/22/2022 3:30:00 PM 17.64 63.752 0.047 6.21 2.33 9.42
5/22/2022 3:45:00 PM -100000 -179968 -100000 -100000 -100000 -100000
5/22/2022 4:00:00 PM -100000 -179968 -100000 -100000 -100000 -100000
5/22/2022 4:15:00 PM 17.7 63.86 0.047 6.24 2.37 9.34
5/22/2022 4:30:00 PM -100000 -179968 -100000 -100000 -100000 -100000
5/22/2022 4:45:00 PM 17.7 63.86 0.047 6.24 2.26 9.35
5/22/2022 5:00:00 PM -100000 -179968 -100000 -100000 -100000 -100000
5/22/2022 5:15:00 PM 17.65 63.77 0.047 6.23 2.57 9.32
5/22/2022 5:30:00 PM 17.6 63.68 0.047 6.22 2.35 9.32
5/22/2022 5:45:00 PM 17.53 63.554 0.047 6.22 2.33 9.31
5/22/2022 6:00:00 PM 17.46 63.428 0.047 6.21 2.37 9.29
5/22/2022 6:15:00 PM 17.37 63.266 0.047 6.21 2.32 9.3
5/22/2022 6:30:00 PM 17.27 63.086 0.047 6.21 2.4 9.32
5/22/2022 6:45:00 PM 17.18 62.924 0.047 6.2 2.55 9.32
5/22/2022 7:00:00 PM 17.1 62.78 0.047 6.21 2.26 9.35
5/22/2022 7:15:00 PM 17.01 62.618 0.047 6.21 2.29 9.37
5/22/2022 7:30:00 PM 16.91 62.438 0.047 6.22 2.32 9.41
5/22/2022 7:45:00 PM 16.8 62.24 0.046 6.22 2.49 9.45
5/22/2022 8:00:00 PM 16.68 62.024 0.047 6.21 2.39 9.44
5/22/2022 8:15:00 PM 16.57 61.826 0.047 6.21 2.3 9.47
5/22/2022 8:30:00 PM 16.45 61.61 0.047 6.21 2.36 9.48
5/22/2022 8:45:00 PM 16.36 61.448 0.047 6.21 2.37 9.47
5/22/2022 9:00:00 PM 16.24 61.232 0.047 6.2 2.39 9.5
5/22/2022 9:15:00 PM 16.12 61.016 0.047 6.2 2.4 9.53
5/22/2022 9:30:00 PM 16.01 60.818 0.047 6.2 2.46 9.54
5/22/2022 9:45:00 PM 15.91 60.638 0.047 6.2 2.39 9.57
5/22/2022 10:00:00 PM 15.81 60.458 0.047 6.2 2.35 9.59
5/22/2022 10:15:00 PM 15.69 60.242 0.047 6.2 2.36 9.58
5/22/2022 10:30:00 PM 15.58 60.044 0.047 6.2 2.59 9.64
5/22/2022 10:45:00 PM 15.47 59.846 0.047 6.2 2.38 9.67
5/22/2022 11:00:00 PM 15.36 59.648 0.047 6.19 2.44 9.7
5/22/2022 11:15:00 PM 15.24 59.432 0.047 6.2 2.49 9.71
5/22/2022 11:30:00 PM 15.11 59.198 0.047 6.21 2.39 9.75
5/22/2022 11:45:00 PM 14.99 58.982 0.047 6.2 2.49 9.75
5/23/2022 12:00:00 AM 14.87 58.766 0.047 6.21 2.48 9.81
5/23/2022 12:15:00 AM 14.76 58.568 0.047 6.21 2.5 9.83
5/23/2022 12:30:00 AM 14.65 58.37 0.047 6.2 2.53 9.86
5/23/2022 12:45:00 AM 14.54 58.172 0.047 6.2 2.67 9.88
5/23/2022 1:00:00 AM 14.43 57.974 0.048 6.21 2.42 9.9
5/23/2022 1:15:00 AM 14.32 57.776 0.048 6.16 2.51 9.93
5/23/2022 1:30:00 AM 14.22 57.596 0.048 6.21 2.95 9.97
5/23/2022 1:45:00 AM 14.13 57.434 0.048 6.21 2.38 9.98
5/23/2022 2:00:00 AM 14.04 57.272 0.048 6.21 2.4 10.01
5/23/2022 2:15:00 AM 13.95 57.11 0.048 6.2 2.54 10.01
5/23/2022 2:30:00 AM -100000 -179968 -100000 -100000 -100000 -100000
5/23/2022 2:45:00 AM 13.77 56.786 0.048 6.21 2.69 10.06
5/23/2022 3:00:00 AM 13.7 56.66 0.048 6.21 2.5 10.08
5/23/2022 3:15:00 AM 13.62 56.516 0.048 6.21 2.37 10.11
5/23/2022 3:30:00 AM 13.54 56.372 0.048 6.21 2.63 10.13
5/23/2022 3:45:00 AM -100000 -179968 -100000 -100000 -100000 -100000
5/23/2022 4:00:00 AM 13.39 56.102 0.048 6.2 2.49 10.16
5/23/2022 4:15:00 AM 13.29 55.922 0.048 6.21 2.53 10.17
5/23/2022 4:30:00 AM 13.2 55.76 0.048 6.21 2.63 10.2
5/23/2022 4:45:00 AM 13.12 55.616 0.048 6.2 2.41 10.2
5/23/2022 5:00:00 AM 13.04 55.472 0.048 6.21 2.39 10.24
5/23/2022 5:15:00 AM 12.97 55.346 0.048 6.2 2.46 10.25
5/23/2022 5:30:00 AM 12.88 55.184 0.048 6.21 2.6 10.28
5/23/2022 5:45:00 AM 12.81 55.058 0.048 6.21 2.45 10.3
5/23/2022 6:00:00 AM 12.73 54.914 0.048 6.21 2.56 10.31
5/23/2022 6:15:00 AM 12.65 54.77 0.048 6.2 2.61 10.33
5/23/2022 6:30:00 AM 12.6 54.68 0.048 6.2 3.01 10.36
5/23/2022 6:45:00 AM 12.54 54.572 0.048 6.21 2.6 10.4
5/23/2022 7:00:00 AM 12.47 54.446 0.048 6.21 2.49 10.41
5/23/2022 7:15:00 AM 12.42 54.356 0.048 6.21 2.59 10.43
5/23/2022 7:30:00 AM 12.36 54.248 0.048 6.21 2.42 10.47
5/23/2022 7:45:00 AM 12.31 54.158 0.048 6.22 2.59 10.48
5/23/2022 8:00:00 AM 12.28 54.104 0.048 6.23 2.5 10.52
5/23/2022 8:15:00 AM 12.27 54.086 0.048 6.23 2.49 10.53
5/23/2022 8:30:00 AM 12.26 54.068 0.048 6.24 2.66 10.57
5/23/2022 8:45:00 AM 12.25 54.05 0.048 6.25 2.5 10.6
5/23/2022 9:00:00 AM 12.27 54.086 0.048 6.25 2.39 10.6
5/23/2022 9:15:00 AM 12.31 54.158 0.048 6.26 2.51 10.62
5/23/2022 9:30:00 AM -100000 -179968 -100000 -100000 -100000 -100000
5/23/2022 9:45:00 AM 12.41 54.338 0.048 6.26 2.45 10.64
5/23/2022 10:00:00 AM 12.47 54.446 0.048 6.27 2.49 10.63
5/23/2022 10:15:00 AM 12.55 54.59 0.048 6.28 2.43 10.64
5/23/2022 10:30:00 AM 12.63 54.734 0.048 6.28 2.55 10.65
5/23/2022 10:45:00 AM 12.68 54.824 0.048 6.28 2.43 10.62
5/23/2022 11:00:00 AM 12.75 54.95 0.048 6.27 2.53 10.61
5/23/2022 11:15:00 AM 12.83 55.094 0.048 6.29 2.47 10.61
5/23/2022 11:30:00 AM 12.94 55.292 0.048 6.28 2.43 10.59
5/23/2022 11:45:00 AM 13.07 55.526 0.048 6.29 2.43 10.57
5/23/2022 12:00:00 PM 13.16 55.688 0.048 6.29 2.42 10.54
5/23/2022 12:15:00 PM 13.29 55.922 0.048 6.28 2.44 10.51
5/23/2022 12:30:00 PM 13.39 56.102 0.048 6.29 2.48 10.5
5/23/2022 12:45:00 PM 13.51 56.318 0.048 6.29 2.78 10.45
5/23/2022 1:00:00 PM 13.64 56.552 0.048 6.28 2.41 10.42
5/23/2022 1:15:00 PM 13.76 56.768 0.048 6.29 2.47 10.38
5/23/2022 1:30:00 PM 13.88 56.984 0.048 6.28 2.5 10.36
5/23/2022 1:45:00 PM 13.97 57.146 0.048 6.29 2.54 10.33
5/23/2022 2:00:00 PM 14.06 57.308 0.048 6.29 2.53 10.31
5/23/2022 2:15:00 PM 14.14 57.452 0.048 6.3 2.48 10.27
5/23/2022 2:30:00 PM 14.19 57.542 0.048 6.29 2.46 10.24
5/23/2022 2:45:00 PM 14.26 57.668 0.048 6.28 2.49 10.22
5/23/2022 3:00:00 PM 14.3 57.74 0.048 6.29 2.5 10.21
5/23/2022 3:15:00 PM 14.35 57.83 0.048 6.29 2.33 10.19
5/23/2022 3:30:00 PM 14.38 57.884 0.048 6.29 4.24 10.18
5/23/2022 3:45:00 PM 14.41 57.938 0.048 6.28 2.45 10.15
5/23/2022 4:00:00 PM 14.42 57.956 0.048 6.29 2.95 10.15
5/23/2022 4:15:00 PM 14.43 57.974 0.048 6.28 2.35 10.12
5/23/2022 4:30:00 PM 14.43 57.974 0.048 6.28 2.65 10.1
5/23/2022 4:45:00 PM 14.42 57.956 0.048 6.27 2.38 10.11
5/23/2022 5:00:00 PM 14.41 57.938 0.048 6.27 2.35 10.09
5/23/2022 5:15:00 PM 14.39 57.902 0.048 6.27 2.51 10.09
5/23/2022 5:30:00 PM 14.37 57.866 0.048 6.26 2.53 10.07
5/23/2022 5:45:00 PM 14.34 57.812 0.048 6.23 2.48 10.06
5/23/2022 6:00:00 PM 14.3 57.74 0.048 6.07 2.34 10.1
5/23/2022 6:15:00 PM 14.27 57.686 0.048 6.26 2.44 10.1
5/23/2022 6:30:00 PM 14.23 57.614 0.048 6.25 2.44 10.08
5/23/2022 6:45:00 PM 14.2 57.56 0.048 6.25 2.42 10.08
5/23/2022 7:00:00 PM 14.14 57.452 0.048 6.25 2.48 10.11
5/23/2022 7:15:00 PM 14.1 57.38 0.048 6.26 2.5 10.08
5/23/2022 7:30:00 PM 14.05 57.29 0.048 6.24 2.42 10.09
5/23/2022 7:45:00 PM 13.99 57.182 0.048 6.24 2.52 10.07
5/23/2022 8:00:00 PM 13.94 57.092 0.048 6.24 2.41 10.1
5/23/2022 8:15:00 PM 13.87 56.966 0.048 6.23 2.41 10.11
5/23/2022 8:30:00 PM 13.81 56.858 0.048 6.24 2.5 10.08
5/23/2022 8:45:00 PM 13.73 56.714 0.048 6.24 2.4 10.11
5/23/2022 9:00:00 PM 13.68 56.624 0.048 6.23 2.87 10.1
5/23/2022 9:15:00 PM 13.61 56.498 0.048 6.24 2.42 10.11
5/23/2022 9:30:00 PM 13.55 56.39 0.048 6.24 2.45 10.11
5/23/2022 9:45:00 PM 13.49 56.282 0.048 6.23 2.71 10.14
5/23/2022 10:00:00 PM 13.43 56.174 0.048 6.24 2.42 10.16
5/23/2022 10:15:00 PM 13.36 56.048 0.048 6.24 2.57 10.18
5/23/2022 10:30:00 PM 13.31 55.958 0.049 6.24 2.4 10.16
5/23/2022 10:45:00 PM 13.26 55.868 0.049 5.98 2.61 10.2
5/23/2022 11:00:00 PM 13.21 55.778 0.049 6.13 2.52 10.2
5/23/2022 11:15:00 PM 13.15 55.67 0.049 6.24 2.36 10.22
5/23/2022 11:30:00 PM 13.09 55.562 0.049 6.24 2.52 10.23
5/23/2022 11:45:00 PM 13.04 55.472 0.049 6.24 2.41 10.24
5/24/2022 12:00:00 AM 13 55.4 0.049 6.22 2.42 10.24
5/24/2022 12:15:00 AM 12.94 55.292 0.049 6.24 2.37 10.26
5/24/2022 12:30:00 AM 12.9 55.22 0.049 6.23 2.5 10.27
5/24/2022 12:45:00 AM 12.85 55.13 0.049 6.24 2.63 10.29
5/24/2022 1:00:00 AM 12.81 55.058 0.049 6.23 2.41 10.31
5/24/2022 1:15:00 AM 12.77 54.986 0.049 6.24 2.5 10.33
5/24/2022 1:30:00 AM 12.73 54.914 0.049 6.23 2.35 10.31
5/24/2022 1:45:00 AM 12.68 54.824 0.049 6.23 2.43 10.34
5/24/2022 2:00:00 AM -100000 -179968 -100000 -100000 -100000 -100000
5/24/2022 2:15:00 AM 12.58 54.644 0.049 6.23 2.49 10.36
5/24/2022 2:30:00 AM -100000 -179968 -100000 -100000 -100000 -100000
5/24/2022 2:45:00 AM 12.48 54.464 0.049 6.23 2.58 10.38
5/24/2022 3:00:00 AM 12.42 54.356 0.049 6.23 2.42 10.38
5/24/2022 3:15:00 AM 12.36 54.248 0.049 6.23 2.62 10.4
5/24/2022 3:30:00 AM 12.31 54.158 0.049 6.23 2.42 10.41
5/24/2022 3:45:00 AM 12.25 54.05 0.049 6.23 2.61 10.42
5/24/2022 4:00:00 AM 12.21 53.978 0.049 6.22 2.47 10.41
5/24/2022 4:15:00 AM 12.14 53.852 0.049 6.23 2.39 10.45
5/24/2022 4:30:00 AM 12.08 53.744 0.049 6.22 2.48 10.47
5/24/2022 4:45:00 AM 12 53.6 0.05 6.23 2.6 10.49
5/24/2022 5:00:00 AM 11.95 53.51 0.05 6.24 2.59 10.49
5/24/2022 5:15:00 AM 11.88 53.384 0.05 6.23 2.43 10.51
5/24/2022 5:30:00 AM 11.81 53.258 0.05 6.23 2.52 10.54
5/24/2022 5:45:00 AM 11.75 53.15 0.05 6.23 2.44 10.53
5/24/2022 6:00:00 AM 11.71 53.078 0.05 6.23 2.4 10.56
5/24/2022 6:15:00 AM 11.66 52.988 0.05 6.23 2.45 10.58
5/24/2022 6:30:00 AM 11.62 52.916 0.05 6.23 2.44 10.61
5/24/2022 6:45:00 AM 11.59 52.862 0.05 6.24 2.7 10.6
5/24/2022 7:00:00 AM 11.55 52.79 0.05 6.24 2.42 10.64
5/24/2022 7:15:00 AM 11.53 52.754 0.05 6.24 2.37 10.66
5/24/2022 7:30:00 AM 11.51 52.718 0.05 6.23 2.57 10.65
5/24/2022 7:45:00 AM 11.49 52.682 0.05 6.25 2.44 10.65
5/24/2022 8:00:00 AM 11.49 52.682 0.049 6.25 2.44 10.71
5/24/2022 8:15:00 AM 11.49 52.682 0.049 6.25 2.36 10.72
5/24/2022 8:30:00 AM 11.52 52.736 0.049 6.26 2.38 10.74
5/24/2022 8:45:00 AM 11.54 52.772 0.049 6.26 2.58 10.77
5/24/2022 9:00:00 AM 11.57 52.826 0.049 6.27 2.43 10.79
5/24/2022 9:15:00 AM 11.6 52.88 0.049 6.27 2.3 10.77
5/24/2022 9:30:00 AM 11.63 52.934 0.049 6.28 2.72 10.79
5/24/2022 9:45:00 AM 11.68 53.024 0.049 6.28 2.38 10.76
5/24/2022 10:00:00 AM 11.73 53.114 0.049 6.29 2.39 10.77
5/24/2022 10:15:00 AM 11.77 53.186 0.049 6.29 2.46 10.77
5/24/2022 10:30:00 AM 11.82 53.276 0.049 6.29 2.31 10.75
5/24/2022 10:45:00 AM 11.88 53.384 0.049 6.29 2.52 10.77
5/24/2022 11:00:00 AM 11.93 53.474 0.049 6.29 2.64 10.75
5/24/2022 11:15:00 AM 11.99 53.582 0.049 6.29 2.45 10.74
5/24/2022 11:30:00 AM 12.06 53.708 0.049 6.3 2.38 10.73
5/24/2022 11:45:00 AM 12.12 53.816 0.049 6.3 2.41 10.7
5/24/2022 12:00:00 PM 12.18 53.924 0.049 6.29 2.4 10.7
5/24/2022 12:15:00 PM 12.25 54.05 0.049 6.29 2.35 10.67
5/24/2022 12:30:00 PM 12.31 54.158 0.049 6.29 2.45 10.66
5/24/2022 12:45:00 PM 12.36 54.248 0.049 6.3 2.48 10.66
5/24/2022 1:00:00 PM 12.41 54.338 0.049 6.3 2.43 10.61
5/24/2022 1:15:00 PM 12.45 54.41 0.049 6.3 2.45 10.61
5/24/2022 1:30:00 PM 12.49 54.482 0.049 6.3 2.39 10.6
5/24/2022 1:45:00 PM 12.54 54.572 0.049 6.29 2.37 10.57
5/24/2022 2:00:00 PM 12.57 54.626 0.049 6.29 2.63 10.54
5/24/2022 2:15:00 PM 12.6 54.68 0.049 6.29 2.43 10.54
5/24/2022 2:30:00 PM 12.64 54.752 0.049 6.28 2.5 10.53
5/24/2022 2:45:00 PM 12.69 54.842 0.049 6.28 2.41 10.49
5/24/2022 3:00:00 PM 12.74 54.932 0.049 6.29 2.56 10.53
5/24/2022 3:15:00 PM 12.77 54.986 0.049 6.29 2.4 10.52
5/24/2022 3:30:00 PM 12.79 55.022 0.049 6.29 2.44 10.48
5/24/2022 3:45:00 PM 12.81 55.058 0.049 6.29 2.37 10.47
5/24/2022 4:00:00 PM 12.82 55.076 0.049 6.29 2.64 10.45
5/24/2022 4:15:00 PM 12.83 55.094 0.049 6.28 2.75 10.42
5/24/2022 4:30:00 PM 12.83 55.094 0.049 6.27 2.46 10.41
5/24/2022 4:45:00 PM 12.83 55.094 0.049 6.27 2.42 10.41
5/24/2022 5:00:00 PM 12.83 55.094 0.049 6.27 2.32 10.42
5/24/2022 5:15:00 PM 12.84 55.112 0.049 6.28 2.43 10.41
5/24/2022 5:30:00 PM -100000 -179968 -100000 -100000 -100000 -100000
5/24/2022 5:45:00 PM 12.86 55.148 0.049 6.28 2.41 10.42
5/24/2022 6:00:00 PM 12.85 55.13 0.049 6.27 2.36 10.4
5/24/2022 6:15:00 PM 12.85 55.13 0.049 6.27 2.36 10.36
5/24/2022 6:30:00 PM 12.84 55.112 0.049 6.27 2.43 10.36
5/24/2022 6:45:00 PM 12.82 55.076 0.049 6.27 2.41 10.39
5/24/2022 7:00:00 PM 12.8 55.04 0.049 6.26 2.32 10.37
5/24/2022 7:15:00 PM 12.79 55.022 0.049 6.25 2.36 10.36
5/24/2022 7:30:00 PM 12.76 54.968 0.049 6.25 2.38 10.35
5/24/2022 7:45:00 PM 12.74 54.932 0.049 6.24 2.56 10.35
5/24/2022 8:00:00 PM 12.72 54.896 0.049 6.24 2.34 10.35
5/24/2022 8:15:00 PM 12.7 54.86 0.05 6.23 2.46 10.35
5/24/2022 8:30:00 PM 12.67 54.806 0.05 6.23 2.32 10.37
5/24/2022 8:45:00 PM 12.65 54.77 0.05 6.22 2.56 10.37
5/24/2022 9:00:00 PM 12.63 54.734 0.05 6.22 2.36 10.36
5/24/2022 9:15:00 PM -100000 -179968 -100000 -100000 -100000 -100000
5/24/2022 9:30:00 PM 12.58 54.644 0.05 6.22 2.39 10.37
5/24/2022 9:45:00 PM 12.55 54.59 0.05 6.22 2.44 10.35
5/24/2022 10:00:00 PM 12.53 54.554 0.05 6.22 2.55 10.38
5/24/2022 10:15:00 PM 12.5 54.5 0.05 6.23 2.43 10.41
5/24/2022 10:30:00 PM 12.48 54.464 0.05 6.23 2.39 10.4
5/24/2022 10:45:00 PM 12.45 54.41 0.05 6.24 2.64 10.42
5/24/2022 11:00:00 PM 12.43 54.374 0.05 6.24 2.36 10.4
5/24/2022 11:15:00 PM 12.41 54.338 0.05 6.16 2.44 10.42
5/24/2022 11:30:00 PM 12.39 54.302 0.05 6.24 2.49 10.42
5/24/2022 11:45:00 PM 12.37 54.266 0.05 6.23 2.36 10.42
5/25/2022 12:00:00 AM 12.35 54.23 0.05 6.22 2.45 10.4
5/25/2022 12:15:00 AM 12.33 54.194 0.05 6.23 2.45 10.43
5/25/2022 12:30:00 AM 12.31 54.158 0.05 6.23 3.67 10.45
5/25/2022 12:45:00 AM 12.29 54.122 0.05 6.23 2.35 10.45
5/25/2022 1:00:00 AM 12.28 54.104 0.05 6.19 2.34 10.44
5/25/2022 1:15:00 AM 12.26 54.068 0.05 6.23 2.49 10.45
5/25/2022 1:30:00 AM 12.25 54.05 0.05 6.23 2.4 10.45
5/25/2022 1:45:00 AM 12.23 54.014 0.05 6.23 2.54 10.45
5/25/2022 2:00:00 AM 12.22 53.996 0.05 6.23 2.51 10.45
5/25/2022 2:15:00 AM -100000 -179968 -100000 -100000 -100000 -100000
5/25/2022 2:30:00 AM 12.18 53.924 0.05 6.23 2.47 10.45
5/25/2022 2:45:00 AM 12.16 53.888 0.05 6.21 4.94 10.4
5/25/2022 3:00:00 AM 12.13 53.834 0.05 6.22 3.17 10.45
5/25/2022 3:15:00 AM 12.11 53.798 0.05 6.24 3.56 10.49
5/25/2022 3:30:00 AM 12.09 53.762 0.05 6.24 2.67 10.51
5/25/2022 3:45:00 AM 12.06 53.708 0.051 6.24 2.61 10.51
5/25/2022 4:00:00 AM 12.03 53.654 0.051 6.24 2.55 10.51
5/25/2022 4:15:00 AM 12.01 53.618 0.051 6.25 2.56 10.53
5/25/2022 4:30:00 AM 11.98 53.564 0.05 6.24 2.44 10.53
5/25/2022 4:45:00 AM 11.96 53.528 0.05 6.17 2.61 10.54
5/25/2022 5:00:00 AM 11.93 53.474 0.05 6.25 2.47 10.55
5/25/2022 5:15:00 AM 11.89 53.402 0.051 6.25 2.48 10.56
5/25/2022 5:30:00 AM 11.86 53.348 0.05 6.25 2.57 10.58
5/25/2022 5:45:00 AM 11.82 53.276 0.051 6.24 2.5 10.56
5/25/2022 6:00:00 AM 11.78 53.204 0.051 6.24 2.56 10.59
5/25/2022 6:15:00 AM 11.74 53.132 0.05 6.24 3.25 10.59
5/25/2022 6:30:00 AM 11.71 53.078 0.051 6.25 2.77 10.63
5/25/2022 6:45:00 AM 11.68 53.024 0.051 6.25 2.69 10.64
5/25/2022 7:00:00 AM 11.66 52.988 0.051 6.25 2.53 10.65
5/25/2022 7:15:00 AM 11.64 52.952 0.051 6.25 2.74 10.67
5/25/2022 7:30:00 AM 11.63 52.934 0.051 6.25 2.64 10.68
5/25/2022 7:45:00 AM 11.62 52.916 0.051 6.26 2.54 10.71
5/25/2022 8:00:00 AM 11.61 52.898 0.051 6.27 2.48 10.73
5/25/2022 8:15:00 AM 11.62 52.916 0.051 6.27 2.73 10.74
5/25/2022 8:30:00 AM 11.63 52.934 0.05 6.27 2.52 10.76
5/25/2022 8:45:00 AM 11.66 52.988 0.05 6.28 2.48 10.78
5/25/2022 9:00:00 AM 11.68 53.024 0.05 6.29 2.48 10.79
5/25/2022 9:15:00 AM 11.73 53.114 0.05 6.29 2.47 10.79
5/25/2022 9:30:00 AM 11.81 53.258 0.05 6.3 2.61 10.8
5/25/2022 9:45:00 AM 11.88 53.384 0.05 6.3 3.12 10.79
5/25/2022 10:00:00 AM 11.94 53.492 0.05 6.3 2.4 10.78
5/25/2022 10:15:00 AM 12.05 53.69 0.05 6.32 2.68 10.77
5/25/2022 10:30:00 AM 12.15 53.87 0.05 6.32 2.51 10.79
5/25/2022 10:45:00 AM 12.27 54.086 0.05 6.33 2.75 10.79
5/25/2022 11:00:00 AM 12.4 54.32 0.05 6.32 2.48 10.74
5/25/2022 11:15:00 AM 12.5 54.5 0.05 6.32 2.82 10.71
5/25/2022 11:30:00 AM 12.6 54.68 0.05 6.33 2.66 10.68
5/25/2022 11:45:00 AM 12.75 54.95 0.05 6.33 2.48 10.65
5/25/2022 12:00:00 PM 12.88 55.184 0.05 6.34 2.75 10.66
5/25/2022 12:15:00 PM 12.99 55.382 0.05 6.34 2.64 10.62
5/25/2022 12:30:00 PM 13.16 55.688 0.05 6.32 2.54 10.54
5/25/2022 12:45:00 PM 13.33 55.994 0.05 6.33 2.48 10.51
5/25/2022 1:00:00 PM 13.51 56.318 0.05 6.33 2.54 10.49
5/25/2022 1:15:00 PM 13.76 56.768 0.05 6.33 2.52 10.46
5/25/2022 1:30:00 PM 13.92 57.056 0.05 6.33 2.51 10.37
5/25/2022 1:45:00 PM 14.13 57.434 0.05 6.33 2.62 10.34
5/25/2022 2:00:00 PM 14.35 57.83 0.05 6.31 2.58 10.21
5/25/2022 2:15:00 PM 14.5 58.1 0.05 6.32 2.4 10.16
5/25/2022 2:30:00 PM 14.69 58.442 0.05 6.34 3.24 10.19
5/25/2022 2:45:00 PM 14.92 58.856 0.05 6.3 2.85 10.05
5/25/2022 3:00:00 PM 15.08 59.144 0.05 6.32 2.84 10.07
5/25/2022 3:15:00 PM 15.26 59.468 0.05 6.29 2.54 9.98
5/25/2022 3:30:00 PM 15.39 59.702 0.05 6.29 2.81 9.95
5/25/2022 3:45:00 PM 15.55 59.99 0.05 6.32 2.77 9.93
5/25/2022 4:00:00 PM 15.68 60.224 0.05 6.32 2.42 9.87
5/25/2022 4:15:00 PM 15.74 60.332 0.05 6.32 2.44 9.87
5/25/2022 4:30:00 PM 15.79 60.422 0.05 6.32 2.56 9.84
5/25/2022 4:45:00 PM 15.81 60.458 0.05 6.34 2.29 9.84
5/25/2022 5:00:00 PM 15.85 60.53 0.05 6.32 2.45 9.78
5/25/2022 5:15:00 PM 15.87 60.566 0.05 6.32 2.35 9.75
5/25/2022 5:30:00 PM 15.88 60.584 0.051 6.33 2.39 9.76
5/25/2022 5:45:00 PM 15.93 60.674 0.051 6.33 2.46 9.76
5/25/2022 6:00:00 PM 15.92 60.656 0.051 6.33 2.78 9.74
5/25/2022 6:15:00 PM 15.91 60.638 0.051 6.33 2.43 9.73
5/25/2022 6:30:00 PM 15.9 60.62 0.051 6.33 2.27 9.71
5/25/2022 6:45:00 PM 15.86 60.548 0.051 6.33 2.37 9.69
5/25/2022 7:00:00 PM 15.84 60.512 0.051 6.31 2.84 9.69
5/25/2022 7:15:00 PM 15.78 60.404 0.051 6.31 2.41 9.68
5/25/2022 7:30:00 PM 15.72 60.296 0.051 6.31 2.38 9.7
5/25/2022 7:45:00 PM 15.63 60.134 0.051 6.31 2.21 9.69
5/25/2022 8:00:00 PM 15.54 59.972 0.051 6.29 2.2 9.69
5/25/2022 8:15:00 PM 15.44 59.792 0.051 6.29 2.28 9.71
5/25/2022 8:30:00 PM 15.32 59.576 0.051 6.29 2.3 9.75
5/25/2022 8:45:00 PM 15.23 59.414 0.051 6.28 2.47 9.75
5/25/2022 9:00:00 PM 15.14 59.252 0.051 6.28 2.44 9.76
5/25/2022 9:15:00 PM 15.02 59.036 0.051 6.27 2.24 9.78
5/25/2022 9:30:00 PM 14.93 58.874 0.051 6.28 2.31 9.77
5/25/2022 9:45:00 PM 14.83 58.694 0.051 6.28 2.33 9.8
5/25/2022 10:00:00 PM 14.73 58.514 0.051 6.27 2.33 9.81
5/25/2022 10:15:00 PM 14.62 58.316 0.051 6.27 2.34 9.86
5/25/2022 10:30:00 PM 14.52 58.136 0.051 6.26 2.27 9.87
5/25/2022 10:45:00 PM 14.44 57.992 0.051 6.27 2.39 9.9
5/25/2022 11:00:00 PM 14.32 57.776 0.051 6.24 2.42 9.93
5/25/2022 11:15:00 PM 14.24 57.632 0.051 6.27 2.46 9.92
5/25/2022 11:30:00 PM 14.17 57.506 0.051 6.28 2.31 9.95
5/25/2022 11:45:00 PM 14.07 57.326 0.051 6.28 2.39 9.98
5/26/2022 12:00:00 AM 13.99 57.182 0.051 6.27 2.44 9.98
5/26/2022 12:15:00 AM 13.9 57.02 0.051 6.28 2.28 10.03
5/26/2022 12:30:00 AM 13.83 56.894 0.051 6.28 2.25 10.03
5/26/2022 12:45:00 AM 13.75 56.75 0.051 6.28 2.53 10.06
5/26/2022 1:00:00 AM 13.68 56.624 0.051 6.28 2.26 10.07
5/26/2022 1:15:00 AM 13.59 56.462 0.051 6.29 2.35 10.11
5/26/2022 1:30:00 AM 13.54 56.372 0.051 6.29 2.33 10.09
5/26/2022 1:45:00 AM 13.46 56.228 0.051 6.29 2.48 10.13
5/26/2022 2:00:00 AM 13.39 56.102 0.051 6.29 2.41 10.13
5/26/2022 2:15:00 AM 13.32 55.976 0.051 6.28 2.42 10.15
5/26/2022 2:30:00 AM 13.24 55.832 0.051 6.28 2.33 10.19
5/26/2022 2:45:00 AM 13.21 55.778 0.052 6.29 2.31 10.19
5/26/2022 3:00:00 AM 13.12 55.616 0.052 6.28 2.53 10.2
5/26/2022 3:15:00 AM 13.08 55.544 0.052 6.28 2.27 10.19
5/26/2022 3:30:00 AM 13.01 55.418 0.052 6.2 2.36 10.22
5/26/2022 3:45:00 AM 12.95 55.31 0.052 6.28 2.45 10.24
5/26/2022 4:00:00 AM 12.9 55.22 0.052 6.28 2.32 10.24
5/26/2022 4:15:00 AM 12.85 55.13 0.052 6.28 2.66 10.26
5/26/2022 4:30:00 AM 12.79 55.022 0.052 6.28 2.27 10.27
5/26/2022 4:45:00 AM 12.73 54.914 0.052 6.28 2.59 10.3
5/26/2022 5:00:00 AM 12.69 54.842 0.052 6.28 2.36 10.29
5/26/2022 5:15:00 AM 12.65 54.77 0.052 6.28 2.44 10.31
5/26/2022 5:30:00 AM 12.6 54.68 0.052 6.28 2.41 10.31
5/26/2022 5:45:00 AM 12.55 54.59 0.052 6.27 2.32 10.29
5/26/2022 6:00:00 AM 12.49 54.482 0.052 6.27 2.44 10.34
5/26/2022 6:15:00 AM 12.45 54.41 0.052 6.27 2.54 10.35
5/26/2022 6:30:00 AM 12.4 54.32 0.052 6.27 2.66 10.34
5/26/2022 6:45:00 AM 12.36 54.248 0.052 6.26 2.48 10.37
5/26/2022 7:00:00 AM 12.32 54.176 0.052 6.27 2.55 10.39
5/26/2022 7:15:00 AM 12.28 54.104 0.052 6.26 2.32 10.38
5/26/2022 7:30:00 AM 12.26 54.068 0.052 6.28 2.55 10.43
5/26/2022 7:45:00 AM 12.23 54.014 0.052 6.28 2.61 10.43
5/26/2022 8:00:00 AM 12.2 53.96 0.052 6.27 2.47 10.47
5/26/2022 8:15:00 AM 12.2 53.96 0.052 6.27 2.99 10.44
5/26/2022 8:30:00 AM 12.2 53.96 0.052 6.28 2.43 10.47
5/26/2022 8:45:00 AM 12.22 53.996 0.052 6.29 2.43 10.5
5/26/2022 9:00:00 AM 12.26 54.068 0.052 6.29 2.48 10.5
5/26/2022 9:15:00 AM 12.33 54.194 0.052 6.3 2.6 10.55
5/26/2022 9:30:00 AM 12.41 54.338 0.051 6.29 2.47 10.52
5/26/2022 9:45:00 AM 12.5 54.5 0.051 6.32 2.38 10.54
5/26/2022 10:00:00 AM 12.6 54.68 0.051 6.31 2.52 10.5
5/26/2022 10:15:00 AM 12.71 54.878 0.051 6.33 2.57 10.55
5/26/2022 10:30:00 AM 12.81 55.058 0.051 6.33 2.5 10.52
5/26/2022 10:45:00 AM 12.92 55.256 0.051 6.33 2.36 10.47
5/26/2022 11:00:00 AM 13.06 55.508 0.051 6.33 2.39 10.47
5/26/2022 11:15:00 AM 13.24 55.832 0.051 6.35 2.47 10.48
5/26/2022 11:30:00 AM 13.4 56.12 0.052 6.36 2.5 10.47
5/26/2022 11:45:00 AM 13.67 56.606 0.051 6.35 2.42 10.37
5/26/2022 12:00:00 PM 13.82 56.876 0.052 6.37 3.35 10.36
5/26/2022 12:15:00 PM 14.06 57.308 0.052 6.37 2.41 10.27
5/26/2022 12:30:00 PM -100000 -179968 -100000 -100000 -100000 -100000
5/26/2022 12:45:00 PM -100000 -179968 -100000 -100000 -100000 -100000
5/26/2022 1:00:00 PM -100000 -179968 -100000 -100000 -100000 -100000
5/26/2022 1:15:00 PM -100000 -179968 -100000 -100000 -100000 -100000
5/26/2022 1:30:00 PM -100000 -179968 -100000 -100000 -100000 -100000
5/26/2022 1:45:00 PM -100000 -179968 -100000 -100000 -100000 -100000
5/26/2022 2:00:00 PM -100000 -179968 -100000 -100000 -100000 -100000
5/26/2022 2:15:00 PM -100000 -179968 -100000 -100000 -100000 -100000
5/26/2022 2:30:00 PM -100000 -179968 -100000 -100000 -100000 -100000
5/26/2022 2:45:00 PM -100000 -179968 -100000 -100000 -100000 -100000
5/26/2022 3:00:00 PM -100000 -179968 -100000 -100000 -100000 -100000
5/26/2022 3:15:00 PM -100000 -179968 -100000 -100000 -100000 -100000
5/26/2022 3:30:00 PM -100000 -179968 -100000 -100000 -100000 -100000
5/26/2022 3:45:00 PM -100000 -179968 -100000 -100000 -100000 -100000
5/26/2022 4:00:00 PM -100000 -179968 -100000 -100000 -100000 -100000
5/26/2022 4:15:00 PM -100000 -179968 -100000 -100000 -100000 -100000
5/26/2022 4:30:00 PM -100000 -179968 -100000 -100000 -100000 -100000
5/26/2022 4:45:00 PM -100000 -179968 -100000 -100000 -100000 -100000
5/26/2022 5:00:00 PM -100000 -179968 -100000 -100000 -100000 -100000
5/26/2022 5:15:00 PM -100000 -179968 -100000 -100000 -100000 -100000
5/26/2022 5:30:00 PM -100000 -179968 -100000 -100000 -100000 -100000
5/26/2022 5:45:00 PM -100000 -179968 -100000 -100000 -100000 -100000
5/26/2022 6:00:00 PM -100000 -179968 -100000 -100000 -100000 -100000
5/26/2022 6:15:00 PM -100000 -179968 -100000 -100000 -100000 -100000
5/26/2022 6:30:00 PM -100000 -179968 -100000 -100000 -100000 -100000
5/26/2022 6:45:00 PM -100000 -179968 -100000 -100000 -100000 -100000
5/26/2022 7:00:00 PM -100000 -179968 -100000 -100000 -100000 -100000
5/26/2022 7:15:00 PM -100000 -179968 -100000 -100000 -100000 -100000
5/26/2022 7:30:00 PM -100000 -179968 -100000 -100000 -100000 -100000
5/26/2022 7:45:00 PM -100000 -179968 -100000 -100000 -100000 -100000
5/26/2022 8:00:00 PM -100000 -179968 -100000 -100000 -100000 -100000
5/26/2022 8:15:00 PM -100000 -179968 -100000 -100000 -100000 -100000
5/26/2022 8:30:00 PM -100000 -179968 -100000 -100000 -100000 -100000
5/26/2022 8:45:00 PM -100000 -179968 -100000 -100000 -100000 -100000
5/26/2022 9:00:00 PM -100000 -179968 -100000 -100000 -100000 -100000
5/26/2022 9:15:00 PM -100000 -179968 -100000 -100000 -100000 -100000
5/26/2022 9:30:00 PM -100000 -179968 -100000 -100000 -100000 -100000
5/26/2022 9:45:00 PM -100000 -179968 -100000 -100000 -100000 -100000
5/26/2022 10:00:00 PM -100000 -179968 -100000 -100000 -100000 -100000
5/26/2022 10:15:00 PM -100000 -179968 -100000 -100000 -100000 -100000
5/26/2022 10:30:00 PM -100000 -179968 -100000 -100000 -100000 -100000
5/26/2022 10:45:00 PM -100000 -179968 -100000 -100000 -100000 -100000
5/26/2022 11:00:00 PM -100000 -179968 -100000 -100000 -100000 -100000
5/26/2022 11:15:00 PM -100000 -179968 -100000 -100000 -100000 -100000
5/26/2022 11:30:00 PM -100000 -179968 -100000 -100000 -100000 -100000
5/26/2022 11:45:00 PM -100000 -179968 -100000 -100000 -100000 -100000
5/27/2022 12:00:00 AM -100000 -179968 -100000 -100000 -100000 -100000
5/27/2022 12:15:00 AM -100000 -179968 -100000 -100000 -100000 -100000
5/27/2022 12:30:00 AM -100000 -179968 -100000 -100000 -100000 -100000
5/27/2022 12:45:00 AM -100000 -179968 -100000 -100000 -100000 -100000
5/27/2022 1:00:00 AM -100000 -179968 -100000 -100000 -100000 -100000
5/27/2022 1:15:00 AM -100000 -179968 -100000 -100000 -100000 -100000
5/27/2022 1:30:00 AM -100000 -179968 -100000 -100000 -100000 -100000
5/27/2022 1:45:00 AM -100000 -179968 -100000 -100000 -100000 -100000
5/27/2022 2:00:00 AM -100000 -179968 -100000 -100000 -100000 -100000
5/27/2022 2:15:00 AM -100000 -179968 -100000 -100000 -100000 -100000
5/27/2022 2:30:00 AM -100000 -179968 -100000 -100000 -100000 -100000
5/27/2022 2:45:00 AM -100000 -179968 -100000 -100000 -100000 -100000
5/27/2022 3:00:00 AM -100000 -179968 -100000 -100000 -100000 -100000
5/27/2022 3:15:00 AM -100000 -179968 -100000 -100000 -100000 -100000
5/27/2022 3:30:00 AM -100000 -179968 -100000 -100000 -100000 -100000
5/27/2022 3:45:00 AM -100000 -179968 -100000 -100000 -100000 -100000
5/27/2022 4:00:00 AM -100000 -179968 -100000 -100000 -100000 -100000
5/27/2022 4:15:00 AM -100000 -179968 -100000 -100000 -100000 -100000
5/27/2022 4:30:00 AM -100000 -179968 -100000 -100000 -100000 -100000
5/27/2022 4:45:00 AM -100000 -179968 -100000 -100000 -100000 -100000
5/27/2022 5:00:00 AM -100000 -179968 -100000 -100000 -100000 -100000
5/27/2022 5:15:00 AM -100000 -179968 -100000 -100000 -100000 -100000
5/27/2022 5:30:00 AM -100000 -179968 -100000 -100000 -100000 -100000
5/27/2022 5:45:00 AM -100000 -179968 -100000 -100000 -100000 -100000
5/27/2022 6:00:00 AM -100000 -179968 -100000 -100000 -100000 -100000
5/27/2022 6:15:00 AM -100000 -179968 -100000 -100000 -100000 -100000
5/27/2022 6:30:00 AM -100000 -179968 -100000 -100000 -100000 -100000
5/27/2022 6:45:00 AM -100000 -179968 -100000 -100000 -100000 -100000
5/27/2022 7:00:00 AM -100000 -179968 -100000 -100000 -100000 -100000
5/27/2022 7:15:00 AM -100000 -179968 -100000 -100000 -100000 -100000
5/27/2022 7:30:00 AM -100000 -179968 -100000 -100000 -100000 -100000
5/27/2022 7:45:00 AM -100000 -179968 -100000 -100000 -100000 -100000
5/27/2022 8:00:00 AM -100000 -179968 -100000 -100000 -100000 -100000
5/27/2022 8:15:00 AM -100000 -179968 -100000 -100000 -100000 -100000
5/27/2022 8:30:00 AM -100000 -179968 -100000 -100000 -100000 -100000
5/27/2022 8:45:00 AM -100000 -179968 -100000 -100000 -100000 -100000
5/27/2022 9:00:00 AM -100000 -179968 -100000 -100000 -100000 -100000
5/27/2022 9:15:00 AM -100000 -179968 -100000 -100000 -100000 -100000
5/27/2022 9:30:00 AM -100000 -179968 -100000 -100000 -100000 -100000
5/27/2022 9:45:00 AM -100000 -179968 -100000 -100000 -100000 -100000
5/27/2022 10:00:00 AM -100000 -179968 -100000 -100000 -100000 -100000
5/27/2022 10:15:00 AM -100000 -179968 -100000 -100000 -100000 -100000
5/27/2022 10:30:00 AM -100000 -179968 -100000 -100000 -100000 -100000
5/27/2022 10:45:00 AM -100000 -179968 -100000 -100000 -100000 -100000
5/27/2022 11:00:00 AM -100000 -179968 -100000 -100000 -100000 -100000
5/27/2022 11:15:00 AM -100000 -179968 -100000 -100000 -100000 -100000
5/27/2022 11:30:00 AM -100000 -179968 -100000 -100000 -100000 -100000
5/27/2022 11:45:00 AM -100000 -179968 -100000 -100000 -100000 -100000
5/27/2022 12:00:00 PM -100000 -179968 -100000 -100000 -100000 -100000
5/27/2022 12:15:00 PM -100000 -179968 -100000 -100000 -100000 -100000
5/27/2022 12:30:00 PM -100000 -179968 -100000 -100000 -100000 -100000
5/27/2022 12:45:00 PM -100000 -179968 -100000 -100000 -100000 -100000
5/27/2022 1:00:00 PM -100000 -179968 -100000 -100000 -100000 -100000
5/27/2022 1:15:00 PM -100000 -179968 -100000 -100000 -100000 -100000
5/27/2022 1:30:00 PM -100000 -179968 -100000 -100000 -100000 -100000
5/27/2022 1:45:00 PM -100000 -179968 -100000 -100000 -100000 -100000
5/27/2022 2:00:00 PM -100000 -179968 -100000 -100000 -100000 -100000
5/27/2022 2:15:00 PM -100000 -179968 -100000 -100000 -100000 -100000
5/27/2022 2:30:00 PM -100000 -179968 -100000 -100000 -100000 -100000
5/27/2022 2:45:00 PM -100000 -179968 -100000 -100000 -100000 -100000
5/27/2022 3:00:00 PM -100000 -179968 -100000 -100000 -100000 -100000
5/27/2022 3:15:00 PM -100000 -179968 -100000 -100000 -100000 -100000
5/27/2022 3:30:00 PM -100000 -179968 -100000 -100000 -100000 -100000
5/27/2022 3:45:00 PM -100000 -179968 -100000 -100000 -100000 -100000
5/27/2022 4:00:00 PM -100000 -179968 -100000 -100000 -100000 -100000
5/27/2022 4:15:00 PM -100000 -179968 -100000 -100000 -100000 -100000
5/27/2022 4:30:00 PM -100000 -179968 -100000 -100000 -100000 -100000
5/27/2022 4:45:00 PM -100000 -179968 -100000 -100000 -100000 -100000
5/27/2022 5:00:00 PM -100000 -179968 -100000 -100000 -100000 -100000
5/27/2022 5:15:00 PM -100000 -179968 -100000 -100000 -100000 -100000
5/27/2022 5:30:00 PM -100000 -179968 -100000 -100000 -100000 -100000
5/27/2022 5:45:00 PM -100000 -179968 -100000 -100000 -100000 -100000
5/27/2022 6:00:00 PM -100000 -179968 -100000 -100000 -100000 -100000
5/27/2022 6:15:00 PM -100000 -179968 -100000 -100000 -100000 -100000
5/27/2022 6:30:00 PM -100000 -179968 -100000 -100000 -100000 -100000
5/27/2022 6:45:00 PM -100000 -179968 -100000 -100000 -100000 -100000
5/27/2022 7:00:00 PM -100000 -179968 -100000 -100000 -100000 -100000
5/27/2022 7:15:00 PM -100000 -179968 -100000 -100000 -100000 -100000
5/27/2022 7:30:00 PM -100000 -179968 -100000 -100000 -100000 -100000
5/27/2022 7:45:00 PM -100000 -179968 -100000 -100000 -100000 -100000
5/27/2022 8:00:00 PM -100000 -179968 -100000 -100000 -100000 -100000
5/27/2022 8:15:00 PM -100000 -179968 -100000 -100000 -100000 -100000
5/27/2022 8:30:00 PM -100000 -179968 -100000 -100000 -100000 -100000
5/27/2022 8:45:00 PM -100000 -179968 -100000 -100000 -100000 -100000
5/27/2022 9:00:00 PM -100000 -179968 -100000 -100000 -100000 -100000
5/27/2022 9:15:00 PM -100000 -179968 -100000 -100000 -100000 -100000
5/27/2022 9:30:00 PM -100000 -179968 -100000 -100000 -100000 -100000
5/27/2022 9:45:00 PM -100000 -179968 -100000 -100000 -100000 -100000
5/27/2022 10:00:00 PM -100000 -179968 -100000 -100000 -100000 -100000
5/27/2022 10:15:00 PM -100000 -179968 -100000 -100000 -100000 -100000
5/27/2022 10:30:00 PM -100000 -179968 -100000 -100000 -100000 -100000
5/27/2022 10:45:00 PM -100000 -179968 -100000 -100000 -100000 -100000
5/27/2022 11:00:00 PM -100000 -179968 -100000 -100000 -100000 -100000
5/27/2022 11:15:00 PM -100000 -179968 -100000 -100000 -100000 -100000
5/27/2022 11:30:00 PM -100000 -179968 -100000 -100000 -100000 -100000
5/27/2022 11:45:00 PM -100000 -179968 -100000 -100000 -100000 -100000
5/28/2022 12:00:00 AM -100000 -179968 -100000 -100000 -100000 -100000
5/28/2022 12:15:00 AM -100000 -179968 -100000 -100000 -100000 -100000
5/28/2022 12:30:00 AM -100000 -179968 -100000 -100000 -100000 -100000
5/28/2022 12:45:00 AM -100000 -179968 -100000 -100000 -100000 -100000
5/28/2022 1:00:00 AM -100000 -179968 -100000 -100000 -100000 -100000
5/28/2022 1:15:00 AM -100000 -179968 -100000 -100000 -100000 -100000
5/28/2022 1:30:00 AM -100000 -179968 -100000 -100000 -100000 -100000
5/28/2022 1:45:00 AM -100000 -179968 -100000 -100000 -100000 -100000
5/28/2022 2:00:00 AM -100000 -179968 -100000 -100000 -100000 -100000
5/28/2022 2:15:00 AM -100000 -179968 -100000 -100000 -100000 -100000
5/28/2022 2:30:00 AM -100000 -179968 -100000 -100000 -100000 -100000
5/28/2022 2:45:00 AM -100000 -179968 -100000 -100000 -100000 -100000
5/28/2022 3:00:00 AM -100000 -179968 -100000 -100000 -100000 -100000
5/28/2022 3:15:00 AM -100000 -179968 -100000 -100000 -100000 -100000
5/28/2022 3:30:00 AM -100000 -179968 -100000 -100000 -100000 -100000
5/28/2022 3:45:00 AM -100000 -179968 -100000 -100000 -100000 -100000
5/28/2022 4:00:00 AM -100000 -179968 -100000 -100000 -100000 -100000
5/28/2022 4:15:00 AM -100000 -179968 -100000 -100000 -100000 -100000
5/28/2022 4:30:00 AM -100000 -179968 -100000 -100000 -100000 -100000
5/28/2022 4:45:00 AM -100000 -179968 -100000 -100000 -100000 -100000
5/28/2022 5:00:00 AM -100000 -179968 -100000 -100000 -100000 -100000
5/28/2022 5:15:00 AM -100000 -179968 -100000 -100000 -100000 -100000
5/28/2022 5:30:00 AM -100000 -179968 -100000 -100000 -100000 -100000
5/28/2022 5:45:00 AM -100000 -179968 -100000 -100000 -100000 -100000
5/28/2022 6:00:00 AM -100000 -179968 -100000 -100000 -100000 -100000
5/28/2022 6:15:00 AM -100000 -179968 -100000 -100000 -100000 -100000
5/28/2022 6:30:00 AM -100000 -179968 -100000 -100000 -100000 -100000
5/28/2022 6:45:00 AM -100000 -179968 -100000 -100000 -100000 -100000
5/28/2022 7:00:00 AM -100000 -179968 -100000 -100000 -100000 -100000
5/28/2022 7:15:00 AM -100000 -179968 -100000 -100000 -100000 -100000
5/28/2022 7:30:00 AM -100000 -179968 -100000 -100000 -100000 -100000
5/28/2022 7:45:00 AM -100000 -179968 -100000 -100000 -100000 -100000
5/28/2022 8:00:00 AM -100000 -179968 -100000 -100000 -100000 -100000
5/28/2022 8:15:00 AM -100000 -179968 -100000 -100000 -100000 -100000
5/28/2022 8:30:00 AM -100000 -179968 -100000 -100000 -100000 -100000
5/28/2022 8:45:00 AM -100000 -179968 -100000 -100000 -100000 -100000
5/28/2022 9:00:00 AM -100000 -179968 -100000 -100000 -100000 -100000
5/28/2022 9:15:00 AM -100000 -179968 -100000 -100000 -100000 -100000
5/28/2022 9:30:00 AM -100000 -179968 -100000 -100000 -100000 -100000
5/28/2022 9:45:00 AM -100000 -179968 -100000 -100000 -100000 -100000
5/28/2022 10:00:00 AM -100000 -179968 -100000 -100000 -100000 -100000
5/28/2022 10:15:00 AM -100000 -179968 -100000 -100000 -100000 -100000
5/28/2022 10:30:00 AM -100000 -179968 -100000 -100000 -100000 -100000
5/28/2022 10:45:00 AM -100000 -179968 -100000 -100000 -100000 -100000
5/28/2022 11:00:00 AM -100000 -179968 -100000 -100000 -100000 -100000
5/28/2022 11:15:00 AM -100000 -179968 -100000 -100000 -100000 -100000
5/28/2022 11:30:00 AM -100000 -179968 -100000 -100000 -100000 -100000
5/28/2022 11:45:00 AM -100000 -179968 -100000 -100000 -100000 -100000
5/28/2022 12:00:00 PM -100000 -179968 -100000 -100000 -100000 -100000
5/28/2022 12:15:00 PM -100000 -179968 -100000 -100000 -100000 -100000
5/28/2022 12:30:00 PM -100000 -179968 -100000 -100000 -100000 -100000
5/28/2022 12:45:00 PM -100000 -179968 -100000 -100000 -100000 -100000
5/28/2022 1:00:00 PM -100000 -179968 -100000 -100000 -100000 -100000
5/28/2022 1:15:00 PM -100000 -179968 -100000 -100000 -100000 -100000
5/28/2022 1:30:00 PM -100000 -179968 -100000 -100000 -100000 -100000
5/28/2022 1:45:00 PM -100000 -179968 -100000 -100000 -100000 -100000
5/28/2022 2:00:00 PM -100000 -179968 -100000 -100000 -100000 -100000
5/28/2022 2:15:00 PM -100000 -179968 -100000 -100000 -100000 -100000
5/28/2022 2:30:00 PM -100000 -179968 -100000 -100000 -100000 -100000
5/28/2022 2:45:00 PM -100000 -179968 -100000 -100000 -100000 -100000
5/28/2022 3:00:00 PM -100000 -179968 -100000 -100000 -100000 -100000
5/28/2022 3:15:00 PM -100000 -179968 -100000 -100000 -100000 -100000
5/28/2022 3:30:00 PM -100000 -179968 -100000 -100000 -100000 -100000
5/28/2022 3:45:00 PM -100000 -179968 -100000 -100000 -100000 -100000
5/28/2022 4:00:00 PM -100000 -179968 -100000 -100000 -100000 -100000
5/28/2022 4:15:00 PM -100000 -179968 -100000 -100000 -100000 -100000
5/28/2022 4:30:00 PM -100000 -179968 -100000 -100000 -100000 -100000
5/28/2022 4:45:00 PM -100000 -179968 -100000 -100000 -100000 -100000
5/28/2022 5:00:00 PM -100000 -179968 -100000 -100000 -100000 -100000
5/28/2022 5:15:00 PM -100000 -179968 -100000 -100000 -100000 -100000
5/28/2022 5:30:00 PM -100000 -179968 -100000 -100000 -100000 -100000
5/28/2022 5:45:00 PM -100000 -179968 -100000 -100000 -100000 -100000
5/28/2022 6:00:00 PM -100000 -179968 -100000 -100000 -100000 -100000
5/28/2022 6:15:00 PM -100000 -179968 -100000 -100000 -100000 -100000
5/28/2022 6:30:00 PM -100000 -179968 -100000 -100000 -100000 -100000
5/28/2022 6:45:00 PM -100000 -179968 -100000 -100000 -100000 -100000
5/28/2022 7:00:00 PM -100000 -179968 -100000 -100000 -100000 -100000
5/28/2022 7:15:00 PM -100000 -179968 -100000 -100000 -100000 -100000
5/28/2022 7:30:00 PM -100000 -179968 -100000 -100000 -100000 -100000
5/28/2022 7:45:00 PM -100000 -179968 -100000 -100000 -100000 -100000
5/28/2022 8:00:00 PM -100000 -179968 -100000 -100000 -100000 -100000
5/28/2022 8:15:00 PM -100000 -179968 -100000 -100000 -100000 -100000
5/28/2022 8:30:00 PM -100000 -179968 -100000 -100000 -100000 -100000
5/28/2022 8:45:00 PM -100000 -179968 -100000 -100000 -100000 -100000
5/28/2022 9:00:00 PM -100000 -179968 -100000 -100000 -100000 -100000
5/28/2022 9:15:00 PM -100000 -179968 -100000 -100000 -100000 -100000
5/28/2022 9:30:00 PM -100000 -179968 -100000 -100000 -100000 -100000
5/28/2022 9:45:00 PM -100000 -179968 -100000 -100000 -100000 -100000
5/28/2022 10:00:00 PM -100000 -179968 -100000 -100000 -100000 -100000
5/28/2022 10:15:00 PM -100000 -179968 -100000 -100000 -100000 -100000
5/28/2022 10:30:00 PM -100000 -179968 -100000 -100000 -100000 -100000
5/28/2022 10:45:00 PM -100000 -179968 -100000 -100000 -100000 -100000
5/28/2022 11:00:00 PM -100000 -179968 -100000 -100000 -100000 -100000
5/28/2022 11:15:00 PM -100000 -179968 -100000 -100000 -100000 -100000
5/28/2022 11:30:00 PM -100000 -179968 -100000 -100000 -100000 -100000
5/28/2022 11:45:00 PM -100000 -179968 -100000 -100000 -100000 -100000
5/29/2022 12:00:00 AM -100000 -179968 -100000 -100000 -100000 -100000
5/29/2022 12:15:00 AM -100000 -179968 -100000 -100000 -100000 -100000
5/29/2022 12:30:00 AM -100000 -179968 -100000 -100000 -100000 -100000
5/29/2022 12:45:00 AM -100000 -179968 -100000 -100000 -100000 -100000
5/29/2022 1:00:00 AM -100000 -179968 -100000 -100000 -100000 -100000
5/29/2022 1:15:00 AM -100000 -179968 -100000 -100000 -100000 -100000
5/29/2022 1:30:00 AM -100000 -179968 -100000 -100000 -100000 -100000
5/29/2022 1:45:00 AM -100000 -179968 -100000 -100000 -100000 -100000
5/29/2022 2:00:00 AM -100000 -179968 -100000 -100000 -100000 -100000
5/29/2022 2:15:00 AM -100000 -179968 -100000 -100000 -100000 -100000
5/29/2022 2:30:00 AM -100000 -179968 -100000 -100000 -100000 -100000
5/29/2022 2:45:00 AM -100000 -179968 -100000 -100000 -100000 -100000
5/29/2022 3:00:00 AM -100000 -179968 -100000 -100000 -100000 -100000
5/29/2022 3:15:00 AM -100000 -179968 -100000 -100000 -100000 -100000
5/29/2022 3:30:00 AM -100000 -179968 -100000 -100000 -100000 -100000
5/29/2022 3:45:00 AM -100000 -179968 -100000 -100000 -100000 -100000
5/29/2022 4:00:00 AM -100000 -179968 -100000 -100000 -100000 -100000
5/29/2022 4:15:00 AM -100000 -179968 -100000 -100000 -100000 -100000
5/29/2022 4:30:00 AM -100000 -179968 -100000 -100000 -100000 -100000
5/29/2022 4:45:00 AM -100000 -179968 -100000 -100000 -100000 -100000
5/29/2022 5:00:00 AM -100000 -179968 -100000 -100000 -100000 -100000
5/29/2022 5:15:00 AM -100000 -179968 -100000 -100000 -100000 -100000
5/29/2022 5:30:00 AM -100000 -179968 -100000 -100000 -100000 -100000
5/29/2022 5:45:00 AM -100000 -179968 -100000 -100000 -100000 -100000
5/29/2022 6:00:00 AM -100000 -179968 -100000 -100000 -100000 -100000
5/29/2022 6:15:00 AM -100000 -179968 -100000 -100000 -100000 -100000
5/29/2022 6:30:00 AM -100000 -179968 -100000 -100000 -100000 -100000
5/29/2022 6:45:00 AM -100000 -179968 -100000 -100000 -100000 -100000
5/29/2022 7:00:00 AM -100000 -179968 -100000 -100000 -100000 -100000
5/29/2022 7:15:00 AM -100000 -179968 -100000 -100000 -100000 -100000
5/29/2022 7:30:00 AM -100000 -179968 -100000 -100000 -100000 -100000
5/29/2022 7:45:00 AM -100000 -179968 -100000 -100000 -100000 -100000
5/29/2022 8:00:00 AM -100000 -179968 -100000 -100000 -100000 -100000
5/29/2022 8:15:00 AM -100000 -179968 -100000 -100000 -100000 -100000
5/29/2022 8:30:00 AM -100000 -179968 -100000 -100000 -100000 -100000
5/29/2022 8:45:00 AM -100000 -179968 -100000 -100000 -100000 -100000
5/29/2022 9:00:00 AM -100000 -179968 -100000 -100000 -100000 -100000
5/29/2022 9:15:00 AM -100000 -179968 -100000 -100000 -100000 -100000
5/29/2022 9:30:00 AM -100000 -179968 -100000 -100000 -100000 -100000
5/29/2022 9:45:00 AM -100000 -179968 -100000 -100000 -100000 -100000
5/29/2022 10:00:00 AM -100000 -179968 -100000 -100000 -100000 -100000
5/29/2022 10:15:00 AM -100000 -179968 -100000 -100000 -100000 -100000
5/29/2022 10:30:00 AM -100000 -179968 -100000 -100000 -100000 -100000
5/29/2022 10:45:00 AM -100000 -179968 -100000 -100000 -100000 -100000
5/29/2022 11:00:00 AM -100000 -179968 -100000 -100000 -100000 -100000
5/29/2022 11:15:00 AM -100000 -179968 -100000 -100000 -100000 -100000
5/29/2022 11:30:00 AM -100000 -179968 -100000 -100000 -100000 -100000
5/29/2022 11:45:00 AM -100000 -179968 -100000 -100000 -100000 -100000
5/29/2022 12:00:00 PM -100000 -179968 -100000 -100000 -100000 -100000
5/29/2022 12:15:00 PM -100000 -179968 -100000 -100000 -100000 -100000
5/29/2022 12:30:00 PM -100000 -179968 -100000 -100000 -100000 -100000
5/29/2022 12:45:00 PM -100000 -179968 -100000 -100000 -100000 -100000
5/29/2022 1:00:00 PM -100000 -179968 -100000 -100000 -100000 -100000
5/29/2022 1:15:00 PM -100000 -179968 -100000 -100000 -100000 -100000
5/29/2022 1:30:00 PM -100000 -179968 -100000 -100000 -100000 -100000
5/29/2022 1:45:00 PM -100000 -179968 -100000 -100000 -100000 -100000
5/29/2022 2:00:00 PM -100000 -179968 -100000 -100000 -100000 -100000
5/29/2022 2:15:00 PM -100000 -179968 -100000 -100000 -100000 -100000
5/29/2022 2:30:00 PM -100000 -179968 -100000 -100000 -100000 -100000
5/29/2022 2:45:00 PM -100000 -179968 -100000 -100000 -100000 -100000
5/29/2022 3:00:00 PM -100000 -179968 -100000 -100000 -100000 -100000
5/29/2022 3:15:00 PM -100000 -179968 -100000 -100000 -100000 -100000
5/29/2022 3:30:00 PM -100000 -179968 -100000 -100000 -100000 -100000
5/29/2022 3:45:00 PM -100000 -179968 -100000 -100000 -100000 -100000
5/29/2022 4:00:00 PM -100000 -179968 -100000 -100000 -100000 -100000
5/29/2022 4:15:00 PM -100000 -179968 -100000 -100000 -100000 -100000
5/29/2022 4:30:00 PM -100000 -179968 -100000 -100000 -100000 -100000
5/29/2022 4:45:00 PM -100000 -179968 -100000 -100000 -100000 -100000
5/29/2022 5:00:00 PM -100000 -179968 -100000 -100000 -100000 -100000
5/29/2022 5:15:00 PM -100000 -179968 -100000 -100000 -100000 -100000
5/29/2022 5:30:00 PM -100000 -179968 -100000 -100000 -100000 -100000
5/29/2022 5:45:00 PM -100000 -179968 -100000 -100000 -100000 -100000
5/29/2022 6:00:00 PM -100000 -179968 -100000 -100000 -100000 -100000
5/29/2022 6:15:00 PM -100000 -179968 -100000 -100000 -100000 -100000
5/29/2022 6:30:00 PM -100000 -179968 -100000 -100000 -100000 -100000
5/29/2022 6:45:00 PM -100000 -179968 -100000 -100000 -100000 -100000
5/29/2022 7:00:00 PM -100000 -179968 -100000 -100000 -100000 -100000
5/29/2022 7:15:00 PM -100000 -179968 -100000 -100000 -100000 -100000
5/29/2022 7:30:00 PM -100000 -179968 -100000 -100000 -100000 -100000
5/29/2022 7:45:00 PM -100000 -179968 -100000 -100000 -100000 -100000
5/29/2022 8:00:00 PM -100000 -179968 -100000 -100000 -100000 -100000
5/29/2022 8:15:00 PM -100000 -179968 -100000 -100000 -100000 -100000
5/29/2022 8:30:00 PM -100000 -179968 -100000 -100000 -100000 -100000
5/29/2022 8:45:00 PM -100000 -179968 -100000 -100000 -100000 -100000
5/29/2022 9:00:00 PM -100000 -179968 -100000 -100000 -100000 -100000
5/29/2022 9:15:00 PM -100000 -179968 -100000 -100000 -100000 -100000
5/29/2022 9:30:00 PM -100000 -179968 -100000 -100000 -100000 -100000
5/29/2022 9:45:00 PM -100000 -179968 -100000 -100000 -100000 -100000
5/29/2022 10:00:00 PM -100000 -179968 -100000 -100000 -100000 -100000
5/29/2022 10:15:00 PM -100000 -179968 -100000 -100000 -100000 -100000
5/29/2022 10:30:00 PM -100000 -179968 -100000 -100000 -100000 -100000
5/29/2022 10:45:00 PM -100000 -179968 -100000 -100000 -100000 -100000
5/29/2022 11:00:00 PM -100000 -179968 -100000 -100000 -100000 -100000
5/29/2022 11:15:00 PM -100000 -179968 -100000 -100000 -100000 -100000
5/29/2022 11:30:00 PM -100000 -179968 -100000 -100000 -100000 -100000
5/29/2022 11:45:00 PM -100000 -179968 -100000 -100000 -100000 -100000
5/30/2022 12:00:00 AM -100000 -179968 -100000 -100000 -100000 -100000
5/30/2022 12:15:00 AM -100000 -179968 -100000 -100000 -100000 -100000
5/30/2022 12:30:00 AM -100000 -179968 -100000 -100000 -100000 -100000
5/30/2022 12:45:00 AM -100000 -179968 -100000 -100000 -100000 -100000
5/30/2022 1:00:00 AM -100000 -179968 -100000 -100000 -100000 -100000
5/30/2022 1:15:00 AM -100000 -179968 -100000 -100000 -100000 -100000
5/30/2022 1:30:00 AM -100000 -179968 -100000 -100000 -100000 -100000
5/30/2022 1:45:00 AM -100000 -179968 -100000 -100000 -100000 -100000
5/30/2022 2:00:00 AM -100000 -179968 -100000 -100000 -100000 -100000
5/30/2022 2:15:00 AM -100000 -179968 -100000 -100000 -100000 -100000
5/30/2022 2:30:00 AM -100000 -179968 -100000 -100000 -100000 -100000
5/30/2022 2:45:00 AM -100000 -179968 -100000 -100000 -100000 -100000
5/30/2022 3:00:00 AM -100000 -179968 -100000 -100000 -100000 -100000
5/30/2022 3:15:00 AM -100000 -179968 -100000 -100000 -100000 -100000
5/30/2022 3:30:00 AM -100000 -179968 -100000 -100000 -100000 -100000
5/30/2022 3:45:00 AM -100000 -179968 -100000 -100000 -100000 -100000
5/30/2022 4:00:00 AM -100000 -179968 -100000 -100000 -100000 -100000
5/30/2022 4:15:00 AM -100000 -179968 -100000 -100000 -100000 -100000
5/30/2022 4:30:00 AM -100000 -179968 -100000 -100000 -100000 -100000
5/30/2022 4:45:00 AM -100000 -179968 -100000 -100000 -100000 -100000
5/30/2022 5:00:00 AM -100000 -179968 -100000 -100000 -100000 -100000
5/30/2022 5:15:00 AM -100000 -179968 -100000 -100000 -100000 -100000
5/30/2022 5:30:00 AM -100000 -179968 -100000 -100000 -100000 -100000
5/30/2022 5:45:00 AM -100000 -179968 -100000 -100000 -100000 -100000
5/30/2022 6:00:00 AM -100000 -179968 -100000 -100000 -100000 -100000
5/30/2022 6:15:00 AM -100000 -179968 -100000 -100000 -100000 -100000
5/30/2022 6:30:00 AM -100000 -179968 -100000 -100000 -100000 -100000
5/30/2022 6:45:00 AM -100000 -179968 -100000 -100000 -100000 -100000
5/30/2022 7:00:00 AM -100000 -179968 -100000 -100000 -100000 -100000
5/30/2022 7:15:00 AM -100000 -179968 -100000 -100000 -100000 -100000
5/30/2022 7:30:00 AM -100000 -179968 -100000 -100000 -100000 -100000
5/30/2022 7:45:00 AM -100000 -179968 -100000 -100000 -100000 -100000
5/30/2022 8:00:00 AM -100000 -179968 -100000 -100000 -100000 -100000
5/30/2022 8:15:00 AM -100000 -179968 -100000 -100000 -100000 -100000
5/30/2022 8:30:00 AM -100000 -179968 -100000 -100000 -100000 -100000
5/30/2022 8:45:00 AM -100000 -179968 -100000 -100000 -100000 -100000
5/30/2022 9:00:00 AM -100000 -179968 -100000 -100000 -100000 -100000
5/30/2022 9:15:00 AM -100000 -179968 -100000 -100000 -100000 -100000
5/30/2022 9:30:00 AM -100000 -179968 -100000 -100000 -100000 -100000
5/30/2022 9:45:00 AM -100000 -179968 -100000 -100000 -100000 -100000
5/30/2022 10:00:00 AM -100000 -179968 -100000 -100000 -100000 -100000
5/30/2022 10:15:00 AM -100000 -179968 -100000 -100000 -100000 -100000
5/30/2022 10:30:00 AM -100000 -179968 -100000 -100000 -100000 -100000
5/30/2022 10:45:00 AM -100000 -179968 -100000 -100000 -100000 -100000
5/30/2022 11:00:00 AM -100000 -179968 -100000 -100000 -100000 -100000
5/30/2022 11:15:00 AM -100000 -179968 -100000 -100000 -100000 -100000
5/30/2022 11:30:00 AM -100000 -179968 -100000 -100000 -100000 -100000
5/30/2022 11:45:00 AM -100000 -179968 -100000 -100000 -100000 -100000
5/30/2022 12:00:00 PM -100000 -179968 -100000 -100000 -100000 -100000
5/30/2022 12:15:00 PM -100000 -179968 -100000 -100000 -100000 -100000
5/30/2022 12:30:00 PM -100000 -179968 -100000 -100000 -100000 -100000
5/30/2022 12:45:00 PM -100000 -179968 -100000 -100000 -100000 -100000
5/30/2022 1:00:00 PM -100000 -179968 -100000 -100000 -100000 -100000
5/30/2022 1:15:00 PM -100000 -179968 -100000 -100000 -100000 -100000
5/30/2022 1:30:00 PM -100000 -179968 -100000 -100000 -100000 -100000
5/30/2022 1:45:00 PM -100000 -179968 -100000 -100000 -100000 -100000
5/30/2022 2:00:00 PM -100000 -179968 -100000 -100000 -100000 -100000
5/30/2022 2:15:00 PM -100000 -179968 -100000 -100000 -100000 -100000
5/30/2022 2:30:00 PM -100000 -179968 -100000 -100000 -100000 -100000
5/30/2022 2:45:00 PM -100000 -179968 -100000 -100000 -100000 -100000
5/30/2022 3:00:00 PM -100000 -179968 -100000 -100000 -100000 -100000
5/30/2022 3:15:00 PM -100000 -179968 -100000 -100000 -100000 -100000
5/30/2022 3:30:00 PM -100000 -179968 -100000 -100000 -100000 -100000
5/30/2022 3:45:00 PM -100000 -179968 -100000 -100000 -100000 -100000
5/30/2022 4:00:00 PM -100000 -179968 -100000 -100000 -100000 -100000
5/30/2022 4:15:00 PM -100000 -179968 -100000 -100000 -100000 -100000
5/30/2022 4:30:00 PM -100000 -179968 -100000 -100000 -100000 -100000
5/30/2022 4:45:00 PM -100000 -179968 -100000 -100000 -100000 -100000
5/30/2022 5:00:00 PM -100000 -179968 -100000 -100000 -100000 -100000
5/30/2022 5:15:00 PM -100000 -179968 -100000 -100000 -100000 -100000
5/30/2022 5:30:00 PM -100000 -179968 -100000 -100000 -100000 -100000
5/30/2022 5:45:00 PM -100000 -179968 -100000 -100000 -100000 -100000
5/30/2022 6:00:00 PM -100000 -179968 -100000 -100000 -100000 -100000
5/30/2022 6:15:00 PM -100000 -179968 -100000 -100000 -100000 -100000
5/30/2022 6:30:00 PM -100000 -179968 -100000 -100000 -100000 -100000
5/30/2022 6:45:00 PM -100000 -179968 -100000 -100000 -100000 -100000
5/30/2022 7:00:00 PM -100000 -179968 -100000 -100000 -100000 -100000
5/30/2022 7:15:00 PM -100000 -179968 -100000 -100000 -100000 -100000
5/30/2022 7:30:00 PM -100000 -179968 -100000 -100000 -100000 -100000
5/30/2022 7:45:00 PM -100000 -179968 -100000 -100000 -100000 -100000
5/30/2022 8:00:00 PM -100000 -179968 -100000 -100000 -100000 -100000
5/30/2022 8:15:00 PM -100000 -179968 -100000 -100000 -100000 -100000
5/30/2022 8:30:00 PM -100000 -179968 -100000 -100000 -100000 -100000
5/30/2022 8:45:00 PM -100000 -179968 -100000 -100000 -100000 -100000
5/30/2022 9:00:00 PM -100000 -179968 -100000 -100000 -100000 -100000
5/30/2022 9:15:00 PM -100000 -179968 -100000 -100000 -100000 -100000
5/30/2022 9:30:00 PM -100000 -179968 -100000 -100000 -100000 -100000
5/30/2022 9:45:00 PM -100000 -179968 -100000 -100000 -100000 -100000
5/30/2022 10:00:00 PM -100000 -179968 -100000 -100000 -100000 -100000
5/30/2022 10:15:00 PM -100000 -179968 -100000 -100000 -100000 -100000
5/30/2022 10:30:00 PM -100000 -179968 -100000 -100000 -100000 -100000
5/30/2022 10:45:00 PM -100000 -179968 -100000 -100000 -100000 -100000
5/30/2022 11:00:00 PM -100000 -179968 -100000 -100000 -100000 -100000
5/30/2022 11:15:00 PM -100000 -179968 -100000 -100000 -100000 -100000
5/30/2022 11:30:00 PM -100000 -179968 -100000 -100000 -100000 -100000
5/30/2022 11:45:00 PM -100000 -179968 -100000 -100000 -100000 -100000
5/31/2022 12:00:00 AM -100000 -179968 -100000 -100000 -100000 -100000
5/31/2022 12:15:00 AM -100000 -179968 -100000 -100000 -100000 -100000
5/31/2022 12:30:00 AM -100000 -179968 -100000 -100000 -100000 -100000
5/31/2022 12:45:00 AM -100000 -179968 -100000 -100000 -100000 -100000
5/31/2022 1:00:00 AM -100000 -179968 -100000 -100000 -100000 -100000
5/31/2022 1:15:00 AM -100000 -179968 -100000 -100000 -100000 -100000
5/31/2022 1:30:00 AM -100000 -179968 -100000 -100000 -100000 -100000
5/31/2022 1:45:00 AM -100000 -179968 -100000 -100000 -100000 -100000
5/31/2022 2:00:00 AM -100000 -179968 -100000 -100000 -100000 -100000
5/31/2022 2:15:00 AM -100000 -179968 -100000 -100000 -100000 -100000
5/31/2022 2:30:00 AM -100000 -179968 -100000 -100000 -100000 -100000
5/31/2022 2:45:00 AM -100000 -179968 -100000 -100000 -100000 -100000
5/31/2022 3:00:00 AM -100000 -179968 -100000 -100000 -100000 -100000
5/31/2022 3:15:00 AM -100000 -179968 -100000 -100000 -100000 -100000
5/31/2022 3:30:00 AM -100000 -179968 -100000 -100000 -100000 -100000
5/31/2022 3:45:00 AM -100000 -179968 -100000 -100000 -100000 -100000
5/31/2022 4:00:00 AM -100000 -179968 -100000 -100000 -100000 -100000
5/31/2022 4:15:00 AM -100000 -179968 -100000 -100000 -100000 -100000
5/31/2022 4:30:00 AM -100000 -179968 -100000 -100000 -100000 -100000
5/31/2022 4:45:00 AM -100000 -179968 -100000 -100000 -100000 -100000
5/31/2022 5:00:00 AM -100000 -179968 -100000 -100000 -100000 -100000
5/31/2022 5:15:00 AM -100000 -179968 -100000 -100000 -100000 -100000
5/31/2022 5:30:00 AM -100000 -179968 -100000 -100000 -100000 -100000
5/31/2022 5:45:00 AM -100000 -179968 -100000 -100000 -100000 -100000
5/31/2022 6:00:00 AM -100000 -179968 -100000 -100000 -100000 -100000
5/31/2022 6:15:00 AM -100000 -179968 -100000 -100000 -100000 -100000
5/31/2022 6:30:00 AM -100000 -179968 -100000 -100000 -100000 -100000
5/31/2022 6:45:00 AM -100000 -179968 -100000 -100000 -100000 -100000
5/31/2022 7:00:00 AM -100000 -179968 -100000 -100000 -100000 -100000
5/31/2022 7:15:00 AM -100000 -179968 -100000 -100000 -100000 -100000
5/31/2022 7:30:00 AM -100000 -179968 -100000 -100000 -100000 -100000
5/31/2022 7:45:00 AM -100000 -179968 -100000 -100000 -100000 -100000
5/31/2022 8:00:00 AM -100000 -179968 -100000 -100000 -100000 -100000
5/31/2022 8:15:00 AM -100000 -179968 -100000 -100000 -100000 -100000
5/31/2022 8:30:00 AM -100000 -179968 -100000 -100000 -100000 -100000
5/31/2022 8:45:00 AM -100000 -179968 -100000 -100000 -100000 -100000
5/31/2022 9:00:00 AM -100000 -179968 -100000 -100000 -100000 -100000
5/31/2022 9:15:00 AM -100000 -179968 -100000 -100000 -100000 -100000
5/31/2022 9:30:00 AM -100000 -179968 -100000 -100000 -100000 -100000
5/31/2022 9:45:00 AM -100000 -179968 -100000 -100000 -100000 -100000
5/31/2022 10:00:00 AM -100000 -179968 -100000 -100000 -100000 -100000
5/31/2022 10:15:00 AM -100000 -179968 -100000 -100000 -100000 -100000
5/31/2022 10:30:00 AM -100000 -179968 -100000 -100000 -100000 -100000
5/31/2022 10:45:00 AM -100000 -179968 -100000 -100000 -100000 -100000
5/31/2022 11:00:00 AM -100000 -179968 -100000 -100000 -100000 -100000
5/31/2022 11:15:00 AM -100000 -179968 -100000 -100000 -100000 -100000
5/31/2022 11:30:00 AM -100000 -179968 -100000 -100000 -100000 -100000
5/31/2022 11:45:00 AM -100000 -179968 -100000 -100000 -100000 -100000
5/31/2022 12:00:00 PM -100000 -179968 -100000 -100000 -100000 -100000
5/31/2022 12:15:00 PM -100000 -179968 -100000 -100000 -100000 -100000
5/31/2022 12:30:00 PM -100000 -179968 -100000 -100000 -100000 -100000
5/31/2022 12:45:00 PM -100000 -179968 -100000 -100000 -100000 -100000
5/31/2022 1:00:00 PM -100000 -179968 -100000 -100000 -100000 -100000
5/31/2022 1:15:00 PM -100000 -179968 -100000 -100000 -100000 -100000
5/31/2022 1:30:00 PM -100000 -179968 -100000 -100000 -100000 -100000
5/31/2022 1:45:00 PM -100000 -179968 -100000 -100000 -100000 -100000
5/31/2022 2:00:00 PM -100000 -179968 -100000 -100000 -100000 -100000
5/31/2022 2:15:00 PM -100000 -179968 -100000 -100000 -100000 -100000
5/31/2022 2:30:00 PM -100000 -179968 -100000 -100000 -100000 -100000
5/31/2022 2:45:00 PM -100000 -179968 -100000 -100000 -100000 -100000
5/31/2022 3:00:00 PM -100000 -179968 -100000 -100000 -100000 -100000
5/31/2022 3:15:00 PM -100000 -179968 -100000 -100000 -100000 -100000
5/31/2022 3:30:00 PM -100000 -179968 -100000 -100000 -100000 -100000
5/31/2022 3:45:00 PM -100000 -179968 -100000 -100000 -100000 -100000
5/31/2022 4:00:00 PM -100000 -179968 -100000 -100000 -100000 -100000
5/31/2022 4:15:00 PM -100000 -179968 -100000 -100000 -100000 -100000
5/31/2022 4:30:00 PM -100000 -179968 -100000 -100000 -100000 -100000
5/31/2022 4:45:00 PM -100000 -179968 -100000 -100000 -100000 -100000
5/31/2022 5:00:00 PM -100000 -179968 -100000 -100000 -100000 -100000
5/31/2022 5:15:00 PM -100000 -179968 -100000 -100000 -100000 -100000
5/31/2022 5:30:00 PM -100000 -179968 -100000 -100000 -100000 -100000
5/31/2022 5:45:00 PM -100000 -179968 -100000 -100000 -100000 -100000
5/31/2022 6:00:00 PM -100000 -179968 -100000 -100000 -100000 -100000
5/31/2022 6:15:00 PM -100000 -179968 -100000 -100000 -100000 -100000
5/31/2022 6:30:00 PM -100000 -179968 -100000 -100000 -100000 -100000
5/31/2022 6:45:00 PM -100000 -179968 -100000 -100000 -100000 -100000
5/31/2022 7:00:00 PM -100000 -179968 -100000 -100000 -100000 -100000
5/31/2022 7:15:00 PM -100000 -179968 -100000 -100000 -100000 -100000
5/31/2022 7:30:00 PM -100000 -179968 -100000 -100000 -100000 -100000
5/31/2022 7:45:00 PM -100000 -179968 -100000 -100000 -100000 -100000
5/31/2022 8:00:00 PM -100000 -179968 -100000 -100000 -100000 -100000
5/31/2022 8:15:00 PM -100000 -179968 -100000 -100000 -100000 -100000
5/31/2022 8:30:00 PM -100000 -179968 -100000 -100000 -100000 -100000
5/31/2022 8:45:00 PM -100000 -179968 -100000 -100000 -100000 -100000
5/31/2022 9:00:00 PM -100000 -179968 -100000 -100000 -100000 -100000
5/31/2022 9:15:00 PM -100000 -179968 -100000 -100000 -100000 -100000
5/31/2022 9:30:00 PM -100000 -179968 -100000 -100000 -100000 -100000
5/31/2022 9:45:00 PM -100000 -179968 -100000 -100000 -100000 -100000
5/31/2022 10:00:00 PM -100000 -179968 -100000 -100000 -100000 -100000
5/31/2022 10:15:00 PM -100000 -179968 -100000 -100000 -100000 -100000
5/31/2022 10:30:00 PM -100000 -179968 -100000 -100000 -100000 -100000
5/31/2022 10:45:00 PM -100000 -179968 -100000 -100000 -100000 -100000
5/31/2022 11:00:00 PM -100000 -179968 -100000 -100000 -100000 -100000
5/31/2022 11:15:00 PM -100000 -179968 -100000 -100000 -100000 -100000
5/31/2022 11:30:00 PM -100000 -179968 -100000 -100000 -100000 -100000
5/31/2022 11:45:00 PM -100000 -179968 -100000 -100000 -100000 -100000
6/1/2022 12:00:00 AM -100000 -179968 -100000 -100000 -100000 -100000
6/1/2022 12:15:00 AM -100000 -179968 -100000 -100000 -100000 -100000
6/1/2022 12:30:00 AM -100000 -179968 -100000 -100000 -100000 -100000
6/1/2022 12:45:00 AM -100000 -179968 -100000 -100000 -100000 -100000
6/1/2022 1:00:00 AM -100000 -179968 -100000 -100000 -100000 -100000
6/1/2022 1:15:00 AM -100000 -179968 -100000 -100000 -100000 -100000
6/1/2022 1:30:00 AM -100000 -179968 -100000 -100000 -100000 -100000
6/1/2022 1:45:00 AM -100000 -179968 -100000 -100000 -100000 -100000
6/1/2022 2:00:00 AM -100000 -179968 -100000 -100000 -100000 -100000
6/1/2022 2:15:00 AM -100000 -179968 -100000 -100000 -100000 -100000
6/1/2022 2:30:00 AM -100000 -179968 -100000 -100000 -100000 -100000
6/1/2022 2:45:00 AM -100000 -179968 -100000 -100000 -100000 -100000
6/1/2022 3:00:00 AM -100000 -179968 -100000 -100000 -100000 -100000
6/1/2022 3:15:00 AM -100000 -179968 -100000 -100000 -100000 -100000
6/1/2022 3:30:00 AM -100000 -179968 -100000 -100000 -100000 -100000
6/1/2022 3:45:00 AM -100000 -179968 -100000 -100000 -100000 -100000
6/1/2022 4:00:00 AM -100000 -179968 -100000 -100000 -100000 -100000
6/1/2022 4:15:00 AM -100000 -179968 -100000 -100000 -100000 -100000
6/1/2022 4:30:00 AM -100000 -179968 -100000 -100000 -100000 -100000
6/1/2022 4:45:00 AM -100000 -179968 -100000 -100000 -100000 -100000
6/1/2022 5:00:00 AM -100000 -179968 -100000 -100000 -100000 -100000
6/1/2022 5:15:00 AM -100000 -179968 -100000 -100000 -100000 -100000
6/1/2022 5:30:00 AM -100000 -179968 -100000 -100000 -100000 -100000
6/1/2022 5:45:00 AM -100000 -179968 -100000 -100000 -100000 -100000
6/1/2022 6:00:00 AM -100000 -179968 -100000 -100000 -100000 -100000
6/1/2022 6:15:00 AM -100000 -179968 -100000 -100000 -100000 -100000
6/1/2022 6:30:00 AM -100000 -179968 -100000 -100000 -100000 -100000
6/1/2022 6:45:00 AM -100000 -179968 -100000 -100000 -100000 -100000
6/1/2022 7:00:00 AM -100000 -179968 -100000 -100000 -100000 -100000
6/1/2022 7:15:00 AM -100000 -179968 -100000 -100000 -100000 -100000
6/1/2022 7:30:00 AM -100000 -179968 -100000 -100000 -100000 -100000
6/1/2022 7:45:00 AM -100000 -179968 -100000 -100000 -100000 -100000
6/1/2022 8:00:00 AM -100000 -179968 -100000 -100000 -100000 -100000
6/1/2022 8:15:00 AM -100000 -179968 -100000 -100000 -100000 -100000
6/1/2022 8:30:00 AM -100000 -179968 -100000 -100000 -100000 -100000
6/1/2022 8:45:00 AM -100000 -179968 -100000 -100000 -100000 -100000
6/1/2022 9:00:00 AM -100000 -179968 -100000 -100000 -100000 -100000
6/1/2022 9:15:00 AM -100000 -179968 -100000 -100000 -100000 -100000
6/1/2022 9:30:00 AM -100000 -179968 -100000 -100000 -100000 -100000
6/1/2022 9:45:00 AM -100000 -179968 -100000 -100000 -100000 -100000
6/1/2022 10:00:00 AM -100000 -179968 -100000 -100000 -100000 -100000
6/1/2022 10:15:00 AM -100000 -179968 -100000 -100000 -100000 -100000
6/1/2022 10:30:00 AM -100000 -179968 -100000 -100000 -100000 -100000
6/1/2022 10:45:00 AM -100000 -179968 -100000 -100000 -100000 -100000
6/1/2022 11:00:00 AM -100000 -179968 -100000 -100000 -100000 -100000
6/1/2022 11:15:00 AM -100000 -179968 -100000 -100000 -100000 -100000
6/1/2022 11:30:00 AM -100000 -179968 -100000 -100000 -100000 -100000
6/1/2022 11:45:00 AM -100000 -179968 -100000 -100000 -100000 -100000
6/1/2022 12:00:00 PM -100000 -179968 -100000 -100000 -100000 -100000
6/1/2022 12:15:00 PM -100000 -179968 -100000 -100000 -100000 -100000
6/1/2022 12:30:00 PM -100000 -179968 -100000 -100000 -100000 -100000
6/1/2022 12:45:00 PM -100000 -179968 -100000 -100000 -100000 -100000
6/1/2022 1:00:00 PM -100000 -179968 -100000 -100000 -100000 -100000
6/1/2022 1:15:00 PM -100000 -179968 -100000 -100000 -100000 -100000
6/1/2022 1:30:00 PM -100000 -179968 -100000 -100000 -100000 -100000
6/1/2022 1:45:00 PM -100000 -179968 -100000 -100000 -100000 -100000
6/1/2022 2:00:00 PM -100000 -179968 -100000 -100000 -100000 -100000
6/1/2022 2:15:00 PM -100000 -179968 -100000 -100000 -100000 -100000
6/1/2022 2:30:00 PM -100000 -179968 -100000 -100000 -100000 -100000
6/1/2022 2:45:00 PM -100000 -179968 -100000 -100000 -100000 -100000
6/1/2022 3:00:00 PM -100000 -179968 -100000 -100000 -100000 -100000
6/1/2022 3:15:00 PM -100000 -179968 -100000 -100000 -100000 -100000
6/1/2022 3:30:00 PM -100000 -179968 -100000 -100000 -100000 -100000
6/1/2022 3:45:00 PM -100000 -179968 -100000 -100000 -100000 -100000
6/1/2022 4:00:00 PM -100000 -179968 -100000 -100000 -100000 -100000
6/1/2022 4:15:00 PM -100000 -179968 -100000 -100000 -100000 -100000
6/1/2022 4:30:00 PM -100000 -179968 -100000 -100000 -100000 -100000
6/1/2022 4:45:00 PM -100000 -179968 -100000 -100000 -100000 -100000
6/1/2022 5:00:00 PM -100000 -179968 -100000 -100000 -100000 -100000
6/1/2022 5:15:00 PM -100000 -179968 -100000 -100000 -100000 -100000
6/1/2022 5:30:00 PM -100000 -179968 -100000 -100000 -100000 -100000
6/1/2022 5:45:00 PM -100000 -179968 -100000 -100000 -100000 -100000
6/1/2022 6:00:00 PM -100000 -179968 -100000 -100000 -100000 -100000
6/1/2022 6:15:00 PM -100000 -179968 -100000 -100000 -100000 -100000
6/1/2022 6:30:00 PM -100000 -179968 -100000 -100000 -100000 -100000
6/1/2022 6:45:00 PM -100000 -179968 -100000 -100000 -100000 -100000
6/1/2022 7:00:00 PM -100000 -179968 -100000 -100000 -100000 -100000
6/1/2022 7:15:00 PM -100000 -179968 -100000 -100000 -100000 -100000
6/1/2022 7:30:00 PM -100000 -179968 -100000 -100000 -100000 -100000
6/1/2022 7:45:00 PM -100000 -179968 -100000 -100000 -100000 -100000
6/1/2022 8:00:00 PM -100000 -179968 -100000 -100000 -100000 -100000
6/1/2022 8:15:00 PM -100000 -179968 -100000 -100000 -100000 -100000
6/1/2022 8:30:00 PM -100000 -179968 -100000 -100000 -100000 -100000
6/1/2022 8:45:00 PM -100000 -179968 -100000 -100000 -100000 -100000
6/1/2022 9:00:00 PM -100000 -179968 -100000 -100000 -100000 -100000
6/1/2022 9:15:00 PM -100000 -179968 -100000 -100000 -100000 -100000
6/1/2022 9:30:00 PM -100000 -179968 -100000 -100000 -100000 -100000
6/1/2022 9:45:00 PM -100000 -179968 -100000 -100000 -100000 -100000
6/1/2022 10:00:00 PM -100000 -179968 -100000 -100000 -100000 -100000
6/1/2022 10:15:00 PM -100000 -179968 -100000 -100000 -100000 -100000
6/1/2022 10:30:00 PM -100000 -179968 -100000 -100000 -100000 -100000
6/1/2022 10:45:00 PM -100000 -179968 -100000 -100000 -100000 -100000
6/1/2022 11:00:00 PM -100000 -179968 -100000 -100000 -100000 -100000
6/1/2022 11:15:00 PM -100000 -179968 -100000 -100000 -100000 -100000
6/1/2022 11:30:00 PM -100000 -179968 -100000 -100000 -100000 -100000
6/1/2022 11:45:00 PM -100000 -179968 -100000 -100000 -100000 -100000
6/2/2022 12:00:00 AM -100000 -179968 -100000 -100000 -100000 -100000
6/2/2022 12:15:00 AM -100000 -179968 -100000 -100000 -100000 -100000
6/2/2022 12:30:00 AM -100000 -179968 -100000 -100000 -100000 -100000
6/2/2022 12:45:00 AM -100000 -179968 -100000 -100000 -100000 -100000
6/2/2022 1:00:00 AM -100000 -179968 -100000 -100000 -100000 -100000
6/2/2022 1:15:00 AM -100000 -179968 -100000 -100000 -100000 -100000
6/2/2022 1:30:00 AM -100000 -179968 -100000 -100000 -100000 -100000
6/2/2022 1:45:00 AM -100000 -179968 -100000 -100000 -100000 -100000
6/2/2022 2:00:00 AM -100000 -179968 -100000 -100000 -100000 -100000
6/2/2022 2:15:00 AM -100000 -179968 -100000 -100000 -100000 -100000
6/2/2022 2:30:00 AM -100000 -179968 -100000 -100000 -100000 -100000
6/2/2022 2:45:00 AM -100000 -179968 -100000 -100000 -100000 -100000
6/2/2022 3:00:00 AM -100000 -179968 -100000 -100000 -100000 -100000
6/2/2022 3:15:00 AM -100000 -179968 -100000 -100000 -100000 -100000
6/2/2022 3:30:00 AM -100000 -179968 -100000 -100000 -100000 -100000
6/2/2022 3:45:00 AM -100000 -179968 -100000 -100000 -100000 -100000
6/2/2022 4:00:00 AM -100000 -179968 -100000 -100000 -100000 -100000
6/2/2022 4:15:00 AM -100000 -179968 -100000 -100000 -100000 -100000
6/2/2022 4:30:00 AM -100000 -179968 -100000 -100000 -100000 -100000
6/2/2022 4:45:00 AM -100000 -179968 -100000 -100000 -100000 -100000
6/2/2022 5:00:00 AM -100000 -179968 -100000 -100000 -100000 -100000
6/2/2022 5:15:00 AM -100000 -179968 -100000 -100000 -100000 -100000
6/2/2022 5:30:00 AM -100000 -179968 -100000 -100000 -100000 -100000
6/2/2022 5:45:00 AM -100000 -179968 -100000 -100000 -100000 -100000
6/2/2022 6:00:00 AM -100000 -179968 -100000 -100000 -100000 -100000
6/2/2022 6:15:00 AM -100000 -179968 -100000 -100000 -100000 -100000
6/2/2022 6:30:00 AM -100000 -179968 -100000 -100000 -100000 -100000
6/2/2022 6:45:00 AM -100000 -179968 -100000 -100000 -100000 -100000
6/2/2022 7:00:00 AM -100000 -179968 -100000 -100000 -100000 -100000
6/2/2022 7:15:00 AM -100000 -179968 -100000 -100000 -100000 -100000
6/2/2022 7:30:00 AM -100000 -179968 -100000 -100000 -100000 -100000
6/2/2022 7:45:00 AM -100000 -179968 -100000 -100000 -100000 -100000
6/2/2022 8:00:00 AM -100000 -179968 -100000 -100000 -100000 -100000
6/2/2022 8:15:00 AM -100000 -179968 -100000 -100000 -100000 -100000
6/2/2022 8:30:00 AM -100000 -179968 -100000 -100000 -100000 -100000
6/2/2022 8:45:00 AM -100000 -179968 -100000 -100000 -100000 -100000
6/2/2022 9:00:00 AM -100000 -179968 -100000 -100000 -100000 -100000
6/2/2022 9:15:00 AM -100000 -179968 -100000 -100000 -100000 -100000
6/2/2022 9:30:00 AM -100000 -179968 -100000 -100000 -100000 -100000
6/2/2022 9:45:00 AM -100000 -179968 -100000 -100000 -100000 -100000
6/2/2022 10:00:00 AM -100000 -179968 -100000 -100000 -100000 -100000
6/2/2022 10:15:00 AM -100000 -179968 -100000 -100000 -100000 -100000
6/2/2022 10:30:00 AM -100000 -179968 -100000 -100000 -100000 -100000
6/2/2022 10:45:00 AM -100000 -179968 -100000 -100000 -100000 -100000
6/2/2022 11:00:00 AM -100000 -179968 -100000 -100000 -100000 -100000
6/2/2022 11:15:00 AM -100000 -179968 -100000 -100000 -100000 -100000
6/2/2022 11:30:00 AM -100000 -179968 -100000 -100000 -100000 -100000
6/2/2022 11:45:00 AM -100000 -179968 -100000 -100000 -100000 -100000
6/2/2022 12:00:00 PM -100000 -179968 -100000 -100000 -100000 -100000
6/2/2022 12:15:00 PM -100000 -179968 -100000 -100000 -100000 -100000
6/2/2022 12:30:00 PM -100000 -179968 -100000 -100000 -100000 -100000
6/2/2022 12:45:00 PM -100000 -179968 -100000 -100000 -100000 -100000
6/2/2022 1:00:00 PM -100000 -179968 -100000 -100000 -100000 -100000
6/2/2022 1:15:00 PM -100000 -179968 -100000 -100000 -100000 -100000
6/2/2022 1:30:00 PM -100000 -179968 -100000 -100000 -100000 -100000
6/2/2022 1:45:00 PM -100000 -179968 -100000 -100000 -100000 -100000
6/2/2022 2:00:00 PM -100000 -179968 -100000 -100000 -100000 -100000
6/2/2022 2:15:00 PM -100000 -179968 -100000 -100000 -100000 -100000
6/2/2022 2:30:00 PM -100000 -179968 -100000 -100000 -100000 -100000
6/2/2022 2:45:00 PM -100000 -179968 -100000 -100000 -100000 -100000
6/2/2022 3:00:00 PM -100000 -179968 -100000 -100000 -100000 -100000
6/2/2022 3:15:00 PM -100000 -179968 -100000 -100000 -100000 -100000
6/2/2022 3:30:00 PM -100000 -179968 -100000 -100000 -100000 -100000
6/2/2022 3:45:00 PM -100000 -179968 -100000 -100000 -100000 -100000
6/2/2022 4:00:00 PM -100000 -179968 -100000 -100000 -100000 -100000
6/2/2022 4:15:00 PM -100000 -179968 -100000 -100000 -100000 -100000
6/2/2022 4:30:00 PM -100000 -179968 -100000 -100000 -100000 -100000
6/2/2022 4:45:00 PM -100000 -179968 -100000 -100000 -100000 -100000
6/2/2022 5:00:00 PM -100000 -179968 -100000 -100000 -100000 -100000
6/2/2022 5:15:00 PM -100000 -179968 -100000 -100000 -100000 -100000
6/2/2022 5:30:00 PM -100000 -179968 -100000 -100000 -100000 -100000
6/2/2022 5:45:00 PM -100000 -179968 -100000 -100000 -100000 -100000
6/2/2022 6:00:00 PM -100000 -179968 -100000 -100000 -100000 -100000
6/2/2022 6:15:00 PM -100000 -179968 -100000 -100000 -100000 -100000
6/2/2022 6:30:00 PM -100000 -179968 -100000 -100000 -100000 -100000
6/2/2022 6:45:00 PM -100000 -179968 -100000 -100000 -100000 -100000
6/2/2022 7:00:00 PM -100000 -179968 -100000 -100000 -100000 -100000
6/2/2022 7:15:00 PM -100000 -179968 -100000 -100000 -100000 -100000
6/2/2022 7:30:00 PM -100000 -179968 -100000 -100000 -100000 -100000
6/2/2022 7:45:00 PM -100000 -179968 -100000 -100000 -100000 -100000
6/2/2022 8:00:00 PM -100000 -179968 -100000 -100000 -100000 -100000
6/2/2022 8:15:00 PM -100000 -179968 -100000 -100000 -100000 -100000
6/2/2022 8:30:00 PM -100000 -179968 -100000 -100000 -100000 -100000
6/2/2022 8:45:00 PM -100000 -179968 -100000 -100000 -100000 -100000
6/2/2022 9:00:00 PM -100000 -179968 -100000 -100000 -100000 -100000
6/2/2022 9:15:00 PM -100000 -179968 -100000 -100000 -100000 -100000
6/2/2022 9:30:00 PM -100000 -179968 -100000 -100000 -100000 -100000
6/2/2022 9:45:00 PM -100000 -179968 -100000 -100000 -100000 -100000
6/2/2022 10:00:00 PM -100000 -179968 -100000 -100000 -100000 -100000
6/2/2022 10:15:00 PM -100000 -179968 -100000 -100000 -100000 -100000
6/2/2022 10:30:00 PM -100000 -179968 -100000 -100000 -100000 -100000
6/2/2022 10:45:00 PM -100000 -179968 -100000 -100000 -100000 -100000
6/2/2022 11:00:00 PM -100000 -179968 -100000 -100000 -100000 -100000
6/2/2022 11:15:00 PM -100000 -179968 -100000 -100000 -100000 -100000
6/2/2022 11:30:00 PM -100000 -179968 -100000 -100000 -100000 -100000
6/2/2022 11:45:00 PM -100000 -179968 -100000 -100000 -100000 -100000
6/3/2022 12:00:00 AM -100000 -179968 -100000 -100000 -100000 -100000
6/3/2022 12:15:00 AM -100000 -179968 -100000 -100000 -100000 -100000
6/3/2022 12:30:00 AM -100000 -179968 -100000 -100000 -100000 -100000
6/3/2022 12:45:00 AM -100000 -179968 -100000 -100000 -100000 -100000
6/3/2022 1:00:00 AM -100000 -179968 -100000 -100000 -100000 -100000
6/3/2022 1:15:00 AM -100000 -179968 -100000 -100000 -100000 -100000
6/3/2022 1:30:00 AM -100000 -179968 -100000 -100000 -100000 -100000
6/3/2022 1:45:00 AM -100000 -179968 -100000 -100000 -100000 -100000
6/3/2022 2:00:00 AM -100000 -179968 -100000 -100000 -100000 -100000
6/3/2022 2:15:00 AM -100000 -179968 -100000 -100000 -100000 -100000
6/3/2022 2:30:00 AM -100000 -179968 -100000 -100000 -100000 -100000
6/3/2022 2:45:00 AM -100000 -179968 -100000 -100000 -100000 -100000
6/3/2022 3:00:00 AM -100000 -179968 -100000 -100000 -100000 -100000
6/3/2022 3:15:00 AM -100000 -179968 -100000 -100000 -100000 -100000
6/3/2022 3:30:00 AM -100000 -179968 -100000 -100000 -100000 -100000
6/3/2022 3:45:00 AM -100000 -179968 -100000 -100000 -100000 -100000
6/3/2022 4:00:00 AM -100000 -179968 -100000 -100000 -100000 -100000
6/3/2022 4:15:00 AM -100000 -179968 -100000 -100000 -100000 -100000
6/3/2022 4:30:00 AM -100000 -179968 -100000 -100000 -100000 -100000
6/3/2022 4:45:00 AM -100000 -179968 -100000 -100000 -100000 -100000
6/3/2022 5:00:00 AM -100000 -179968 -100000 -100000 -100000 -100000
6/3/2022 5:15:00 AM -100000 -179968 -100000 -100000 -100000 -100000
6/3/2022 5:30:00 AM -100000 -179968 -100000 -100000 -100000 -100000
6/3/2022 5:45:00 AM -100000 -179968 -100000 -100000 -100000 -100000
6/3/2022 6:00:00 AM -100000 -179968 -100000 -100000 -100000 -100000
6/3/2022 6:15:00 AM -100000 -179968 -100000 -100000 -100000 -100000
6/3/2022 6:30:00 AM -100000 -179968 -100000 -100000 -100000 -100000
6/3/2022 6:45:00 AM -100000 -179968 -100000 -100000 -100000 -100000
6/3/2022 7:00:00 AM -100000 -179968 -100000 -100000 -100000 -100000
6/3/2022 7:15:00 AM -100000 -179968 -100000 -100000 -100000 -100000
6/3/2022 7:30:00 AM -100000 -179968 -100000 -100000 -100000 -100000
6/3/2022 7:45:00 AM -100000 -179968 -100000 -100000 -100000 -100000
6/3/2022 8:00:00 AM -100000 -179968 -100000 -100000 -100000 -100000
6/3/2022 8:15:00 AM -100000 -179968 -100000 -100000 -100000 -100000
6/3/2022 8:30:00 AM -100000 -179968 -100000 -100000 -100000 -100000
6/3/2022 8:45:00 AM -100000 -179968 -100000 -100000 -100000 -100000
6/3/2022 9:00:00 AM -100000 -179968 -100000 -100000 -100000 -100000
6/3/2022 9:15:00 AM -100000 -179968 -100000 -100000 -100000 -100000
6/3/2022 9:30:00 AM -100000 -179968 -100000 -100000 -100000 -100000
6/3/2022 9:45:00 AM -100000 -179968 -100000 -100000 -100000 -100000
6/3/2022 10:00:00 AM -100000 -179968 -100000 -100000 -100000 -100000
6/3/2022 10:15:00 AM -100000 -179968 -100000 -100000 -100000 -100000
6/3/2022 10:30:00 AM -100000 -179968 -100000 -100000 -100000 -100000
6/3/2022 10:45:00 AM -100000 -179968 -100000 -100000 -100000 -100000
6/3/2022 11:00:00 AM -100000 -179968 -100000 -100000 -100000 -100000
6/3/2022 11:15:00 AM -100000 -179968 -100000 -100000 -100000 -100000
6/3/2022 11:30:00 AM -100000 -179968 -100000 -100000 -100000 -100000
6/3/2022 11:45:00 AM -100000 -179968 -100000 -100000 -100000 -100000
6/3/2022 12:00:00 PM -100000 -179968 -100000 -100000 -100000 -100000
6/3/2022 12:15:00 PM -100000 -179968 -100000 -100000 -100000 -100000
6/3/2022 12:30:00 PM -100000 -179968 -100000 -100000 -100000 -100000
6/3/2022 12:45:00 PM -100000 -179968 -100000 -100000 -100000 -100000
6/3/2022 1:00:00 PM -100000 -179968 -100000 -100000 -100000 -100000
6/3/2022 1:15:00 PM -100000 -179968 -100000 -100000 -100000 -100000
6/3/2022 1:30:00 PM -100000 -179968 -100000 -100000 -100000 -100000
6/3/2022 1:45:00 PM -100000 -179968 -100000 -100000 -100000 -100000
6/3/2022 2:00:00 PM -100000 -179968 -100000 -100000 -100000 -100000
6/3/2022 2:15:00 PM -100000 -179968 -100000 -100000 -100000 -100000
6/3/2022 2:30:00 PM -100000 -179968 -100000 -100000 -100000 -100000
6/3/2022 2:45:00 PM -100000 -179968 -100000 -100000 -100000 -100000
6/3/2022 3:00:00 PM -100000 -179968 -100000 -100000 -100000 -100000
6/3/2022 3:15:00 PM -100000 -179968 -100000 -100000 -100000 -100000
6/3/2022 3:30:00 PM -100000 -179968 -100000 -100000 -100000 -100000
6/3/2022 3:45:00 PM -100000 -179968 -100000 -100000 -100000 -100000
6/3/2022 4:00:00 PM -100000 -179968 -100000 -100000 -100000 -100000
6/3/2022 4:15:00 PM -100000 -179968 -100000 -100000 -100000 -100000
6/3/2022 4:30:00 PM -100000 -179968 -100000 -100000 -100000 -100000
6/3/2022 4:45:00 PM -100000 -179968 -100000 -100000 -100000 -100000
6/3/2022 5:00:00 PM -100000 -179968 -100000 -100000 -100000 -100000
6/3/2022 5:15:00 PM -100000 -179968 -100000 -100000 -100000 -100000
6/3/2022 5:30:00 PM -100000 -179968 -100000 -100000 -100000 -100000
6/3/2022 5:45:00 PM -100000 -179968 -100000 -100000 -100000 -100000
6/3/2022 6:00:00 PM -100000 -179968 -100000 -100000 -100000 -100000
6/3/2022 6:15:00 PM -100000 -179968 -100000 -100000 -100000 -100000
6/3/2022 6:30:00 PM -100000 -179968 -100000 -100000 -100000 -100000
6/3/2022 6:45:00 PM -100000 -179968 -100000 -100000 -100000 -100000
6/3/2022 7:00:00 PM -100000 -179968 -100000 -100000 -100000 -100000
6/3/2022 7:15:00 PM -100000 -179968 -100000 -100000 -100000 -100000
6/3/2022 7:30:00 PM -100000 -179968 -100000 -100000 -100000 -100000
6/3/2022 7:45:00 PM -100000 -179968 -100000 -100000 -100000 -100000
6/3/2022 8:00:00 PM -100000 -179968 -100000 -100000 -100000 -100000
6/3/2022 8:15:00 PM -100000 -179968 -100000 -100000 -100000 -100000
6/3/2022 8:30:00 PM -100000 -179968 -100000 -100000 -100000 -100000
6/3/2022 8:45:00 PM -100000 -179968 -100000 -100000 -100000 -100000
6/3/2022 9:00:00 PM -100000 -179968 -100000 -100000 -100000 -100000
6/3/2022 9:15:00 PM -100000 -179968 -100000 -100000 -100000 -100000
6/3/2022 9:30:00 PM -100000 -179968 -100000 -100000 -100000 -100000
6/3/2022 9:45:00 PM -100000 -179968 -100000 -100000 -100000 -100000
6/3/2022 10:00:00 PM -100000 -179968 -100000 -100000 -100000 -100000
6/3/2022 10:15:00 PM -100000 -179968 -100000 -100000 -100000 -100000
6/3/2022 10:30:00 PM -100000 -179968 -100000 -100000 -100000 -100000
6/3/2022 10:45:00 PM -100000 -179968 -100000 -100000 -100000 -100000
6/3/2022 11:00:00 PM -100000 -179968 -100000 -100000 -100000 -100000
6/3/2022 11:15:00 PM -100000 -179968 -100000 -100000 -100000 -100000
6/3/2022 11:30:00 PM -100000 -179968 -100000 -100000 -100000 -100000
6/3/2022 11:45:00 PM -100000 -179968 -100000 -100000 -100000 -100000
6/4/2022 12:00:00 AM -100000 -179968 -100000 -100000 -100000 -100000
6/4/2022 12:15:00 AM -100000 -179968 -100000 -100000 -100000 -100000
6/4/2022 12:30:00 AM -100000 -179968 -100000 -100000 -100000 -100000
6/4/2022 12:45:00 AM -100000 -179968 -100000 -100000 -100000 -100000
6/4/2022 1:00:00 AM -100000 -179968 -100000 -100000 -100000 -100000
6/4/2022 1:15:00 AM -100000 -179968 -100000 -100000 -100000 -100000
6/4/2022 1:30:00 AM -100000 -179968 -100000 -100000 -100000 -100000
6/4/2022 1:45:00 AM -100000 -179968 -100000 -100000 -100000 -100000
6/4/2022 2:00:00 AM -100000 -179968 -100000 -100000 -100000 -100000
6/4/2022 2:15:00 AM -100000 -179968 -100000 -100000 -100000 -100000
6/4/2022 2:30:00 AM -100000 -179968 -100000 -100000 -100000 -100000
6/4/2022 2:45:00 AM -100000 -179968 -100000 -100000 -100000 -100000
6/4/2022 3:00:00 AM -100000 -179968 -100000 -100000 -100000 -100000
6/4/2022 3:15:00 AM -100000 -179968 -100000 -100000 -100000 -100000
6/4/2022 3:30:00 AM -100000 -179968 -100000 -100000 -100000 -100000
6/4/2022 3:45:00 AM -100000 -179968 -100000 -100000 -100000 -100000
6/4/2022 4:00:00 AM -100000 -179968 -100000 -100000 -100000 -100000
6/4/2022 4:15:00 AM -100000 -179968 -100000 -100000 -100000 -100000
6/4/2022 4:30:00 AM -100000 -179968 -100000 -100000 -100000 -100000
6/4/2022 4:45:00 AM -100000 -179968 -100000 -100000 -100000 -100000
6/4/2022 5:00:00 AM -100000 -179968 -100000 -100000 -100000 -100000
6/4/2022 5:15:00 AM -100000 -179968 -100000 -100000 -100000 -100000
6/4/2022 5:30:00 AM -100000 -179968 -100000 -100000 -100000 -100000
6/4/2022 5:45:00 AM -100000 -179968 -100000 -100000 -100000 -100000
6/4/2022 6:00:00 AM -100000 -179968 -100000 -100000 -100000 -100000
6/4/2022 6:15:00 AM -100000 -179968 -100000 -100000 -100000 -100000
6/4/2022 6:30:00 AM -100000 -179968 -100000 -100000 -100000 -100000
6/4/2022 6:45:00 AM -100000 -179968 -100000 -100000 -100000 -100000
6/4/2022 7:00:00 AM -100000 -179968 -100000 -100000 -100000 -100000
6/4/2022 7:15:00 AM -100000 -179968 -100000 -100000 -100000 -100000
6/4/2022 7:30:00 AM -100000 -179968 -100000 -100000 -100000 -100000
6/4/2022 7:45:00 AM -100000 -179968 -100000 -100000 -100000 -100000
6/4/2022 8:00:00 AM -100000 -179968 -100000 -100000 -100000 -100000
6/4/2022 8:15:00 AM -100000 -179968 -100000 -100000 -100000 -100000
6/4/2022 8:30:00 AM -100000 -179968 -100000 -100000 -100000 -100000
6/4/2022 8:45:00 AM -100000 -179968 -100000 -100000 -100000 -100000
6/4/2022 9:00:00 AM -100000 -179968 -100000 -100000 -100000 -100000
6/4/2022 9:15:00 AM -100000 -179968 -100000 -100000 -100000 -100000
6/4/2022 9:30:00 AM -100000 -179968 -100000 -100000 -100000 -100000
6/4/2022 9:45:00 AM -100000 -179968 -100000 -100000 -100000 -100000
6/4/2022 10:00:00 AM -100000 -179968 -100000 -100000 -100000 -100000
6/4/2022 10:15:00 AM -100000 -179968 -100000 -100000 -100000 -100000
6/4/2022 10:30:00 AM -100000 -179968 -100000 -100000 -100000 -100000
6/4/2022 10:45:00 AM -100000 -179968 -100000 -100000 -100000 -100000
6/4/2022 11:00:00 AM -100000 -179968 -100000 -100000 -100000 -100000
6/4/2022 11:15:00 AM -100000 -179968 -100000 -100000 -100000 -100000
6/4/2022 11:30:00 AM -100000 -179968 -100000 -100000 -100000 -100000
6/4/2022 11:45:00 AM -100000 -179968 -100000 -100000 -100000 -100000
6/4/2022 12:00:00 PM -100000 -179968 -100000 -100000 -100000 -100000
6/4/2022 12:15:00 PM -100000 -179968 -100000 -100000 -100000 -100000
6/4/2022 12:30:00 PM -100000 -179968 -100000 -100000 -100000 -100000
6/4/2022 12:45:00 PM -100000 -179968 -100000 -100000 -100000 -100000
6/4/2022 1:00:00 PM -100000 -179968 -100000 -100000 -100000 -100000
6/4/2022 1:15:00 PM -100000 -179968 -100000 -100000 -100000 -100000
6/4/2022 1:30:00 PM -100000 -179968 -100000 -100000 -100000 -100000
6/4/2022 1:45:00 PM -100000 -179968 -100000 -100000 -100000 -100000
6/4/2022 2:00:00 PM -100000 -179968 -100000 -100000 -100000 -100000
6/4/2022 2:15:00 PM -100000 -179968 -100000 -100000 -100000 -100000
6/4/2022 2:30:00 PM -100000 -179968 -100000 -100000 -100000 -100000
6/4/2022 2:45:00 PM -100000 -179968 -100000 -100000 -100000 -100000
6/4/2022 3:00:00 PM -100000 -179968 -100000 -100000 -100000 -100000
6/4/2022 3:15:00 PM -100000 -179968 -100000 -100000 -100000 -100000
6/4/2022 3:30:00 PM -100000 -179968 -100000 -100000 -100000 -100000
6/4/2022 3:45:00 PM -100000 -179968 -100000 -100000 -100000 -100000
6/4/2022 4:00:00 PM -100000 -179968 -100000 -100000 -100000 -100000
6/4/2022 4:15:00 PM -100000 -179968 -100000 -100000 -100000 -100000
6/4/2022 4:30:00 PM -100000 -179968 -100000 -100000 -100000 -100000
6/4/2022 4:45:00 PM -100000 -179968 -100000 -100000 -100000 -100000
6/4/2022 5:00:00 PM -100000 -179968 -100000 -100000 -100000 -100000
6/4/2022 5:15:00 PM -100000 -179968 -100000 -100000 -100000 -100000
6/4/2022 5:30:00 PM -100000 -179968 -100000 -100000 -100000 -100000
6/4/2022 5:45:00 PM -100000 -179968 -100000 -100000 -100000 -100000
6/4/2022 6:00:00 PM -100000 -179968 -100000 -100000 -100000 -100000
6/4/2022 6:15:00 PM -100000 -179968 -100000 -100000 -100000 -100000
6/4/2022 6:30:00 PM -100000 -179968 -100000 -100000 -100000 -100000
6/4/2022 6:45:00 PM -100000 -179968 -100000 -100000 -100000 -100000
6/4/2022 7:00:00 PM -100000 -179968 -100000 -100000 -100000 -100000
6/4/2022 7:15:00 PM -100000 -179968 -100000 -100000 -100000 -100000
6/4/2022 7:30:00 PM -100000 -179968 -100000 -100000 -100000 -100000
6/4/2022 7:45:00 PM -100000 -179968 -100000 -100000 -100000 -100000
6/4/2022 8:00:00 PM -100000 -179968 -100000 -100000 -100000 -100000
6/4/2022 8:15:00 PM -200000 -359968 -200000 -200000 -100000 -100000
6/4/2022 8:30:00 PM -100000 -179968 -100000 -100000 -100000 -100000
6/4/2022 8:45:00 PM -100000 -179968 -100000 -100000 -100000 -100000
6/4/2022 9:00:00 PM -100000 -179968 -100000 -100000 -100000 -100000
6/4/2022 9:15:00 PM -100000 -179968 -100000 -100000 -100000 -100000
6/4/2022 9:30:00 PM -100000 -179968 -100000 -100000 -100000 -100000
6/4/2022 9:45:00 PM -100000 -179968 -100000 -100000 -100000 -100000
6/4/2022 10:00:00 PM -100000 -179968 -100000 -100000 -100000 -100000
6/4/2022 10:15:00 PM -100000 -179968 -100000 -100000 -100000 -100000
6/4/2022 10:30:00 PM -100000 -179968 -100000 -100000 -100000 -100000
6/4/2022 10:45:00 PM -100000 -179968 -100000 -100000 -100000 -100000
6/4/2022 11:00:00 PM -100000 -179968 -100000 -100000 -100000 -100000
6/4/2022 11:15:00 PM -100000 -179968 -100000 -100000 -100000 -100000
6/4/2022 11:30:00 PM -100000 -179968 -100000 -100000 -100000 -100000
6/4/2022 11:45:00 PM -100000 -179968 -100000 -100000 -100000 -100000
6/5/2022 12:00:00 AM -100000 -179968 -100000 -100000 -100000 -100000
6/5/2022 12:15:00 AM -100000 -179968 -100000 -100000 -100000 -100000
6/5/2022 12:30:00 AM -100000 -179968 -100000 -100000 -100000 -100000
6/5/2022 12:45:00 AM -100000 -179968 -100000 -100000 -100000 -100000
6/5/2022 1:00:00 AM -100000 -179968 -100000 -100000 -100000 -100000
6/5/2022 1:15:00 AM -100000 -179968 -100000 -100000 -100000 -100000
6/5/2022 1:30:00 AM -100000 -179968 -100000 -100000 -100000 -100000
6/5/2022 1:45:00 AM -100000 -179968 -100000 -100000 -100000 -100000
6/5/2022 2:00:00 AM -100000 -179968 -100000 -100000 -100000 -100000
6/5/2022 2:15:00 AM -100000 -179968 -100000 -100000 -100000 -100000
6/5/2022 2:30:00 AM -100000 -179968 -100000 -100000 -100000 -100000
6/5/2022 2:45:00 AM -100000 -179968 -100000 -100000 -100000 -100000
6/5/2022 3:00:00 AM -100000 -179968 -100000 -100000 -100000 -100000
6/5/2022 3:15:00 AM -100000 -179968 -100000 -100000 -100000 -100000
6/5/2022 3:30:00 AM -100000 -179968 -100000 -100000 -100000 -100000
6/5/2022 3:45:00 AM -100000 -179968 -100000 -100000 -100000 -100000
6/5/2022 4:00:00 AM -100000 -179968 -100000 -100000 -100000 -100000
6/5/2022 4:15:00 AM -100000 -179968 -100000 -100000 -100000 -100000
6/5/2022 4:30:00 AM -100000 -179968 -100000 -100000 -100000 -100000
6/5/2022 4:45:00 AM -100000 -179968 -100000 -100000 -100000 -100000
6/5/2022 5:00:00 AM -100000 -179968 -100000 -100000 -100000 -100000
6/5/2022 5:15:00 AM -100000 -179968 -100000 -100000 -100000 -100000
6/5/2022 5:30:00 AM -100000 -179968 -100000 -100000 -100000 -100000
6/5/2022 5:45:00 AM -100000 -179968 -100000 -100000 -100000 -100000
6/5/2022 6:00:00 AM -100000 -179968 -100000 -100000 -100000 -100000
6/5/2022 6:15:00 AM -100000 -179968 -100000 -100000 -100000 -100000
6/5/2022 6:30:00 AM -100000 -179968 -100000 -100000 -100000 -100000
6/5/2022 6:45:00 AM -100000 -179968 -100000 -100000 -100000 -100000
6/5/2022 7:00:00 AM -100000 -179968 -100000 -100000 -100000 -100000
6/5/2022 7:15:00 AM -100000 -179968 -100000 -100000 -100000 -100000
6/5/2022 7:30:00 AM -100000 -179968 -100000 -100000 -100000 -100000
6/5/2022 7:45:00 AM -100000 -179968 -100000 -100000 -100000 -100000
6/5/2022 8:00:00 AM -100000 -179968 -100000 -100000 -100000 -100000
6/5/2022 8:15:00 AM -100000 -179968 -100000 -100000 -100000 -100000
6/5/2022 8:30:00 AM -100000 -179968 -100000 -100000 -100000 -100000
6/5/2022 8:45:00 AM -100000 -179968 -100000 -100000 -100000 -100000
6/5/2022 9:00:00 AM -100000 -179968 -100000 -100000 -100000 -100000
6/5/2022 9:15:00 AM -100000 -179968 -100000 -100000 -100000 -100000
6/5/2022 9:30:00 AM -100000 -179968 -100000 -100000 -100000 -100000
6/5/2022 9:45:00 AM -100000 -179968 -100000 -100000 -100000 -100000
6/5/2022 10:00:00 AM -100000 -179968 -100000 -100000 -100000 -100000
6/5/2022 10:15:00 AM -100000 -179968 -100000 -100000 -100000 -100000
6/5/2022 10:30:00 AM -100000 -179968 -100000 -100000 -100000 -100000
6/5/2022 10:45:00 AM -100000 -179968 -100000 -100000 -100000 -100000
6/5/2022 11:00:00 AM -100000 -179968 -100000 -100000 -100000 -100000
6/5/2022 11:15:00 AM -100000 -179968 -100000 -100000 -100000 -100000
6/5/2022 11:30:00 AM -100000 -179968 -100000 -100000 -100000 -100000
6/5/2022 11:45:00 AM -100000 -179968 -100000 -100000 -100000 -100000
6/5/2022 12:00:00 PM -100000 -179968 -100000 -100000 -100000 -100000
6/5/2022 12:15:00 PM -100000 -179968 -100000 -100000 -100000 -100000
6/5/2022 12:30:00 PM -100000 -179968 -100000 -100000 -100000 -100000
6/5/2022 12:45:00 PM -100000 -179968 -100000 -100000 -100000 -100000
6/5/2022 1:00:00 PM -100000 -179968 -100000 -100000 -100000 -100000
6/5/2022 1:15:00 PM -100000 -179968 -100000 -100000 -100000 -100000
6/5/2022 1:30:00 PM -100000 -179968 -100000 -100000 -100000 -100000
6/5/2022 1:45:00 PM -100000 -179968 -100000 -100000 -100000 -100000
6/5/2022 2:00:00 PM -100000 -179968 -100000 -100000 -100000 -100000
6/5/2022 2:15:00 PM -100000 -179968 -100000 -100000 -100000 -100000
6/5/2022 2:30:00 PM -100000 -179968 -100000 -100000 -100000 -100000
6/5/2022 2:45:00 PM -100000 -179968 -100000 -100000 -100000 -100000
6/5/2022 3:00:00 PM -100000 -179968 -100000 -100000 -100000 -100000
6/5/2022 3:15:00 PM -100000 -179968 -100000 -100000 -100000 -100000
6/5/2022 3:30:00 PM -100000 -179968 -100000 -100000 -100000 -100000
6/5/2022 3:45:00 PM -100000 -179968 -100000 -100000 -100000 -100000
6/5/2022 4:00:00 PM -100000 -179968 -100000 -100000 -100000 -100000
6/5/2022 4:15:00 PM -100000 -179968 -100000 -100000 -100000 -100000
6/5/2022 4:30:00 PM -100000 -179968 -100000 -100000 -100000 -100000
6/5/2022 4:45:00 PM -100000 -179968 -100000 -100000 -100000 -100000
6/5/2022 5:00:00 PM -100000 -179968 -100000 -100000 -100000 -100000
6/5/2022 5:15:00 PM -100000 -179968 -100000 -100000 -100000 -100000
6/5/2022 5:30:00 PM -100000 -179968 -100000 -100000 -100000 -100000
6/5/2022 5:45:00 PM -100000 -179968 -100000 -100000 -100000 -100000
6/5/2022 6:00:00 PM -100000 -179968 -100000 -100000 -100000 -100000
6/5/2022 6:15:00 PM -100000 -179968 -100000 -100000 -100000 -100000
6/5/2022 6:30:00 PM -100000 -179968 -100000 -100000 -100000 -100000
6/5/2022 6:45:00 PM -100000 -179968 -100000 -100000 -100000 -100000
6/5/2022 7:00:00 PM -100000 -179968 -100000 -100000 -100000 -100000
6/5/2022 7:15:00 PM -100000 -179968 -100000 -100000 -100000 -100000
6/5/2022 7:30:00 PM -100000 -179968 -100000 -100000 -100000 -100000
6/5/2022 7:45:00 PM -100000 -179968 -100000 -100000 -100000 -100000
6/5/2022 8:00:00 PM -100000 -179968 -100000 -100000 -100000 -100000
6/5/2022 8:15:00 PM -100000 -179968 -100000 -100000 -100000 -100000
6/5/2022 8:30:00 PM -100000 -179968 -100000 -100000 -100000 -100000
6/5/2022 8:45:00 PM -100000 -179968 -100000 -100000 -100000 -100000
6/5/2022 9:00:00 PM -100000 -179968 -100000 -100000 -100000 -100000
6/5/2022 9:15:00 PM -100000 -179968 -100000 -100000 -100000 -100000
6/5/2022 9:30:00 PM -100000 -179968 -100000 -100000 -100000 -100000
6/5/2022 9:45:00 PM -100000 -179968 -100000 -100000 -100000 -100000
6/5/2022 10:00:00 PM -100000 -179968 -100000 -100000 -100000 -100000
6/5/2022 10:15:00 PM -100000 -179968 -100000 -100000 -100000 -100000
6/5/2022 10:30:00 PM -100000 -179968 -100000 -100000 -100000 -100000
6/5/2022 10:45:00 PM -100000 -179968 -100000 -100000 -100000 -100000
6/5/2022 11:00:00 PM -100000 -179968 -100000 -100000 -100000 -100000
6/5/2022 11:15:00 PM -100000 -179968 -100000 -100000 -100000 -100000
6/5/2022 11:30:00 PM -100000 -179968 -100000 -100000 -100000 -100000
6/5/2022 11:45:00 PM -100000 -179968 -100000 -100000 -100000 -100000
6/6/2022 12:00:00 AM -100000 -179968 -100000 -100000 -100000 -100000
6/6/2022 12:15:00 AM -100000 -179968 -100000 -100000 -100000 -100000
6/6/2022 12:30:00 AM -100000 -179968 -100000 -100000 -100000 -100000
6/6/2022 12:45:00 AM -100000 -179968 -100000 -100000 -100000 -100000
6/6/2022 1:00:00 AM -100000 -179968 -100000 -100000 -100000 -100000
6/6/2022 1:15:00 AM -100000 -179968 -100000 -100000 -100000 -100000
6/6/2022 1:30:00 AM -100000 -179968 -100000 -100000 -100000 -100000
6/6/2022 1:45:00 AM -100000 -179968 -100000 -100000 -100000 -100000
6/6/2022 2:00:00 AM -100000 -179968 -100000 -100000 -100000 -100000
6/6/2022 2:15:00 AM -100000 -179968 -100000 -100000 -100000 -100000
6/6/2022 2:30:00 AM -100000 -179968 -100000 -100000 -100000 -100000
6/6/2022 2:45:00 AM -100000 -179968 -100000 -100000 -100000 -100000
6/6/2022 3:00:00 AM -100000 -179968 -100000 -100000 -100000 -100000
6/6/2022 3:15:00 AM -100000 -179968 -100000 -100000 -100000 -100000
6/6/2022 3:30:00 AM -100000 -179968 -100000 -100000 -100000 -100000
6/6/2022 3:45:00 AM -100000 -179968 -100000 -100000 -100000 -100000
6/6/2022 4:00:00 AM -100000 -179968 -100000 -100000 -100000 -100000
6/6/2022 4:15:00 AM -100000 -179968 -100000 -100000 -100000 -100000
6/6/2022 4:30:00 AM -100000 -179968 -100000 -100000 -100000 -100000
6/6/2022 4:45:00 AM -100000 -179968 -100000 -100000 -100000 -100000
6/6/2022 5:00:00 AM -100000 -179968 -100000 -100000 -100000 -100000
6/6/2022 5:15:00 AM -100000 -179968 -100000 -100000 -100000 -100000
6/6/2022 5:30:00 AM -100000 -179968 -100000 -100000 -100000 -100000
6/6/2022 5:45:00 AM -100000 -179968 -100000 -100000 -100000 -100000
6/6/2022 6:00:00 AM -100000 -179968 -100000 -100000 -100000 -100000
6/6/2022 6:15:00 AM -100000 -179968 -100000 -100000 -100000 -100000
6/6/2022 6:30:00 AM -100000 -179968 -100000 -100000 -100000 -100000
6/6/2022 6:45:00 AM -100000 -179968 -100000 -100000 -100000 -100000
6/6/2022 7:00:00 AM -100000 -179968 -100000 -100000 -100000 -100000
6/6/2022 7:15:00 AM -100000 -179968 -100000 -100000 -100000 -100000
6/6/2022 7:30:00 AM -100000 -179968 -100000 -100000 -100000 -100000
6/6/2022 7:45:00 AM -100000 -179968 -100000 -100000 -100000 -100000
6/6/2022 8:00:00 AM -100000 -179968 -100000 -100000 -100000 -100000
6/6/2022 8:15:00 AM -100000 -179968 -100000 -100000 -100000 -100000
6/6/2022 8:30:00 AM -100000 -179968 -100000 -100000 -100000 -100000
6/6/2022 8:45:00 AM -100000 -179968 -100000 -100000 -100000 -100000
6/6/2022 9:00:00 AM -100000 -179968 -100000 -100000 -100000 -100000
6/6/2022 9:15:00 AM -100000 -179968 -100000 -100000 -100000 -100000
6/6/2022 9:30:00 AM -100000 -179968 -100000 -100000 -100000 -100000
6/6/2022 9:45:00 AM -100000 -179968 -100000 -100000 -100000 -100000
6/6/2022 10:00:00 AM -100000 -179968 -100000 -100000 -100000 -100000
6/6/2022 10:15:00 AM -100000 -179968 -100000 -100000 -100000 -100000
6/6/2022 10:30:00 AM -100000 -179968 -100000 -100000 -100000 -100000
6/6/2022 10:45:00 AM -100000 -179968 -100000 -100000 -100000 -100000
6/6/2022 11:00:00 AM -100000 -179968 -100000 -100000 -100000 -100000
6/6/2022 11:15:00 AM -100000 -179968 -100000 -100000 -100000 -100000
6/6/2022 11:30:00 AM -100000 -179968 -100000 -100000 -100000 -100000
6/6/2022 11:45:00 AM -100000 -179968 -100000 -100000 -100000 -100000
6/6/2022 12:00:00 PM -100000 -179968 -100000 -100000 -100000 -100000
6/6/2022 12:15:00 PM -100000 -179968 -100000 -100000 -100000 -100000
6/6/2022 12:30:00 PM -100000 -179968 -100000 -100000 -100000 -100000
6/6/2022 12:45:00 PM -100000 -179968 -100000 -100000 -100000 -100000
6/6/2022 1:00:00 PM -100000 -179968 -100000 -100000 -100000 -100000
6/6/2022 1:15:00 PM -100000 -179968 -100000 -100000 -100000 -100000
6/6/2022 1:30:00 PM -100000 -179968 -100000 -100000 -100000 -100000
6/6/2022 1:45:00 PM -100000 -179968 -100000 -100000 -100000 -100000
6/6/2022 2:00:00 PM -100000 -179968 -100000 -100000 -100000 -100000
6/6/2022 2:15:00 PM -100000 -179968 -100000 -100000 -100000 -100000
6/6/2022 2:30:00 PM -100000 -179968 -100000 -100000 -100000 -100000
6/6/2022 2:45:00 PM -100000 -179968 -100000 -100000 -100000 -100000
6/6/2022 3:00:00 PM -100000 -179968 -100000 -100000 -100000 -100000
6/6/2022 3:15:00 PM -100000 -179968 -100000 -100000 -100000 -100000
6/6/2022 3:30:00 PM -100000 -179968 -100000 -100000 -100000 -100000
6/6/2022 3:45:00 PM -100000 -179968 -100000 -100000 -100000 -100000
6/6/2022 4:00:00 PM -100000 -179968 -100000 -100000 -100000 -100000
6/6/2022 4:15:00 PM -100000 -179968 -100000 -100000 -100000 -100000
6/6/2022 4:30:00 PM -100000 -179968 -100000 -100000 -100000 -100000
6/6/2022 4:45:00 PM -100000 -179968 -100000 -100000 -100000 -100000
6/6/2022 5:00:00 PM -100000 -179968 -100000 -100000 -100000 -100000
6/6/2022 5:15:00 PM -100000 -179968 -100000 -100000 -100000 -100000
6/6/2022 5:30:00 PM -100000 -179968 -100000 -100000 -100000 -100000
6/6/2022 5:45:00 PM -100000 -179968 -100000 -100000 -100000 -100000
6/6/2022 6:00:00 PM -100000 -179968 -100000 -100000 -100000 -100000
6/6/2022 6:15:00 PM -100000 -179968 -100000 -100000 -100000 -100000
6/6/2022 6:30:00 PM -100000 -179968 -100000 -100000 -100000 -100000
6/6/2022 6:45:00 PM -100000 -179968 -100000 -100000 -100000 -100000
6/6/2022 7:00:00 PM -100000 -179968 -100000 -100000 -100000 -100000
6/6/2022 7:15:00 PM -100000 -179968 -100000 -100000 -100000 -100000
6/6/2022 7:30:00 PM -100000 -179968 -100000 -100000 -100000 -100000
6/6/2022 7:45:00 PM -100000 -179968 -100000 -100000 -100000 -100000
6/6/2022 8:00:00 PM -100000 -179968 -100000 -100000 -100000 -100000
6/6/2022 8:15:00 PM -100000 -179968 -100000 -100000 -100000 -100000
6/6/2022 8:30:00 PM -100000 -179968 -100000 -100000 -100000 -100000
6/6/2022 8:45:00 PM -100000 -179968 -100000 -100000 -100000 -100000
6/6/2022 9:00:00 PM -100000 -179968 -100000 -100000 -100000 -100000
6/6/2022 9:15:00 PM -100000 -179968 -100000 -100000 -100000 -100000
6/6/2022 9:30:00 PM -100000 -179968 -100000 -100000 -100000 -100000
6/6/2022 9:45:00 PM -100000 -179968 -100000 -100000 -100000 -100000
6/6/2022 10:00:00 PM -100000 -179968 -100000 -100000 -100000 -100000
6/6/2022 10:15:00 PM -100000 -179968 -100000 -100000 -100000 -100000
6/6/2022 10:30:00 PM -100000 -179968 -100000 -100000 -100000 -100000
6/6/2022 10:45:00 PM -100000 -179968 -100000 -100000 -100000 -100000
6/6/2022 11:00:00 PM -100000 -179968 -100000 -100000 -100000 -100000
6/6/2022 11:15:00 PM -100000 -179968 -100000 -100000 -100000 -100000
6/6/2022 11:30:00 PM -100000 -179968 -100000 -100000 -100000 -100000
6/6/2022 11:45:00 PM -100000 -179968 -100000 -100000 -100000 -100000
6/7/2022 12:00:00 AM -100000 -179968 -100000 -100000 -100000 -100000
6/7/2022 12:15:00 AM -100000 -179968 -100000 -100000 -100000 -100000
6/7/2022 12:30:00 AM -100000 -179968 -100000 -100000 -100000 -100000
6/7/2022 12:45:00 AM -100000 -179968 -100000 -100000 -100000 -100000
6/7/2022 1:00:00 AM -100000 -179968 -100000 -100000 -100000 -100000
6/7/2022 1:15:00 AM -100000 -179968 -100000 -100000 -100000 -100000
6/7/2022 1:30:00 AM -100000 -179968 -100000 -100000 -100000 -100000
6/7/2022 1:45:00 AM -100000 -179968 -100000 -100000 -100000 -100000
6/7/2022 2:00:00 AM -100000 -179968 -100000 -100000 -100000 -100000
6/7/2022 2:15:00 AM -100000 -179968 -100000 -100000 -100000 -100000
6/7/2022 2:30:00 AM -100000 -179968 -100000 -100000 -100000 -100000
6/7/2022 2:45:00 AM -100000 -179968 -100000 -100000 -100000 -100000
6/7/2022 3:00:00 AM -100000 -179968 -100000 -100000 -100000 -100000
6/7/2022 3:15:00 AM -100000 -179968 -100000 -100000 -100000 -100000
6/7/2022 3:30:00 AM -100000 -179968 -100000 -100000 -100000 -100000
6/7/2022 3:45:00 AM -100000 -179968 -100000 -100000 -100000 -100000
6/7/2022 4:00:00 AM -100000 -179968 -100000 -100000 -100000 -100000
6/7/2022 4:15:00 AM -100000 -179968 -100000 -100000 -100000 -100000
6/7/2022 4:30:00 AM -100000 -179968 -100000 -100000 -100000 -100000
6/7/2022 4:45:00 AM -100000 -179968 -100000 -100000 -100000 -100000
6/7/2022 5:00:00 AM -100000 -179968 -100000 -100000 -100000 -100000
6/7/2022 5:15:00 AM -100000 -179968 -100000 -100000 -100000 -100000
6/7/2022 5:30:00 AM -100000 -179968 -100000 -100000 -100000 -100000
6/7/2022 5:45:00 AM -100000 -179968 -100000 -100000 -100000 -100000
6/7/2022 6:00:00 AM -100000 -179968 -100000 -100000 -100000 -100000
6/7/2022 6:15:00 AM -100000 -179968 -100000 -100000 -100000 -100000
6/7/2022 6:30:00 AM -100000 -179968 -100000 -100000 -100000 -100000
6/7/2022 6:45:00 AM -100000 -179968 -100000 -100000 -100000 -100000
6/7/2022 7:00:00 AM -100000 -179968 -100000 -100000 -100000 -100000
6/7/2022 7:15:00 AM -100000 -179968 -100000 -100000 -100000 -100000
6/7/2022 7:30:00 AM -100000 -179968 -100000 -100000 -100000 -100000
6/7/2022 7:45:00 AM -100000 -179968 -100000 -100000 -100000 -100000
6/7/2022 8:00:00 AM -100000 -179968 -100000 -100000 -100000 -100000
6/7/2022 8:15:00 AM -100000 -179968 -100000 -100000 -100000 -100000
6/7/2022 8:30:00 AM -100000 -179968 -100000 -100000 -100000 -100000
6/7/2022 8:45:00 AM -100000 -179968 -100000 -100000 -100000 -100000
6/7/2022 9:00:00 AM -100000 -179968 -100000 -100000 -100000 -100000
6/7/2022 9:15:00 AM -100000 -179968 -100000 -100000 -100000 -100000
6/7/2022 9:30:00 AM -100000 -179968 -100000 -100000 -100000 -100000
6/7/2022 9:45:00 AM -100000 -179968 -100000 -100000 -100000 -100000
6/7/2022 10:00:00 AM -100000 -179968 -100000 -100000 -100000 -100000
6/7/2022 10:15:00 AM -100000 -179968 -100000 -100000 -100000 -100000
6/7/2022 10:30:00 AM -100000 -179968 -100000 -100000 -100000 -100000
6/7/2022 10:45:00 AM -100000 -179968 -100000 -100000 -100000 -100000
6/7/2022 11:00:00 AM -100000 -179968 -100000 -100000 -100000 -100000
6/7/2022 11:15:00 AM -100000 -179968 -100000 -100000 -100000 -100000
6/7/2022 11:30:00 AM -100000 -179968 -100000 -100000 -100000 -100000
6/7/2022 11:45:00 AM -100000 -179968 -100000 -100000 -100000 -100000
6/7/2022 12:00:00 PM -100000 -179968 -100000 -100000 -100000 -100000
6/7/2022 12:15:00 PM -100000 -179968 -100000 -100000 -100000 -100000
6/7/2022 12:30:00 PM -100000 -179968 -100000 -100000 -100000 -100000
6/7/2022 12:45:00 PM -100000 -179968 -100000 -100000 -100000 -100000
6/7/2022 1:00:00 PM -100000 -179968 -100000 -100000 -100000 -100000
6/7/2022 1:15:00 PM -100000 -179968 -100000 -100000 -100000 -100000
6/7/2022 1:30:00 PM -100000 -179968 -100000 -100000 -100000 -100000
6/7/2022 1:45:00 PM -100000 -179968 -100000 -100000 -100000 -100000
6/7/2022 2:00:00 PM -100000 -179968 -100000 -100000 -100000 -100000
6/7/2022 2:15:00 PM -100000 -179968 -100000 -100000 -100000 -100000
6/7/2022 2:30:00 PM -100000 -179968 -100000 -100000 -100000 -100000
6/7/2022 2:45:00 PM -100000 -179968 -100000 -100000 -100000 -100000
6/7/2022 3:00:00 PM -100000 -179968 -100000 -100000 -100000 -100000
6/7/2022 3:15:00 PM -100000 -179968 -100000 -100000 -100000 -100000
6/7/2022 3:30:00 PM -100000 -179968 -100000 -100000 -100000 -100000
6/7/2022 3:45:00 PM -100000 -179968 -100000 -100000 -100000 -100000
6/7/2022 4:00:00 PM -100000 -179968 -100000 -100000 -100000 -100000
6/7/2022 4:15:00 PM -100000 -179968 -100000 -100000 -100000 -100000
6/7/2022 4:30:00 PM -100000 -179968 -100000 -100000 -100000 -100000
6/7/2022 4:45:00 PM -100000 -179968 -100000 -100000 -100000 -100000
6/7/2022 5:00:00 PM -100000 -179968 -100000 -100000 -100000 -100000
6/7/2022 5:15:00 PM -100000 -179968 -100000 -100000 -100000 -100000
6/7/2022 5:30:00 PM -100000 -179968 -100000 -100000 -100000 -100000
6/7/2022 5:45:00 PM -100000 -179968 -100000 -100000 -100000 -100000
6/7/2022 6:00:00 PM -100000 -179968 -100000 -100000 -100000 -100000
6/7/2022 6:15:00 PM -100000 -179968 -100000 -100000 -100000 -100000
6/7/2022 6:30:00 PM -100000 -179968 -100000 -100000 -100000 -100000
6/7/2022 6:45:00 PM -100000 -179968 -100000 -100000 -100000 -100000
6/7/2022 7:00:00 PM -100000 -179968 -100000 -100000 -100000 -100000
6/7/2022 7:15:00 PM -100000 -179968 -100000 -100000 -100000 -100000
6/7/2022 7:30:00 PM -100000 -179968 -100000 -100000 -100000 -100000
6/7/2022 7:45:00 PM -100000 -179968 -100000 -100000 -100000 -100000
6/7/2022 8:00:00 PM -100000 -179968 -100000 -100000 -100000 -100000
6/7/2022 8:15:00 PM -100000 -179968 -100000 -100000 -100000 -100000
6/7/2022 8:30:00 PM -100000 -179968 -100000 -100000 -100000 -100000
6/7/2022 8:45:00 PM -100000 -179968 -100000 -100000 -100000 -100000
6/7/2022 9:00:00 PM -100000 -179968 -100000 -100000 -100000 -100000
6/7/2022 9:15:00 PM -100000 -179968 -100000 -100000 -100000 -100000
6/7/2022 9:30:00 PM -100000 -179968 -100000 -100000 -100000 -100000
6/7/2022 9:45:00 PM -100000 -179968 -100000 -100000 -100000 -100000
6/7/2022 10:00:00 PM -100000 -179968 -100000 -100000 -100000 -100000
6/7/2022 10:15:00 PM -100000 -179968 -100000 -100000 -100000 -100000
6/7/2022 10:30:00 PM -100000 -179968 -100000 -100000 -100000 -100000
6/7/2022 10:45:00 PM -100000 -179968 -100000 -100000 -100000 -100000
6/7/2022 11:00:00 PM -100000 -179968 -100000 -100000 -100000 -100000
6/7/2022 11:15:00 PM -100000 -179968 -100000 -100000 -100000 -100000
6/7/2022 11:30:00 PM -100000 -179968 -100000 -100000 -100000 -100000
6/7/2022 11:45:00 PM -100000 -179968 -100000 -100000 -100000 -100000
6/8/2022 12:00:00 AM -100000 -179968 -100000 -100000 -100000 -100000
6/8/2022 12:15:00 AM -100000 -179968 -100000 -100000 -100000 -100000
6/8/2022 12:30:00 AM -100000 -179968 -100000 -100000 -100000 -100000
6/8/2022 12:45:00 AM -100000 -179968 -100000 -100000 -100000 -100000
6/8/2022 1:00:00 AM -100000 -179968 -100000 -100000 -100000 -100000
6/8/2022 1:15:00 AM -100000 -179968 -100000 -100000 -100000 -100000
6/8/2022 1:30:00 AM -100000 -179968 -100000 -100000 -100000 -100000
6/8/2022 1:45:00 AM -100000 -179968 -100000 -100000 -100000 -100000
6/8/2022 2:00:00 AM -100000 -179968 -100000 -100000 -100000 -100000
6/8/2022 2:15:00 AM -100000 -179968 -100000 -100000 -100000 -100000
6/8/2022 2:30:00 AM -100000 -179968 -100000 -100000 -100000 -100000
6/8/2022 2:45:00 AM -100000 -179968 -100000 -100000 -100000 -100000
6/8/2022 3:00:00 AM -100000 -179968 -100000 -100000 -100000 -100000
6/8/2022 3:15:00 AM -100000 -179968 -100000 -100000 -100000 -100000
6/8/2022 3:30:00 AM -100000 -179968 -100000 -100000 -100000 -100000
6/8/2022 3:45:00 AM -100000 -179968 -100000 -100000 -100000 -100000
6/8/2022 4:00:00 AM -100000 -179968 -100000 -100000 -100000 -100000
6/8/2022 4:15:00 AM -100000 -179968 -100000 -100000 -100000 -100000
6/8/2022 4:30:00 AM -100000 -179968 -100000 -100000 -100000 -100000
6/8/2022 4:45:00 AM -100000 -179968 -100000 -100000 -100000 -100000
6/8/2022 5:00:00 AM -100000 -179968 -100000 -100000 -100000 -100000
6/8/2022 5:15:00 AM -100000 -179968 -100000 -100000 -100000 -100000
6/8/2022 5:30:00 AM -100000 -179968 -100000 -100000 -100000 -100000
6/8/2022 5:45:00 AM -100000 -179968 -100000 -100000 -100000 -100000
6/8/2022 6:00:00 AM -100000 -179968 -100000 -100000 -100000 -100000
6/8/2022 6:15:00 AM -100000 -179968 -100000 -100000 -100000 -100000
6/8/2022 6:30:00 AM -100000 -179968 -100000 -100000 -100000 -100000
6/8/2022 6:45:00 AM -100000 -179968 -100000 -100000 -100000 -100000
6/8/2022 7:00:00 AM -100000 -179968 -100000 -100000 -100000 -100000
6/8/2022 7:15:00 AM -100000 -179968 -100000 -100000 -100000 -100000
6/8/2022 7:30:00 AM -100000 -179968 -100000 -100000 -100000 -100000
6/8/2022 7:45:00 AM -100000 -179968 -100000 -100000 -100000 -100000
6/8/2022 8:00:00 AM -100000 -179968 -100000 -100000 -100000 -100000
6/8/2022 8:15:00 AM -100000 -179968 -100000 -100000 -100000 -100000
6/8/2022 8:30:00 AM -100000 -179968 -100000 -100000 -100000 -100000
6/8/2022 8:45:00 AM -100000 -179968 -100000 -100000 -100000 -100000
6/8/2022 9:00:00 AM -100000 -179968 -100000 -100000 -100000 -100000
6/8/2022 9:15:00 AM -100000 -179968 -100000 -100000 -100000 -100000
6/8/2022 9:30:00 AM -100000 -179968 -100000 -100000 -100000 -100000
6/8/2022 9:45:00 AM -100000 -179968 -100000 -100000 -100000 -100000
6/8/2022 10:00:00 AM -100000 -179968 -100000 -100000 -100000 -100000
6/8/2022 10:15:00 AM -100000 -179968 -100000 -100000 -100000 -100000
6/8/2022 10:30:00 AM -100000 -179968 -100000 -100000 -100000 -100000
6/8/2022 10:45:00 AM -100000 -179968 -100000 -100000 -100000 -100000
6/8/2022 11:00:00 AM -100000 -179968 -100000 -100000 -100000 -100000
6/8/2022 11:15:00 AM -100000 -179968 -100000 -100000 -100000 -100000
6/8/2022 11:30:00 AM -100000 -179968 -100000 -100000 -100000 -100000
6/8/2022 11:45:00 AM -100000 -179968 -100000 -100000 -100000 -100000
6/8/2022 12:00:00 PM -100000 -179968 -100000 -100000 -100000 -100000
6/8/2022 12:15:00 PM -100000 -179968 -100000 -100000 -100000 -100000
6/8/2022 12:30:00 PM -100000 -179968 -100000 -100000 -100000 -100000
6/8/2022 12:45:00 PM -100000 -179968 -100000 -100000 -100000 -100000
6/8/2022 1:00:00 PM -100000 -179968 -100000 -100000 -100000 -100000
6/8/2022 1:15:00 PM -100000 -179968 -100000 -100000 -100000 -100000
6/8/2022 1:30:00 PM -100000 -179968 -100000 -100000 -100000 -100000
6/8/2022 1:45:00 PM -100000 -179968 -100000 -100000 -100000 -100000
6/8/2022 2:00:00 PM -100000 -179968 -100000 -100000 -100000 -100000
6/8/2022 2:15:00 PM -100000 -179968 -100000 -100000 -100000 -100000
6/8/2022 2:30:00 PM -100000 -179968 -100000 -100000 -100000 -100000
6/8/2022 2:45:00 PM -100000 -179968 -100000 -100000 -100000 -100000
6/8/2022 3:00:00 PM -100000 -179968 -100000 -100000 -100000 -100000
6/8/2022 3:15:00 PM -100000 -179968 -100000 -100000 -100000 -100000
6/8/2022 3:30:00 PM -100000 -179968 -100000 -100000 -100000 -100000
6/8/2022 3:45:00 PM -100000 -179968 -100000 -100000 -100000 -100000
6/8/2022 4:00:00 PM -100000 -179968 -100000 -100000 -100000 -100000
6/8/2022 4:15:00 PM -100000 -179968 -100000 -100000 -100000 -100000
6/8/2022 4:30:00 PM -100000 -179968 -100000 -100000 -100000 -100000
6/8/2022 4:45:00 PM -100000 -179968 -100000 -100000 -100000 -100000
6/8/2022 5:00:00 PM -100000 -179968 -100000 -100000 -100000 -100000
6/8/2022 5:15:00 PM -100000 -179968 -100000 -100000 -100000 -100000
6/8/2022 5:30:00 PM -100000 -179968 -100000 -100000 -100000 -100000
6/8/2022 5:45:00 PM -100000 -179968 -100000 -100000 -100000 -100000
6/8/2022 6:00:00 PM -100000 -179968 -100000 -100000 -100000 -100000
6/8/2022 6:15:00 PM -100000 -179968 -100000 -100000 -100000 -100000
6/8/2022 6:30:00 PM -100000 -179968 -100000 -100000 -100000 -100000
6/8/2022 6:45:00 PM -100000 -179968 -100000 -100000 -100000 -100000
6/8/2022 7:00:00 PM -100000 -179968 -100000 -100000 -100000 -100000
6/8/2022 7:15:00 PM -100000 -179968 -100000 -100000 -100000 -100000
6/8/2022 7:30:00 PM -100000 -179968 -100000 -100000 -100000 -100000
6/8/2022 7:45:00 PM -100000 -179968 -100000 -100000 -100000 -100000
6/8/2022 8:00:00 PM -100000 -179968 -100000 -100000 -100000 -100000
6/8/2022 8:15:00 PM -100000 -179968 -100000 -100000 -100000 -100000
6/8/2022 8:30:00 PM -100000 -179968 -100000 -100000 -100000 -100000
6/8/2022 8:45:00 PM -100000 -179968 -100000 -100000 -100000 -100000
6/8/2022 9:00:00 PM -100000 -179968 -100000 -100000 -100000 -100000
6/8/2022 9:15:00 PM -100000 -179968 -100000 -100000 -100000 -100000
6/8/2022 9:30:00 PM -100000 -179968 -100000 -100000 -100000 -100000
6/8/2022 9:45:00 PM -100000 -179968 -100000 -100000 -100000 -100000
6/8/2022 10:00:00 PM -100000 -179968 -100000 -100000 -100000 -100000
6/8/2022 10:15:00 PM -100000 -179968 -100000 -100000 -100000 -100000
6/8/2022 10:30:00 PM -100000 -179968 -100000 -100000 -100000 -100000
6/8/2022 10:45:00 PM -100000 -179968 -100000 -100000 -100000 -100000
6/8/2022 11:00:00 PM -100000 -179968 -100000 -100000 -100000 -100000
6/8/2022 11:15:00 PM -100000 -179968 -100000 -100000 -100000 -100000
6/8/2022 11:30:00 PM -100000 -179968 -100000 -100000 -100000 -100000
6/8/2022 11:45:00 PM -100000 -179968 -100000 -100000 -100000 -100000
6/9/2022 12:00:00 AM -100000 -179968 -100000 -100000 -100000 -100000
6/9/2022 12:15:00 AM -100000 -179968 -100000 -100000 -100000 -100000
6/9/2022 12:30:00 AM -100000 -179968 -100000 -100000 -100000 -100000
6/9/2022 12:45:00 AM -100000 -179968 -100000 -100000 -100000 -100000
6/9/2022 1:00:00 AM -100000 -179968 -100000 -100000 -100000 -100000
6/9/2022 1:15:00 AM -100000 -179968 -100000 -100000 -100000 -100000
6/9/2022 1:30:00 AM -100000 -179968 -100000 -100000 -100000 -100000
6/9/2022 1:45:00 AM -100000 -179968 -100000 -100000 -100000 -100000
6/9/2022 2:00:00 AM -100000 -179968 -100000 -100000 -100000 -100000
6/9/2022 2:15:00 AM -100000 -179968 -100000 -100000 -100000 -100000
6/9/2022 2:30:00 AM -100000 -179968 -100000 -100000 -100000 -100000
6/9/2022 2:45:00 AM -100000 -179968 -100000 -100000 -100000 -100000
6/9/2022 3:00:00 AM -100000 -179968 -100000 -100000 -100000 -100000
6/9/2022 3:15:00 AM -100000 -179968 -100000 -100000 -100000 -100000
6/9/2022 3:30:00 AM -100000 -179968 -100000 -100000 -100000 -100000
6/9/2022 3:45:00 AM -100000 -179968 -100000 -100000 -100000 -100000
6/9/2022 4:00:00 AM -100000 -179968 -100000 -100000 -100000 -100000
6/9/2022 4:15:00 AM -100000 -179968 -100000 -100000 -100000 -100000
6/9/2022 4:30:00 AM -100000 -179968 -100000 -100000 -100000 -100000
6/9/2022 4:45:00 AM -100000 -179968 -100000 -100000 -100000 -100000
6/9/2022 5:00:00 AM -100000 -179968 -100000 -100000 -100000 -100000
6/9/2022 5:15:00 AM -100000 -179968 -100000 -100000 -100000 -100000
6/9/2022 5:30:00 AM -100000 -179968 -100000 -100000 -100000 -100000
6/9/2022 5:45:00 AM -100000 -179968 -100000 -100000 -100000 -100000
6/9/2022 6:00:00 AM -100000 -179968 -100000 -100000 -100000 -100000
6/9/2022 6:15:00 AM -100000 -179968 -100000 -100000 -100000 -100000
6/9/2022 6:30:00 AM -100000 -179968 -100000 -100000 -100000 -100000
6/9/2022 6:45:00 AM -100000 -179968 -100000 -100000 -100000 -100000
6/9/2022 7:00:00 AM -100000 -179968 -100000 -100000 -100000 -100000
6/9/2022 7:15:00 AM -100000 -179968 -100000 -100000 -100000 -100000
6/9/2022 7:30:00 AM -100000 -179968 -100000 -100000 -100000 -100000
6/9/2022 7:45:00 AM -100000 -179968 -100000 -100000 -100000 -100000
6/9/2022 8:00:00 AM -100000 -179968 -100000 -100000 -100000 -100000
6/9/2022 8:15:00 AM -100000 -179968 -100000 -100000 -100000 -100000
6/9/2022 8:30:00 AM -100000 -179968 -100000 -100000 -100000 -100000
6/9/2022 8:45:00 AM -100000 -179968 -100000 -100000 -100000 -100000
6/9/2022 9:00:00 AM -100000 -179968 -100000 -100000 -100000 -100000
6/9/2022 9:15:00 AM -100000 -179968 -100000 -100000 -100000 -100000
6/9/2022 9:30:00 AM -100000 -179968 -100000 -100000 -100000 -100000
6/9/2022 9:45:00 AM -100000 -179968 -100000 -100000 -100000 -100000
6/9/2022 10:00:00 AM -100000 -179968 -100000 -100000 -100000 -100000
6/9/2022 10:15:00 AM -100000 -179968 -100000 -100000 -100000 -100000
6/9/2022 10:30:00 AM -100000 -179968 -100000 -100000 -100000 -100000
6/9/2022 10:45:00 AM -100000 -179968 -100000 -100000 -100000 -100000
6/9/2022 11:00:00 AM -100000 -179968 -100000 -100000 -100000 -100000
6/9/2022 11:15:00 AM -100000 -179968 -100000 -100000 -100000 -100000
6/9/2022 11:30:00 AM -100000 -179968 -100000 -100000 -100000 -100000
6/9/2022 11:45:00 AM -100000 -179968 -100000 -100000 -100000 -100000
6/9/2022 12:00:00 PM -100000 -179968 -100000 -100000 -100000 -100000
6/9/2022 12:15:00 PM -100000 -179968 -100000 -100000 -100000 -100000
6/9/2022 12:30:00 PM -100000 -179968 -100000 -100000 -100000 -100000
6/9/2022 12:45:00 PM -100000 -179968 -100000 -100000 -100000 -100000
6/9/2022 1:00:00 PM -100000 -179968 -100000 -100000 -100000 -100000
6/9/2022 1:15:00 PM -100000 -179968 -100000 -100000 -100000 -100000
6/9/2022 1:30:00 PM -100000 -179968 -100000 -100000 -100000 -100000
6/9/2022 1:45:00 PM -100000 -179968 -100000 -100000 -100000 -100000
6/9/2022 2:00:00 PM -100000 -179968 -100000 -100000 -100000 -100000
6/9/2022 2:15:00 PM -100000 -179968 -100000 -100000 -100000 -100000
6/9/2022 2:30:00 PM -100000 -179968 -100000 -100000 -100000 -100000
6/9/2022 2:45:00 PM -100000 -179968 -100000 -100000 -100000 -100000
6/9/2022 3:00:00 PM -100000 -179968 -100000 -100000 -100000 -100000
6/9/2022 3:15:00 PM -100000 -179968 -100000 -100000 -100000 -100000
6/9/2022 3:30:00 PM -100000 -179968 -100000 -100000 -100000 -100000
6/9/2022 3:45:00 PM -100000 -179968 -100000 -100000 -100000 -100000
6/9/2022 4:00:00 PM -100000 -179968 -100000 -100000 -100000 -100000
6/9/2022 4:15:00 PM -100000 -179968 -100000 -100000 -100000 -100000
6/9/2022 4:30:00 PM -100000 -179968 -100000 -100000 -100000 -100000
6/9/2022 4:45:00 PM -100000 -179968 -100000 -100000 -100000 -100000
6/9/2022 5:00:00 PM -100000 -179968 -100000 -100000 -100000 -100000
6/9/2022 5:15:00 PM -100000 -179968 -100000 -100000 -100000 -100000
6/9/2022 5:30:00 PM -100000 -179968 -100000 -100000 -100000 -100000
6/9/2022 5:45:00 PM -100000 -179968 -100000 -100000 -100000 -100000
6/9/2022 6:00:00 PM -100000 -179968 -100000 -100000 -100000 -100000
6/9/2022 6:15:00 PM -100000 -179968 -100000 -100000 -100000 -100000
6/9/2022 6:30:00 PM -100000 -179968 -100000 -100000 -100000 -100000
6/9/2022 6:45:00 PM -100000 -179968 -100000 -100000 -100000 -100000
6/9/2022 7:00:00 PM -100000 -179968 -100000 -100000 -100000 -100000
6/9/2022 7:15:00 PM -100000 -179968 -100000 -100000 -100000 -100000
6/9/2022 7:30:00 PM -100000 -179968 -100000 -100000 -100000 -100000
6/9/2022 7:45:00 PM -100000 -179968 -100000 -100000 -100000 -100000
6/9/2022 8:00:00 PM -100000 -179968 -100000 -100000 -100000 -100000
6/9/2022 8:15:00 PM -100000 -179968 -100000 -100000 -100000 -100000
6/9/2022 8:30:00 PM -100000 -179968 -100000 -100000 -100000 -100000
6/9/2022 8:45:00 PM -100000 -179968 -100000 -100000 -100000 -100000
6/9/2022 9:00:00 PM -100000 -179968 -100000 -100000 -100000 -100000
6/9/2022 9:15:00 PM -100000 -179968 -100000 -100000 -100000 -100000
6/9/2022 9:30:00 PM -100000 -179968 -100000 -100000 -100000 -100000
6/9/2022 9:45:00 PM -100000 -179968 -100000 -100000 -100000 -100000
6/9/2022 10:00:00 PM -100000 -179968 -100000 -100000 -100000 -100000
6/9/2022 10:15:00 PM -100000 -179968 -100000 -100000 -100000 -100000